PWSweather.com
Personal Weather Stations
Station Observations
KMILAPEE3
Lapeer Michigan, Lapeer, MI 48446

Lapeer MichiganLapeer, MI 48446

Lat: 43.057, Lon: -83.362

Elevation: 897

Station Type: Oregon Scientific WMR-968

Latest ConditionsUpdated 2:16:07 PM EST Friday, Dec 9, 2016
Currently Today's Max Today's Min Today's Average
Temperature 28.0°F-2.2°C 29.7°F-1.3°C 22.6°F-5.2°C 25.5°F-3.6°C
Dew Point 12.3°F-10.9°C 20.8°F-6.2°C 12.3°F-10.9°C 17.5°F-8.1°C
Winds 11.5 mph W18.5 kmh W 18.3 mph WNW29.5 kmh WNW - 9.3 mph 15.0 kmh
Wind Gusts 22.3 mph35.9 kmh 27.8 mph44.7 kmh - -
Humidity 51% 79% 50% 72%
Pressure 29.35 in993.9 mb 29.38 in994.9 mb 29.23 in989.8 mb -
Hour Temp Dew Point Humidity Winds Wind Gusts Pressure Precip Precip Rate Daily Precip Total
02:16 PM 28.0°F-2.2°C 12.3°F-10.9°C 51% 11.5 mph W18.5 kmh W 22.3 mph35.9 kmh 29.35 in993.9 mb 0.00 in0.0 mm 0.00 in0.0 mm 0.00 in0.0 mm
02:15 PM 28.0°F-2.2°C 12.3°F-10.9°C 51% 11.5 mph W18.5 kmh W 22.3 mph35.9 kmh 29.35 in993.9 mb 0.00 in0.0 mm 0.00 in0.0 mm 0.00 in0.0 mm
02:14 PM 28.0°F-2.2°C 12.3°F-10.9°C 51% 11.9 mph W19.2 kmh W 22.3 mph35.9 kmh 29.35 in993.9 mb 0.00 in0.0 mm 0.00 in0.0 mm 0.00 in0.0 mm
02:13 PM 28.2°F-2.1°C 12.4°F-10.9°C 51% 11.9 mph W19.2 kmh W 22.3 mph35.9 kmh 29.35 in993.9 mb 0.00 in0.0 mm 0.00 in0.0 mm 0.00 in0.0 mm
02:12 PM 28.2°F-2.1°C 12.4°F-10.9°C 51% 13.3 mph W21.4 kmh W 22.3 mph35.9 kmh 29.35 in993.9 mb 0.00 in0.0 mm 0.00 in0.0 mm 0.00 in0.0 mm
02:11 PM 28.2°F-2.1°C 12.5°F-10.8°C 51% 13.9 mph W22.4 kmh W 22.3 mph35.9 kmh 29.35 in993.9 mb 0.00 in0.0 mm 0.00 in0.0 mm 0.00 in0.0 mm
02:10 PM 28.2°F-2.1°C 12.5°F-10.8°C 51% 12.0 mph WNW19.3 kmh WNW 22.3 mph35.9 kmh 29.35 in993.9 mb 0.00 in0.0 mm 0.00 in0.0 mm 0.00 in0.0 mm
02:09 PM 28.2°F-2.1°C 12.5°F-10.8°C 51% 10.8 mph WNW17.4 kmh WNW 22.3 mph35.9 kmh 29.35 in993.9 mb 0.00 in0.0 mm 0.00 in0.0 mm 0.00 in0.0 mm
02:08 PM 28.2°F-2.1°C 12.5°F-10.8°C 51% 11.8 mph W19.0 kmh W 19.7 mph31.7 kmh 29.35 in993.9 mb 0.00 in0.0 mm 0.00 in0.0 mm 0.00 in0.0 mm
02:07 PM 28.2°F-2.1°C 12.5°F-10.8°C 51% 12.1 mph W19.5 kmh W 19.7 mph31.7 kmh 29.35 in993.9 mb 0.00 in0.0 mm 0.00 in0.0 mm 0.00 in0.0 mm
02:06 PM 28.2°F-2.1°C 12.5°F-10.8°C 51% 12.2 mph W19.6 kmh W 19.7 mph31.7 kmh 29.35 in993.9 mb 0.00 in0.0 mm 0.00 in0.0 mm 0.00 in0.0 mm
02:05 PM 28.2°F-2.1°C 12.5°F-10.8°C 51% 13.6 mph W21.9 kmh W 19.7 mph31.7 kmh 29.35 in993.9 mb 0.00 in0.0 mm 0.00 in0.0 mm 0.00 in0.0 mm
02:04 PM 28.4°F-2.0°C 12.6°F-10.8°C 51% 12.8 mph W20.6 kmh W 19.7 mph31.7 kmh 29.35 in993.9 mb 0.00 in0.0 mm 0.00 in0.0 mm 0.00 in0.0 mm
02:03 PM 28.4°F-2.0°C 12.6°F-10.8°C 51% 12.2 mph W19.6 kmh W 19.7 mph31.7 kmh 29.35 in993.9 mb 0.00 in0.0 mm 0.00 in0.0 mm 0.00 in0.0 mm
02:02 PM 28.4°F-2.0°C 12.6°F-10.8°C 51% 12.0 mph WSW19.3 kmh WSW 19.9 mph32.0 kmh 29.35 in993.9 mb 0.00 in0.0 mm 0.00 in0.0 mm 0.00 in0.0 mm
02:01 PM 28.4°F-2.0°C 12.7°F-10.7°C 51% 10.9 mph W17.5 kmh W 22.3 mph35.9 kmh 29.35 in993.9 mb 0.00 in0.0 mm 0.00 in0.0 mm 0.00 in0.0 mm
02:00 PM 28.4°F-2.0°C 12.7°F-10.7°C 51% 11.7 mph W18.8 kmh W 23.1 mph37.2 kmh 29.35 in993.9 mb 0.00 in0.0 mm 0.00 in0.0 mm 0.00 in0.0 mm
01:59 PM 28.4°F-2.0°C 12.7°F-10.7°C 51% 12.8 mph W20.6 kmh W 23.1 mph37.2 kmh 29.35 in993.9 mb 0.00 in0.0 mm 0.00 in0.0 mm 0.00 in0.0 mm
01:58 PM 28.4°F-2.0°C 12.7°F-10.7°C 51% 12.4 mph W20.0 kmh W 23.1 mph37.2 kmh 29.35 in993.9 mb 0.00 in0.0 mm 0.00 in0.0 mm 0.00 in0.0 mm
01:57 PM 28.4°F-2.0°C 12.7°F-10.7°C 51% 11.6 mph W18.7 kmh W 23.1 mph37.2 kmh 29.35 in993.9 mb 0.00 in0.0 mm 0.00 in0.0 mm 0.00 in0.0 mm
01:56 PM 28.4°F-2.0°C 12.7°F-10.7°C 51% 11.9 mph W19.2 kmh W 23.1 mph37.2 kmh 29.35 in993.9 mb 0.00 in0.0 mm 0.00 in0.0 mm 0.00 in0.0 mm
01:55 PM 28.4°F-2.0°C 12.7°F-10.7°C 51% 12.8 mph W20.6 kmh W 23.1 mph37.2 kmh 29.35 in993.9 mb 0.00 in0.0 mm 0.00 in0.0 mm 0.00 in0.0 mm
01:54 PM 28.4°F-2.0°C 12.7°F-10.7°C 51% 14.8 mph W23.8 kmh W 23.1 mph37.2 kmh 29.35 in993.9 mb 0.00 in0.0 mm 0.00 in0.0 mm 0.00 in0.0 mm
01:53 PM 28.4°F-2.0°C 12.7°F-10.7°C 51% 17.4 mph W28.0 kmh W 23.1 mph37.2 kmh 29.35 in993.9 mb 0.00 in0.0 mm 0.00 in0.0 mm 0.00 in0.0 mm
01:52 PM 28.6°F-1.9°C 12.8°F-10.7°C 51% 17.0 mph W27.4 kmh W 23.1 mph37.2 kmh 29.35 in993.9 mb 0.00 in0.0 mm 0.00 in0.0 mm 0.00 in0.0 mm
01:51 PM 28.6°F-1.9°C 12.9°F-10.6°C 51% 14.5 mph WNW23.3 kmh WNW 23.1 mph37.2 kmh 29.35 in993.9 mb 0.00 in0.0 mm 0.00 in0.0 mm 0.00 in0.0 mm
01:50 PM 28.6°F-1.9°C 12.9°F-10.6°C 51% 14.7 mph W23.7 kmh W 22.3 mph35.9 kmh 29.35 in993.9 mb 0.00 in0.0 mm 0.00 in0.0 mm 0.00 in0.0 mm
01:49 PM 28.6°F-1.9°C 12.3°F-10.9°C 50% 14.7 mph W23.7 kmh W 21.8 mph35.1 kmh 29.35 in993.9 mb 0.00 in0.0 mm 0.00 in0.0 mm 0.00 in0.0 mm
01:48 PM 28.6°F-1.9°C 12.3°F-10.9°C 50% 13.9 mph WNW22.4 kmh WNW 21.8 mph35.1 kmh 29.35 in993.9 mb 0.00 in0.0 mm 0.00 in0.0 mm 0.00 in0.0 mm
01:47 PM 28.6°F-1.9°C 12.3°F-10.9°C 50% 14.2 mph WNW22.9 kmh WNW 23.6 mph38.0 kmh 29.35 in993.9 mb 0.00 in0.0 mm 0.00 in0.0 mm 0.00 in0.0 mm
01:46 PM 28.6°F-1.9°C 12.3°F-10.9°C 50% 13.4 mph WNW21.6 kmh WNW 23.6 mph38.0 kmh 29.35 in993.9 mb 0.00 in0.0 mm 0.00 in0.0 mm 0.00 in0.0 mm
01:45 PM 28.6°F-1.9°C 12.3°F-10.9°C 50% 12.6 mph WNW20.3 kmh WNW 23.6 mph38.0 kmh 29.35 in993.9 mb 0.00 in0.0 mm 0.00 in0.0 mm 0.00 in0.0 mm
01:44 PM 28.6°F-1.9°C 12.3°F-10.9°C 50% 12.6 mph WNW20.3 kmh WNW 23.6 mph38.0 kmh 29.35 in993.9 mb 0.00 in0.0 mm 0.00 in0.0 mm 0.00 in0.0 mm
01:43 PM 28.6°F-1.9°C 12.3°F-10.9°C 50% 11.7 mph WNW18.8 kmh WNW 23.6 mph38.0 kmh 29.35 in993.9 mb 0.00 in0.0 mm 0.00 in0.0 mm 0.00 in0.0 mm
01:42 PM 28.6°F-1.9°C 12.3°F-10.9°C 50% 11.9 mph WNW19.2 kmh WNW 23.6 mph38.0 kmh 29.35 in993.9 mb 0.00 in0.0 mm 0.00 in0.0 mm 0.00 in0.0 mm
01:41 PM 28.8°F-1.8°C 13.0°F-10.6°C 51% 13.3 mph W21.4 kmh W 23.6 mph38.0 kmh 29.35 in993.9 mb 0.00 in0.0 mm 0.00 in0.0 mm 0.00 in0.0 mm
01:40 PM 28.8°F-1.8°C 13.1°F-10.5°C 51% 15.5 mph W24.9 kmh W 23.6 mph38.0 kmh 29.35 in993.9 mb 0.00 in0.0 mm 0.00 in0.0 mm 0.00 in0.0 mm
01:39 PM 28.8°F-1.8°C 13.1°F-10.5°C 51% 14.5 mph W23.3 kmh W 23.6 mph38.0 kmh 29.35 in993.9 mb 0.00 in0.0 mm 0.00 in0.0 mm 0.00 in0.0 mm
01:38 PM 28.8°F-1.8°C 13.1°F-10.5°C 51% 11.8 mph W19.0 kmh W 23.6 mph38.0 kmh 29.35 in993.9 mb 0.00 in0.0 mm 0.00 in0.0 mm 0.00 in0.0 mm
01:37 PM 28.9°F-1.7°C 13.1°F-10.5°C 51% 14.0 mph W22.5 kmh W 20.4 mph32.8 kmh 29.35 in993.9 mb 0.00 in0.0 mm 0.00 in0.0 mm 0.00 in0.0 mm
01:36 PM 28.9°F-1.7°C 13.1°F-10.5°C 51% 14.3 mph W23.0 kmh W 20.6 mph33.2 kmh 29.35 in993.9 mb 0.00 in0.0 mm 0.00 in0.0 mm 0.00 in0.0 mm
01:35 PM 28.9°F-1.7°C 13.2°F-10.4°C 51% 14.5 mph WNW23.3 kmh WNW 22.3 mph35.9 kmh 29.35 in993.9 mb 0.00 in0.0 mm 0.00 in0.0 mm 0.00 in0.0 mm
01:34 PM 28.9°F-1.7°C 13.2°F-10.4°C 51% 13.4 mph WNW21.6 kmh WNW 27.8 mph44.7 kmh 29.35 in993.9 mb 0.00 in0.0 mm 0.00 in0.0 mm 0.00 in0.0 mm
01:33 PM 28.9°F-1.7°C 13.2°F-10.4°C 51% 11.7 mph W18.8 kmh W 27.8 mph44.7 kmh 29.35 in993.9 mb 0.00 in0.0 mm 0.00 in0.0 mm 0.00 in0.0 mm
01:32 PM 28.9°F-1.7°C 13.2°F-10.4°C 51% 10.9 mph WNW17.5 kmh WNW 27.8 mph44.7 kmh 29.35 in993.9 mb 0.00 in0.0 mm 0.00 in0.0 mm 0.00 in0.0 mm
01:31 PM 28.9°F-1.7°C 13.2°F-10.4°C 51% 10.2 mph WNW16.4 kmh WNW 27.8 mph44.7 kmh 29.35 in993.9 mb 0.00 in0.0 mm 0.00 in0.0 mm 0.00 in0.0 mm
01:30 PM 28.9°F-1.7°C 13.2°F-10.4°C 51% 11.2 mph W18.0 kmh W 27.8 mph44.7 kmh 29.35 in993.9 mb 0.00 in0.0 mm 0.00 in0.0 mm 0.00 in0.0 mm
01:29 PM 28.9°F-1.7°C 13.2°F-10.4°C 51% 11.7 mph W18.8 kmh W 27.8 mph44.7 kmh 29.35 in993.9 mb 0.00 in0.0 mm 0.00 in0.0 mm 0.00 in0.0 mm
01:28 PM 28.9°F-1.7°C 13.2°F-10.4°C 51% 14.1 mph W22.7 kmh W 27.8 mph44.7 kmh 29.35 in993.9 mb 0.00 in0.0 mm 0.00 in0.0 mm 0.00 in0.0 mm
01:27 PM 28.9°F-1.7°C 13.2°F-10.4°C 51% 17.4 mph W28.0 kmh W 27.8 mph44.7 kmh 29.35 in993.9 mb 0.00 in0.0 mm 0.00 in0.0 mm 0.00 in0.0 mm
01:26 PM 28.9°F-1.7°C 13.2°F-10.4°C 51% 16.9 mph W27.2 kmh W 27.8 mph44.7 kmh 29.35 in993.9 mb 0.00 in0.0 mm 0.00 in0.0 mm 0.00 in0.0 mm
01:25 PM 29.1°F-1.6°C 13.3°F-10.4°C 51% 17.1 mph W27.5 kmh W 27.8 mph44.7 kmh 29.35 in993.9 mb 0.00 in0.0 mm 0.00 in0.0 mm 0.00 in0.0 mm
01:24 PM 29.1°F-1.6°C 13.3°F-10.4°C 51% 18.0 mph WNW29.0 kmh WNW 25.2 mph40.6 kmh 29.35 in993.9 mb 0.00 in0.0 mm 0.00 in0.0 mm 0.00 in0.0 mm
01:23 PM 29.1°F-1.6°C 13.3°F-10.4°C 51% 16.3 mph WNW26.2 kmh WNW 25.2 mph40.6 kmh 29.35 in993.9 mb 0.00 in0.0 mm 0.00 in0.0 mm 0.00 in0.0 mm
01:22 PM 29.1°F-1.6°C 13.4°F-10.3°C 51% 15.2 mph W24.5 kmh W 25.2 mph40.6 kmh 29.35 in993.9 mb 0.00 in0.0 mm 0.00 in0.0 mm 0.00 in0.0 mm
01:21 PM 29.1°F-1.6°C 13.4°F-10.3°C 51% 15.1 mph W24.3 kmh W 22.3 mph35.9 kmh 29.35 in993.9 mb 0.00 in0.0 mm 0.00 in0.0 mm 0.00 in0.0 mm
01:20 PM 29.1°F-1.6°C 13.4°F-10.3°C 51% 14.3 mph W23.0 kmh W 22.3 mph35.9 kmh 29.35 in993.9 mb 0.00 in0.0 mm 0.00 in0.0 mm 0.00 in0.0 mm
01:19 PM 29.1°F-1.6°C 13.4°F-10.3°C 51% 15.2 mph W24.5 kmh W 22.3 mph35.9 kmh 29.35 in993.9 mb 0.00 in0.0 mm 0.00 in0.0 mm 0.00 in0.0 mm
01:18 PM 29.1°F-1.6°C 13.4°F-10.3°C 51% 16.2 mph W26.1 kmh W 22.3 mph35.9 kmh 29.35 in993.9 mb 0.00 in0.0 mm 0.00 in0.0 mm 0.00 in0.0 mm
01:17 PM 29.1°F-1.6°C 13.4°F-10.3°C 51% 12.9 mph WNW20.8 kmh WNW 22.3 mph35.9 kmh 29.35 in993.9 mb 0.00 in0.0 mm 0.00 in0.0 mm 0.00 in0.0 mm
01:16 PM 29.1°F-1.6°C 13.4°F-10.3°C 51% 9.3 mph WNW15.0 kmh WNW 21.8 mph35.1 kmh 29.35 in993.9 mb 0.00 in0.0 mm 0.00 in0.0 mm 0.00 in0.0 mm
01:15 PM 29.1°F-1.6°C 13.4°F-10.3°C 51% 8.4 mph W13.5 kmh W 23.6 mph38.0 kmh 29.35 in993.9 mb 0.00 in0.0 mm 0.00 in0.0 mm 0.00 in0.0 mm
01:14 PM 29.1°F-1.6°C 13.4°F-10.3°C 51% 11.7 mph W18.8 kmh W 23.6 mph38.0 kmh 29.35 in993.9 mb 0.00 in0.0 mm 0.00 in0.0 mm 0.00 in0.0 mm
01:13 PM 29.1°F-1.6°C 13.4°F-10.3°C 51% 13.7 mph WNW22.0 kmh WNW 23.6 mph38.0 kmh 29.35 in993.9 mb 0.00 in0.0 mm 0.00 in0.0 mm 0.00 in0.0 mm
01:12 PM 29.1°F-1.6°C 13.4°F-10.3°C 51% 13.1 mph WNW21.1 kmh WNW 23.6 mph38.0 kmh 29.35 in993.9 mb 0.00 in0.0 mm 0.00 in0.0 mm 0.00 in0.0 mm
01:11 PM 29.1°F-1.6°C 13.4°F-10.3°C 51% 10.1 mph WNW16.3 kmh WNW 23.6 mph38.0 kmh 29.35 in993.9 mb 0.00 in0.0 mm 0.00 in0.0 mm 0.00 in0.0 mm
01:10 PM 28.9°F-1.7°C 13.2°F-10.4°C 51% 10.3 mph W16.6 kmh W 24.4 mph39.3 kmh 29.35 in993.9 mb 0.00 in0.0 mm 0.00 in0.0 mm 0.00 in0.0 mm
01:09 PM 28.9°F-1.7°C 13.2°F-10.4°C 51% 11.8 mph WNW19.0 kmh WNW 24.4 mph39.3 kmh 29.35 in993.9 mb 0.00 in0.0 mm 0.00 in0.0 mm 0.00 in0.0 mm
01:08 PM 28.9°F-1.7°C 13.2°F-10.4°C 51% 14.0 mph WNW22.5 kmh WNW 24.4 mph39.3 kmh 29.35 in993.9 mb 0.00 in0.0 mm 0.00 in0.0 mm 0.00 in0.0 mm
01:07 PM 28.9°F-1.7°C 13.2°F-10.4°C 51% 16.1 mph WNW25.9 kmh WNW 24.4 mph39.3 kmh 29.35 in993.9 mb 0.00 in0.0 mm 0.00 in0.0 mm 0.00 in0.0 mm
01:06 PM 28.9°F-1.7°C 13.2°F-10.4°C 51% 14.3 mph W23.0 kmh W 24.4 mph39.3 kmh 29.35 in993.9 mb 0.00 in0.0 mm 0.00 in0.0 mm 0.00 in0.0 mm
01:05 PM 28.9°F-1.7°C 13.2°F-10.4°C 51% 13.2 mph W21.2 kmh W 24.4 mph39.3 kmh 29.35 in993.9 mb 0.00 in0.0 mm 0.00 in0.0 mm 0.00 in0.0 mm
01:04 PM 28.9°F-1.7°C 13.2°F-10.4°C 51% 13.2 mph W21.2 kmh W 24.4 mph39.3 kmh 29.35 in993.9 mb 0.00 in0.0 mm 0.00 in0.0 mm 0.00 in0.0 mm
01:03 PM 28.9°F-1.7°C 13.2°F-10.4°C 51% 15.7 mph W25.3 kmh W 24.4 mph39.3 kmh 29.35 in993.9 mb 0.00 in0.0 mm 0.00 in0.0 mm 0.00 in0.0 mm
01:02 PM 28.9°F-1.7°C 13.2°F-10.4°C 52% 15.7 mph WNW25.3 kmh WNW 26.0 mph41.8 kmh 29.35 in993.9 mb 0.00 in0.0 mm 0.00 in0.0 mm 0.00 in0.0 mm
01:01 PM 28.9°F-1.7°C 13.7°F-10.2°C 53% 13.2 mph W21.2 kmh W 26.0 mph41.8 kmh 29.35 in993.9 mb 0.00 in0.0 mm 0.00 in0.0 mm 0.00 in0.0 mm
01:00 PM 28.9°F-1.7°C 13.7°F-10.2°C 53% 13.8 mph WSW22.2 kmh WSW 26.0 mph41.8 kmh 29.35 in993.9 mb 0.00 in0.0 mm 0.00 in0.0 mm 0.00 in0.0 mm
12:59 PM 28.9°F-1.7°C 13.7°F-10.2°C 53% 14.2 mph W22.9 kmh W 26.0 mph41.8 kmh 29.35 in993.9 mb 0.00 in0.0 mm 0.00 in0.0 mm 0.00 in0.0 mm
12:58 PM 28.9°F-1.7°C 13.7°F-10.2°C 53% 14.4 mph W23.2 kmh W 26.0 mph41.8 kmh 29.35 in993.9 mb 0.00 in0.0 mm 0.00 in0.0 mm 0.00 in0.0 mm
12:57 PM 28.9°F-1.7°C 13.7°F-10.2°C 53% 13.3 mph WSW21.4 kmh WSW 26.0 mph41.8 kmh 29.35 in993.9 mb 0.00 in0.0 mm 0.00 in0.0 mm 0.00 in0.0 mm
12:56 PM 28.9°F-1.7°C 13.7°F-10.2°C 53% 12.6 mph W20.3 kmh W 26.0 mph41.8 kmh 29.35 in993.9 mb 0.00 in0.0 mm 0.00 in0.0 mm 0.00 in0.0 mm
12:55 PM 28.9°F-1.7°C 13.7°F-10.2°C 53% 15.7 mph W25.3 kmh W 26.0 mph41.8 kmh 29.35 in993.9 mb 0.00 in0.0 mm 0.00 in0.0 mm 0.00 in0.0 mm
12:54 PM 28.9°F-1.7°C 13.2°F-10.4°C 52% 16.7 mph W26.9 kmh W 26.0 mph41.8 kmh 29.35 in993.9 mb 0.00 in0.0 mm 0.00 in0.0 mm 0.00 in0.0 mm
12:53 PM 28.9°F-1.7°C 13.2°F-10.4°C 52% 13.8 mph W22.2 kmh W 26.0 mph41.8 kmh 29.35 in993.9 mb 0.00 in0.0 mm 0.00 in0.0 mm 0.00 in0.0 mm
12:52 PM 28.9°F-1.7°C 13.2°F-10.4°C 52% 11.6 mph W18.7 kmh W 26.0 mph41.8 kmh 29.35 in993.9 mb 0.00 in0.0 mm 0.00 in0.0 mm 0.00 in0.0 mm
12:51 PM 28.9°F-1.7°C 13.2°F-10.4°C 52% 10.3 mph WNW16.6 kmh WNW 22.3 mph35.9 kmh 29.35 in993.9 mb 0.00 in0.0 mm 0.00 in0.0 mm 0.00 in0.0 mm
12:50 PM 28.8°F-1.8°C 13.1°F-10.5°C 52% 10.1 mph WNW16.3 kmh WNW 22.3 mph35.9 kmh 29.35 in993.9 mb 0.00 in0.0 mm 0.00 in0.0 mm 0.00 in0.0 mm
12:49 PM 28.8°F-1.8°C 13.1°F-10.5°C 52% 12.7 mph WNW20.4 kmh WNW 22.3 mph35.9 kmh 29.35 in993.9 mb 0.00 in0.0 mm 0.00 in0.0 mm 0.00 in0.0 mm
12:48 PM 28.8°F-1.8°C 13.1°F-10.5°C 52% 14.6 mph NW23.5 kmh NW 22.3 mph35.9 kmh 29.35 in993.9 mb 0.00 in0.0 mm 0.00 in0.0 mm 0.00 in0.0 mm
12:47 PM 28.8°F-1.8°C 13.1°F-10.5°C 52% 15.7 mph NW25.3 kmh NW 22.3 mph35.9 kmh 29.35 in993.9 mb 0.00 in0.0 mm 0.00 in0.0 mm 0.00 in0.0 mm
12:46 PM 28.8°F-1.8°C 13.1°F-10.5°C 52% 13.0 mph WNW20.9 kmh WNW 22.3 mph35.9 kmh 29.35 in993.9 mb 0.00 in0.0 mm 0.00 in0.0 mm 0.00 in0.0 mm
12:45 PM 28.8°F-1.8°C 13.1°F-10.5°C 52% 13.5 mph W21.7 kmh W 22.3 mph35.9 kmh 29.35 in993.9 mb 0.00 in0.0 mm 0.00 in0.0 mm 0.00 in0.0 mm
12:44 PM 28.9°F-1.7°C 13.7°F-10.2°C 53% 14.7 mph WNW23.7 kmh WNW 22.3 mph35.9 kmh 29.35 in993.9 mb 0.00 in0.0 mm 0.00 in0.0 mm 0.00 in0.0 mm
12:43 PM 28.9°F-1.7°C 13.7°F-10.2°C 53% 14.5 mph NW23.3 kmh NW 22.3 mph35.9 kmh 29.35 in993.9 mb 0.00 in0.0 mm 0.00 in0.0 mm 0.00 in0.0 mm
12:42 PM 28.9°F-1.7°C 13.7°F-10.2°C 53% 13.7 mph WNW22.0 kmh WNW 22.3 mph35.9 kmh 29.35 in993.9 mb 0.00 in0.0 mm 0.00 in0.0 mm 0.00 in0.0 mm
12:41 PM 28.9°F-1.7°C 13.7°F-10.2°C 53% 13.5 mph NW21.7 kmh NW 22.3 mph35.9 kmh 29.35 in993.9 mb 0.00 in0.0 mm 0.00 in0.0 mm 0.00 in0.0 mm
12:40 PM 29.1°F-1.6°C 13.9°F-10.1°C 53% 14.4 mph NW23.2 kmh NW 15.2 mph24.5 kmh 29.35 in993.9 mb 0.00 in0.0 mm 0.00 in0.0 mm 0.00 in0.0 mm
12:39 PM 29.1°F-1.6°C 13.9°F-10.1°C 53% 14.4 mph WNW23.2 kmh WNW 15.2 mph24.5 kmh 29.35 in993.9 mb 0.00 in0.0 mm 0.00 in0.0 mm 0.00 in0.0 mm
11:15 AM 29.7°F-1.3°C 19.7°F-6.8°C 66% 8.8 mph NW14.2 kmh NW 22.3 mph35.9 kmh 29.35 in993.9 mb 0.00 in0.0 mm 0.00 in0.0 mm 0.00 in0.0 mm
11:14 AM 29.7°F-1.3°C 19.7°F-6.8°C 66% 10.7 mph NW17.2 kmh NW 22.3 mph35.9 kmh 29.35 in993.9 mb 0.00 in0.0 mm 0.00 in0.0 mm 0.00 in0.0 mm
11:13 AM 29.7°F-1.3°C 19.7°F-6.8°C 66% 10.5 mph NW16.9 kmh NW 22.3 mph35.9 kmh 29.35 in993.9 mb 0.00 in0.0 mm 0.00 in0.0 mm 0.00 in0.0 mm
11:12 AM 29.5°F-1.4°C 19.5°F-6.9°C 66% 8.9 mph NW14.3 kmh NW 22.3 mph35.9 kmh 29.35 in993.9 mb 0.00 in0.0 mm 0.00 in0.0 mm 0.00 in0.0 mm
11:11 AM 29.5°F-1.4°C 19.5°F-6.9°C 66% 7.8 mph NW12.6 kmh NW 22.3 mph35.9 kmh 29.35 in993.9 mb 0.00 in0.0 mm 0.00 in0.0 mm 0.00 in0.0 mm
11:10 AM 29.3°F-1.5°C 19.3°F-7.1°C 66% 9.9 mph NW15.9 kmh NW 22.3 mph35.9 kmh 29.35 in993.9 mb 0.00 in0.0 mm 0.00 in0.0 mm 0.00 in0.0 mm
11:09 AM 28.9°F-1.7°C 18.9°F-7.3°C 66% 11.7 mph NW18.8 kmh NW 22.3 mph35.9 kmh 29.38 in994.9 mb 0.00 in0.0 mm 0.00 in0.0 mm 0.00 in0.0 mm
11:08 AM 28.8°F-1.8°C 18.8°F-7.3°C 66% 12.8 mph NW20.6 kmh NW 22.3 mph35.9 kmh 29.38 in994.9 mb 0.00 in0.0 mm 0.00 in0.0 mm 0.00 in0.0 mm
11:07 AM 28.8°F-1.8°C 18.8°F-7.3°C 66% 13.4 mph NW21.6 kmh NW 22.3 mph35.9 kmh 29.38 in994.9 mb 0.00 in0.0 mm 0.00 in0.0 mm 0.00 in0.0 mm
11:06 AM 28.8°F-1.8°C 18.8°F-7.3°C 66% 12.3 mph NW19.8 kmh NW 22.3 mph35.9 kmh 29.38 in994.9 mb 0.00 in0.0 mm 0.00 in0.0 mm 0.00 in0.0 mm
11:05 AM 28.8°F-1.8°C 18.8°F-7.3°C 66% 11.0 mph NW17.7 kmh NW 22.3 mph35.9 kmh 29.38 in994.9 mb 0.00 in0.0 mm 0.00 in0.0 mm 0.00 in0.0 mm
11:04 AM 28.9°F-1.7°C 18.9°F-7.3°C 66% 12.1 mph NW19.5 kmh NW 22.3 mph35.9 kmh 29.38 in994.9 mb 0.00 in0.0 mm 0.00 in0.0 mm 0.00 in0.0 mm
11:03 AM 28.9°F-1.7°C 18.9°F-7.3°C 66% 10.6 mph NW17.1 kmh NW 22.3 mph35.9 kmh 29.38 in994.9 mb 0.00 in0.0 mm 0.00 in0.0 mm 0.00 in0.0 mm
11:02 AM 28.9°F-1.7°C 18.9°F-7.3°C 66% 8.9 mph NW14.3 kmh NW 22.3 mph35.9 kmh 29.38 in994.9 mb 0.00 in0.0 mm 0.00 in0.0 mm 0.00 in0.0 mm
11:01 AM 29.1°F-1.6°C 19.1°F-7.2°C 66% 9.9 mph NW15.9 kmh NW 22.3 mph35.9 kmh 29.38 in994.9 mb 0.00 in0.0 mm 0.00 in0.0 mm 0.00 in0.0 mm
11:00 AM 29.1°F-1.6°C 19.1°F-7.2°C 66% 10.6 mph NW17.1 kmh NW 22.3 mph35.9 kmh 29.38 in994.9 mb 0.00 in0.0 mm 0.00 in0.0 mm 0.00 in0.0 mm
10:59 AM 29.1°F-1.6°C 19.5°F-6.9°C 67% 10.7 mph NW17.2 kmh NW 22.3 mph35.9 kmh 29.38 in994.9 mb 0.00 in0.0 mm 0.00 in0.0 mm 0.00 in0.0 mm
10:58 AM 29.1°F-1.6°C 19.5°F-6.9°C 67% 10.3 mph NW16.6 kmh NW 22.3 mph35.9 kmh 29.38 in994.9 mb 0.00 in0.0 mm 0.00 in0.0 mm 0.00 in0.0 mm
10:57 AM 29.3°F-1.5°C 19.7°F-6.8°C 67% 12.5 mph NW20.1 kmh NW 22.3 mph35.9 kmh 29.38 in994.9 mb 0.00 in0.0 mm 0.00 in0.0 mm 0.00 in0.0 mm
10:56 AM 29.3°F-1.5°C 19.7°F-6.8°C 67% 16.8 mph NW27.0 kmh NW 26.5 mph42.6 kmh 29.38 in994.9 mb 0.00 in0.0 mm 0.00 in0.0 mm 0.00 in0.0 mm
10:55 AM 29.3°F-1.5°C 19.7°F-6.8°C 67% 16.4 mph WNW26.4 kmh WNW 26.5 mph42.6 kmh 29.38 in994.9 mb 0.00 in0.0 mm 0.00 in0.0 mm 0.00 in0.0 mm
10:54 AM 29.3°F-1.5°C 20.1°F-6.6°C 68% 15.1 mph WNW24.3 kmh WNW 26.5 mph42.6 kmh 29.38 in994.9 mb 0.00 in0.0 mm 0.00 in0.0 mm 0.00 in0.0 mm
10:53 AM 29.3°F-1.5°C 20.1°F-6.6°C 68% 14.8 mph NW23.8 kmh NW 26.5 mph42.6 kmh 29.38 in994.9 mb 0.00 in0.0 mm 0.00 in0.0 mm 0.00 in0.0 mm
10:52 AM 29.3°F-1.5°C 20.1°F-6.6°C 68% 15.0 mph NW24.1 kmh NW 26.5 mph42.6 kmh 29.38 in994.9 mb 0.00 in0.0 mm 0.00 in0.0 mm 0.00 in0.0 mm
10:51 AM 29.1°F-1.6°C 19.9°F-6.7°C 68% 15.0 mph WNW24.1 kmh WNW 26.5 mph42.6 kmh 29.38 in994.9 mb 0.00 in0.0 mm 0.00 in0.0 mm 0.00 in0.0 mm
10:50 AM 29.1°F-1.6°C 19.9°F-6.7°C 68% 16.0 mph W25.7 kmh W 26.5 mph42.6 kmh 29.38 in994.9 mb 0.00 in0.0 mm 0.00 in0.0 mm 0.00 in0.0 mm
10:49 AM 29.1°F-1.6°C 19.9°F-6.7°C 68% 17.8 mph WNW28.6 kmh WNW 26.5 mph42.6 kmh 29.38 in994.9 mb 0.00 in0.0 mm 0.00 in0.0 mm 0.00 in0.0 mm
10:48 AM 29.1°F-1.6°C 20.3°F-6.5°C 69% 18.3 mph WNW29.5 kmh WNW 26.5 mph42.6 kmh 29.38 in994.9 mb 0.00 in0.0 mm 0.00 in0.0 mm 0.00 in0.0 mm
10:47 AM 29.1°F-1.6°C 20.3°F-6.5°C 69% 15.1 mph WNW24.3 kmh WNW 26.5 mph42.6 kmh 29.38 in994.9 mb 0.00 in0.0 mm 0.00 in0.0 mm 0.00 in0.0 mm
10:46 AM 29.1°F-1.6°C 20.3°F-6.5°C 69% 13.4 mph WNW21.6 kmh WNW 24.4 mph39.3 kmh 29.38 in994.9 mb 0.00 in0.0 mm 0.00 in0.0 mm 0.00 in0.0 mm
10:45 AM 28.9°F-1.7°C 20.5°F-6.4°C 70% 13.2 mph WNW21.2 kmh WNW 23.1 mph37.2 kmh 29.38 in994.9 mb 0.00 in0.0 mm 0.00 in0.0 mm 0.00 in0.0 mm
10:44 AM 28.8°F-1.8°C 20.4°F-6.4°C 70% 11.2 mph W18.0 kmh W 23.1 mph37.2 kmh 29.38 in994.9 mb 0.00 in0.0 mm 0.00 in0.0 mm 0.00 in0.0 mm
10:43 AM 28.8°F-1.8°C 20.4°F-6.4°C 70% 9.4 mph W15.1 kmh W 23.1 mph37.2 kmh 29.38 in994.9 mb 0.00 in0.0 mm 0.00 in0.0 mm 0.00 in0.0 mm
10:42 AM 28.6°F-1.9°C 19.8°F-6.8°C 69% 10.5 mph WNW16.9 kmh WNW 23.1 mph37.2 kmh 29.38 in994.9 mb 0.00 in0.0 mm 0.00 in0.0 mm 0.00 in0.0 mm
10:41 AM 28.6°F-1.9°C 20.2°F-6.6°C 70% 12.5 mph WNW20.1 kmh WNW 23.1 mph37.2 kmh 29.38 in994.9 mb 0.00 in0.0 mm 0.00 in0.0 mm 0.00 in0.0 mm
10:40 AM 28.6°F-1.9°C 20.2°F-6.6°C 70% 13.4 mph WNW21.6 kmh WNW 23.1 mph37.2 kmh 29.38 in994.9 mb 0.00 in0.0 mm 0.00 in0.0 mm 0.00 in0.0 mm
10:39 AM 28.6°F-1.9°C 20.2°F-6.6°C 70% 15.0 mph WNW24.1 kmh WNW 23.1 mph37.2 kmh 29.38 in994.9 mb 0.00 in0.0 mm 0.00 in0.0 mm 0.00 in0.0 mm
10:38 AM 28.4°F-2.0°C 20.0°F-6.7°C 70% 14.7 mph WNW23.7 kmh WNW 23.1 mph37.2 kmh 29.38 in994.9 mb 0.00 in0.0 mm 0.00 in0.0 mm 0.00 in0.0 mm
10:37 AM 28.4°F-2.0°C 20.0°F-6.7°C 70% 12.5 mph WNW20.1 kmh WNW 23.1 mph37.2 kmh 29.38 in994.9 mb 0.00 in0.0 mm 0.00 in0.0 mm 0.00 in0.0 mm
10:36 AM 28.2°F-2.1°C 20.2°F-6.6°C 71% 12.2 mph NW19.6 kmh NW 23.1 mph37.2 kmh 29.38 in994.9 mb 0.00 in0.0 mm 0.00 in0.0 mm 0.00 in0.0 mm
10:35 AM 28.2°F-2.1°C 20.2°F-6.6°C 71% 14.3 mph NW23.0 kmh NW 23.1 mph37.2 kmh 29.38 in994.9 mb 0.00 in0.0 mm 0.00 in0.0 mm 0.00 in0.0 mm
10:34 AM 28.2°F-2.1°C 20.2°F-6.6°C 71% 15.8 mph WNW25.4 kmh WNW 23.1 mph37.2 kmh 29.38 in994.9 mb 0.00 in0.0 mm 0.00 in0.0 mm 0.00 in0.0 mm
10:33 AM 28.4°F-2.0°C 20.4°F-6.4°C 71% 15.4 mph WNW24.8 kmh WNW 23.1 mph37.2 kmh 29.38 in994.9 mb 0.00 in0.0 mm 0.00 in0.0 mm 0.00 in0.0 mm
10:32 AM 28.4°F-2.0°C 20.8°F-6.2°C 73% 13.0 mph WNW20.9 kmh WNW 23.1 mph37.2 kmh 29.38 in994.9 mb 0.00 in0.0 mm 0.00 in0.0 mm 0.00 in0.0 mm
10:31 AM 28.4°F-2.0°C 20.8°F-6.2°C 73% 11.9 mph NW19.2 kmh NW 23.1 mph37.2 kmh 29.38 in994.9 mb 0.00 in0.0 mm 0.00 in0.0 mm 0.00 in0.0 mm
10:30 AM 28.4°F-2.0°C 20.8°F-6.2°C 73% 14.3 mph NW23.0 kmh NW 23.1 mph37.2 kmh 29.38 in994.9 mb 0.00 in0.0 mm 0.00 in0.0 mm 0.00 in0.0 mm
10:29 AM 28.2°F-2.1°C 20.6°F-6.3°C 73% 13.7 mph NW22.0 kmh NW 23.1 mph37.2 kmh 29.38 in994.9 mb 0.00 in0.0 mm 0.00 in0.0 mm 0.00 in0.0 mm
10:28 AM 28.2°F-2.1°C 20.6°F-6.3°C 73% 10.0 mph NW16.1 kmh NW 23.1 mph37.2 kmh 29.38 in994.9 mb 0.00 in0.0 mm 0.00 in0.0 mm 0.00 in0.0 mm
10:27 AM 28.0°F-2.2°C 20.4°F-6.4°C 73% 11.0 mph NW17.7 kmh NW 24.6 mph39.6 kmh 29.38 in994.9 mb 0.00 in0.0 mm 0.00 in0.0 mm 0.00 in0.0 mm
10:26 AM 28.0°F-2.2°C 20.4°F-6.4°C 73% 12.4 mph NW20.0 kmh NW 24.6 mph39.6 kmh 29.38 in994.9 mb 0.00 in0.0 mm 0.00 in0.0 mm 0.00 in0.0 mm
10:25 AM 27.9°F-2.3°C 20.3°F-6.5°C 73% 13.2 mph WNW21.2 kmh WNW 24.6 mph39.6 kmh 29.38 in994.9 mb 0.00 in0.0 mm 0.00 in0.0 mm 0.00 in0.0 mm
10:24 AM 27.9°F-2.3°C 20.3°F-6.5°C 73% 14.7 mph WNW23.7 kmh WNW 24.6 mph39.6 kmh 29.38 in994.9 mb 0.00 in0.0 mm 0.00 in0.0 mm 0.00 in0.0 mm
10:23 AM 27.9°F-2.3°C 20.3°F-6.5°C 73% 15.8 mph WNW25.4 kmh WNW 24.6 mph39.6 kmh 29.38 in994.9 mb 0.00 in0.0 mm 0.00 in0.0 mm 0.00 in0.0 mm
10:22 AM 27.7°F-2.4°C 20.1°F-6.6°C 73% 15.5 mph WNW24.9 kmh WNW 24.6 mph39.6 kmh 29.38 in994.9 mb 0.00 in0.0 mm 0.00 in0.0 mm 0.00 in0.0 mm
10:21 AM 27.7°F-2.4°C 20.5°F-6.4°C 74% 14.3 mph WNW23.0 kmh WNW 24.6 mph39.6 kmh 29.38 in994.9 mb 0.00 in0.0 mm 0.00 in0.0 mm 0.00 in0.0 mm
10:20 AM 27.7°F-2.4°C 20.5°F-6.4°C 74% 14.7 mph NW23.7 kmh NW 24.6 mph39.6 kmh 29.38 in994.9 mb 0.00 in0.0 mm 0.00 in0.0 mm 0.00 in0.0 mm
10:19 AM 27.7°F-2.4°C 20.5°F-6.4°C 74% 14.8 mph NW23.8 kmh NW 24.6 mph39.6 kmh 29.38 in994.9 mb 0.00 in0.0 mm 0.00 in0.0 mm 0.00 in0.0 mm
10:18 AM 27.7°F-2.4°C 20.5°F-6.4°C 74% 12.4 mph NW20.0 kmh NW 24.6 mph39.6 kmh 29.38 in994.9 mb 0.00 in0.0 mm 0.00 in0.0 mm 0.00 in0.0 mm
10:17 AM 27.7°F-2.4°C 20.8°F-6.2°C 75% 10.4 mph NW16.7 kmh NW 18.6 mph29.9 kmh 29.38 in994.9 mb 0.00 in0.0 mm 0.00 in0.0 mm 0.00 in0.0 mm
10:16 AM 27.5°F-2.5°C 20.6°F-6.3°C 75% 9.8 mph WNW15.8 kmh WNW 18.6 mph29.9 kmh 29.38 in994.9 mb 0.00 in0.0 mm 0.00 in0.0 mm 0.00 in0.0 mm
10:15 AM 27.5°F-2.5°C 20.6°F-6.3°C 75% 10.3 mph W16.6 kmh W 18.6 mph29.9 kmh 29.38 in994.9 mb 0.00 in0.0 mm 0.00 in0.0 mm 0.00 in0.0 mm
10:14 AM 27.5°F-2.5°C 20.6°F-6.3°C 75% 9.3 mph W15.0 kmh W 18.6 mph29.9 kmh 29.38 in994.9 mb 0.00 in0.0 mm 0.00 in0.0 mm 0.00 in0.0 mm
10:13 AM 27.5°F-2.5°C 20.6°F-6.3°C 75% 9.7 mph W15.6 kmh W 18.6 mph29.9 kmh 29.38 in994.9 mb 0.00 in0.0 mm 0.00 in0.0 mm 0.00 in0.0 mm
10:12 AM 27.3°F-2.6°C 20.4°F-6.4°C 75% 11.2 mph WNW18.0 kmh WNW 18.6 mph29.9 kmh 29.38 in994.9 mb 0.00 in0.0 mm 0.00 in0.0 mm 0.00 in0.0 mm
10:11 AM 27.1°F-2.7°C 20.2°F-6.6°C 75% 10.7 mph NW17.2 kmh NW 18.6 mph29.9 kmh 29.38 in994.9 mb 0.00 in0.0 mm 0.00 in0.0 mm 0.00 in0.0 mm
10:10 AM 27.1°F-2.7°C 20.2°F-6.6°C 75% 10.7 mph NW17.2 kmh NW 18.6 mph29.9 kmh 29.38 in994.9 mb 0.00 in0.0 mm 0.00 in0.0 mm 0.00 in0.0 mm
10:09 AM 27.1°F-2.7°C 20.2°F-6.6°C 75% 10.8 mph WNW17.4 kmh WNW 19.1 mph30.7 kmh 29.35 in993.9 mb 0.00 in0.0 mm 0.00 in0.0 mm 0.00 in0.0 mm
10:08 AM 27.1°F-2.7°C 20.2°F-6.6°C 75% 11.1 mph WNW17.9 kmh WNW 19.1 mph30.7 kmh 29.35 in993.9 mb 0.00 in0.0 mm 0.00 in0.0 mm 0.00 in0.0 mm
10:07 AM 27.1°F-2.7°C 20.2°F-6.6°C 75% 11.6 mph WNW18.7 kmh WNW 21.8 mph35.1 kmh 29.35 in993.9 mb 0.00 in0.0 mm 0.00 in0.0 mm 0.00 in0.0 mm
10:06 AM 27.1°F-2.7°C 20.6°F-6.3°C 76% 11.3 mph WNW18.2 kmh WNW 21.8 mph35.1 kmh 29.35 in993.9 mb 0.00 in0.0 mm 0.00 in0.0 mm 0.00 in0.0 mm
10:05 AM 27.1°F-2.7°C 20.6°F-6.3°C 76% 11.7 mph W18.8 kmh W 21.8 mph35.1 kmh 29.35 in993.9 mb 0.00 in0.0 mm 0.00 in0.0 mm 0.00 in0.0 mm
10:04 AM 27.1°F-2.7°C 20.6°F-6.3°C 76% 11.7 mph W18.8 kmh W 21.8 mph35.1 kmh 29.35 in993.9 mb 0.00 in0.0 mm 0.00 in0.0 mm 0.00 in0.0 mm
10:03 AM 27.0°F-2.8°C 20.5°F-6.4°C 76% 11.3 mph WNW18.2 kmh WNW 21.8 mph35.1 kmh 29.35 in993.9 mb 0.00 in0.0 mm 0.00 in0.0 mm 0.00 in0.0 mm
10:02 AM 27.0°F-2.8°C 20.5°F-6.4°C 76% 12.6 mph WNW20.3 kmh WNW 21.8 mph35.1 kmh 29.35 in993.9 mb 0.00 in0.0 mm 0.00 in0.0 mm 0.00 in0.0 mm
10:01 AM 27.0°F-2.8°C 20.5°F-6.4°C 76% 14.5 mph W23.3 kmh W 21.8 mph35.1 kmh 29.35 in993.9 mb 0.00 in0.0 mm 0.00 in0.0 mm 0.00 in0.0 mm
10:00 AM 26.8°F-2.9°C 20.3°F-6.5°C 76% 14.4 mph WNW23.2 kmh WNW 21.8 mph35.1 kmh 29.35 in993.9 mb 0.00 in0.0 mm 0.00 in0.0 mm 0.00 in0.0 mm
09:59 AM 26.8°F-2.9°C 20.3°F-6.5°C 76% 12.9 mph W20.8 kmh W 21.8 mph35.1 kmh 29.35 in993.9 mb 0.00 in0.0 mm 0.00 in0.0 mm 0.00 in0.0 mm
09:58 AM 26.8°F-2.9°C 20.3°F-6.5°C 76% 12.2 mph W19.6 kmh W 21.8 mph35.1 kmh 29.35 in993.9 mb 0.00 in0.0 mm 0.00 in0.0 mm 0.00 in0.0 mm
09:57 AM 26.6°F-3.0°C 20.5°F-6.4°C 77% 13.2 mph W21.2 kmh W 21.8 mph35.1 kmh 29.35 in993.9 mb 0.00 in0.0 mm 0.00 in0.0 mm 0.00 in0.0 mm
09:56 AM 26.6°F-3.0°C 20.5°F-6.4°C 77% 14.3 mph W23.0 kmh W 21.8 mph35.1 kmh 29.35 in993.9 mb 0.00 in0.0 mm 0.00 in0.0 mm 0.00 in0.0 mm
09:55 AM 26.6°F-3.0°C 20.5°F-6.4°C 77% 13.0 mph W20.9 kmh W 21.8 mph35.1 kmh 29.35 in993.9 mb 0.00 in0.0 mm 0.00 in0.0 mm 0.00 in0.0 mm
09:54 AM 26.4°F-3.1°C 20.3°F-6.5°C 77% 11.0 mph WNW17.7 kmh WNW 21.8 mph35.1 kmh 29.35 in993.9 mb 0.00 in0.0 mm 0.00 in0.0 mm 0.00 in0.0 mm
09:53 AM 26.4°F-3.1°C 20.3°F-6.5°C 77% 9.1 mph W14.6 kmh W 21.8 mph35.1 kmh 29.35 in993.9 mb 0.00 in0.0 mm 0.00 in0.0 mm 0.00 in0.0 mm
09:52 AM 26.2°F-3.2°C 20.1°F-6.6°C 77% 9.9 mph WNW15.9 kmh WNW 15.2 mph24.5 kmh 29.35 in993.9 mb 0.00 in0.0 mm 0.00 in0.0 mm 0.00 in0.0 mm
09:51 AM 26.2°F-3.2°C 20.1°F-6.6°C 77% 9.4 mph WNW15.1 kmh WNW 19.1 mph30.7 kmh 29.35 in993.9 mb 0.00 in0.0 mm 0.00 in0.0 mm 0.00 in0.0 mm
09:50 AM 26.2°F-3.2°C 20.1°F-6.6°C 77% 9.5 mph WNW15.3 kmh WNW 21.8 mph35.1 kmh 29.35 in993.9 mb 0.00 in0.0 mm 0.00 in0.0 mm 0.00 in0.0 mm
09:49 AM 26.2°F-3.2°C 20.1°F-6.6°C 77% 10.5 mph W16.9 kmh W 21.8 mph35.1 kmh 29.35 in993.9 mb 0.00 in0.0 mm 0.00 in0.0 mm 0.00 in0.0 mm
09:48 AM 26.2°F-3.2°C 20.1°F-6.6°C 77% 9.6 mph W15.4 kmh W 21.8 mph35.1 kmh 29.35 in993.9 mb 0.00 in0.0 mm 0.00 in0.0 mm 0.00 in0.0 mm
09:47 AM 26.2°F-3.2°C 20.1°F-6.6°C 77% 8.4 mph W13.5 kmh W 21.8 mph35.1 kmh 29.35 in993.9 mb 0.00 in0.0 mm 0.00 in0.0 mm 0.00 in0.0 mm
09:46 AM 26.2°F-3.2°C 20.1°F-6.6°C 77% 9.9 mph W15.9 kmh W 21.8 mph35.1 kmh 29.35 in993.9 mb 0.00 in0.0 mm 0.00 in0.0 mm 0.00 in0.0 mm
09:45 AM 26.2°F-3.2°C 20.1°F-6.6°C 77% 10.4 mph W16.7 kmh W 21.8 mph35.1 kmh 29.35 in993.9 mb 0.00 in0.0 mm 0.00 in0.0 mm 0.00 in0.0 mm
09:44 AM 26.1°F-3.3°C 20.0°F-6.7°C 77% 13.2 mph WNW21.2 kmh WNW 21.8 mph35.1 kmh 29.35 in993.9 mb 0.00 in0.0 mm 0.00 in0.0 mm 0.00 in0.0 mm
09:43 AM 26.1°F-3.3°C 20.0°F-6.7°C 77% 14.3 mph WNW23.0 kmh WNW 24.4 mph39.3 kmh 29.35 in993.9 mb 0.00 in0.0 mm 0.00 in0.0 mm 0.00 in0.0 mm
09:42 AM 26.1°F-3.3°C 20.3°F-6.5°C 78% 12.4 mph WNW20.0 kmh WNW 24.4 mph39.3 kmh 29.35 in993.9 mb 0.00 in0.0 mm 0.00 in0.0 mm 0.00 in0.0 mm
09:41 AM 26.1°F-3.3°C 20.3°F-6.5°C 78% 10.8 mph W17.4 kmh W 24.4 mph39.3 kmh 29.35 in993.9 mb 0.00 in0.0 mm 0.00 in0.0 mm 0.00 in0.0 mm
09:40 AM 26.1°F-3.3°C 20.3°F-6.5°C 78% 10.9 mph W17.5 kmh W 24.4 mph39.3 kmh 29.35 in993.9 mb 0.00 in0.0 mm 0.00 in0.0 mm 0.00 in0.0 mm
09:39 AM 26.1°F-3.3°C 20.3°F-6.5°C 78% 12.4 mph W20.0 kmh W 24.4 mph39.3 kmh 29.35 in993.9 mb 0.00 in0.0 mm 0.00 in0.0 mm 0.00 in0.0 mm
09:38 AM 26.1°F-3.3°C 20.3°F-6.5°C 78% 14.3 mph WNW23.0 kmh WNW 24.4 mph39.3 kmh 29.35 in993.9 mb 0.00 in0.0 mm 0.00 in0.0 mm 0.00 in0.0 mm
09:37 AM 26.1°F-3.3°C 20.3°F-6.5°C 78% 14.7 mph WNW23.7 kmh WNW 24.4 mph39.3 kmh 29.35 in993.9 mb 0.00 in0.0 mm 0.00 in0.0 mm 0.00 in0.0 mm
09:36 AM 26.1°F-3.3°C 20.3°F-6.5°C 78% 14.9 mph WNW24.0 kmh WNW 24.4 mph39.3 kmh 29.35 in993.9 mb 0.00 in0.0 mm 0.00 in0.0 mm 0.00 in0.0 mm
09:35 AM 26.1°F-3.3°C 20.3°F-6.5°C 78% 13.3 mph WNW21.4 kmh WNW 24.4 mph39.3 kmh 29.35 in993.9 mb 0.00 in0.0 mm 0.00 in0.0 mm 0.00 in0.0 mm
09:34 AM 26.1°F-3.3°C 20.3°F-6.5°C 78% 9.1 mph W14.6 kmh W 24.4 mph39.3 kmh 29.35 in993.9 mb 0.00 in0.0 mm 0.00 in0.0 mm 0.00 in0.0 mm
09:33 AM 25.9°F-3.4°C 20.1°F-6.6°C 78% 10.5 mph W16.9 kmh W 21.8 mph35.1 kmh 29.35 in993.9 mb 0.00 in0.0 mm 0.00 in0.0 mm 0.00 in0.0 mm
09:32 AM 25.9°F-3.4°C 20.1°F-6.6°C 78% 11.6 mph W18.7 kmh W 21.8 mph35.1 kmh 29.35 in993.9 mb 0.00 in0.0 mm 0.00 in0.0 mm 0.00 in0.0 mm
09:31 AM 25.9°F-3.4°C 20.1°F-6.6°C 78% 12.8 mph W20.6 kmh W 21.8 mph35.1 kmh 29.35 in993.9 mb 0.00 in0.0 mm 0.00 in0.0 mm 0.00 in0.0 mm
09:30 AM 25.9°F-3.4°C 20.1°F-6.6°C 78% 13.2 mph W21.2 kmh W 21.8 mph35.1 kmh 29.35 in993.9 mb 0.00 in0.0 mm 0.00 in0.0 mm 0.00 in0.0 mm
09:29 AM 25.7°F-3.5°C 19.9°F-6.7°C 78% 12.6 mph W20.3 kmh W 21.8 mph35.1 kmh 29.35 in993.9 mb 0.00 in0.0 mm 0.00 in0.0 mm 0.00 in0.0 mm
09:28 AM 25.7°F-3.5°C 19.9°F-6.7°C 78% 12.0 mph W19.3 kmh W 21.0 mph33.8 kmh 29.35 in993.9 mb 0.00 in0.0 mm 0.00 in0.0 mm 0.00 in0.0 mm
09:27 AM 25.7°F-3.5°C 19.9°F-6.7°C 78% 10.5 mph W16.9 kmh W 21.0 mph33.8 kmh 29.35 in993.9 mb 0.00 in0.0 mm 0.00 in0.0 mm 0.00 in0.0 mm
09:26 AM 25.7°F-3.5°C 19.9°F-6.7°C 78% 10.1 mph W16.3 kmh W 21.0 mph33.8 kmh 29.35 in993.9 mb 0.00 in0.0 mm 0.00 in0.0 mm 0.00 in0.0 mm
09:25 AM 25.5°F-3.6°C 19.7°F-6.8°C 78% 10.6 mph WNW17.1 kmh WNW 21.0 mph33.8 kmh 29.35 in993.9 mb 0.00 in0.0 mm 0.00 in0.0 mm 0.00 in0.0 mm
09:24 AM 25.5°F-3.6°C 19.7°F-6.8°C 78% 10.5 mph WNW16.9 kmh WNW 21.0 mph33.8 kmh 29.35 in993.9 mb 0.00 in0.0 mm 0.00 in0.0 mm 0.00 in0.0 mm
09:23 AM 25.5°F-3.6°C 19.7°F-6.8°C 78% 10.4 mph WNW16.7 kmh WNW 21.0 mph33.8 kmh 29.35 in993.9 mb 0.00 in0.0 mm 0.00 in0.0 mm 0.00 in0.0 mm
09:22 AM 25.5°F-3.6°C 19.7°F-6.8°C 78% 10.8 mph W17.4 kmh W 21.0 mph33.8 kmh 29.35 in993.9 mb 0.00 in0.0 mm 0.00 in0.0 mm 0.00 in0.0 mm
09:21 AM 25.5°F-3.6°C 19.7°F-6.8°C 78% 10.8 mph WNW17.4 kmh WNW 21.0 mph33.8 kmh 29.35 in993.9 mb 0.00 in0.0 mm 0.00 in0.0 mm 0.00 in0.0 mm
09:20 AM 25.3°F-3.7°C 19.5°F-6.9°C 78% 10.7 mph WNW17.2 kmh WNW 21.0 mph33.8 kmh 29.35 in993.9 mb 0.00 in0.0 mm 0.00 in0.0 mm 0.00 in0.0 mm
09:19 AM 25.3°F-3.7°C 19.5°F-6.9°C 78% 10.7 mph W17.2 kmh W 16.4 mph26.4 kmh 29.35 in993.9 mb 0.00 in0.0 mm 0.00 in0.0 mm 0.00 in0.0 mm
09:18 AM 25.3°F-3.7°C 19.5°F-6.9°C 78% 10.8 mph WNW17.4 kmh WNW 19.1 mph30.7 kmh 29.35 in993.9 mb 0.00 in0.0 mm 0.00 in0.0 mm 0.00 in0.0 mm
09:17 AM 25.3°F-3.7°C 19.5°F-6.9°C 78% 10.8 mph WNW17.4 kmh WNW 21.8 mph35.1 kmh 29.35 in993.9 mb 0.00 in0.0 mm 0.00 in0.0 mm 0.00 in0.0 mm
09:16 AM 25.3°F-3.7°C 19.5°F-6.9°C 78% 9.4 mph WNW15.1 kmh WNW 21.8 mph35.1 kmh 29.35 in993.9 mb 0.00 in0.0 mm 0.00 in0.0 mm 0.00 in0.0 mm
09:15 AM 25.3°F-3.7°C 19.5°F-6.9°C 78% 9.4 mph WNW15.1 kmh WNW 21.8 mph35.1 kmh 29.35 in993.9 mb 0.00 in0.0 mm 0.00 in0.0 mm 0.00 in0.0 mm
09:14 AM 25.2°F-3.8°C 19.4°F-7.0°C 78% 10.2 mph W16.4 kmh W 21.8 mph35.1 kmh 29.35 in993.9 mb 0.00 in0.0 mm 0.00 in0.0 mm 0.00 in0.0 mm
09:13 AM 25.2°F-3.8°C 19.4°F-7.0°C 78% 10.8 mph W17.4 kmh W 21.8 mph35.1 kmh 29.35 in993.9 mb 0.00 in0.0 mm 0.00 in0.0 mm 0.00 in0.0 mm
09:12 AM 25.2°F-3.8°C 19.4°F-7.0°C 78% 12.1 mph WNW19.5 kmh WNW 21.8 mph35.1 kmh 29.35 in993.9 mb 0.00 in0.0 mm 0.00 in0.0 mm 0.00 in0.0 mm
09:11 AM 25.2°F-3.8°C 19.4°F-7.0°C 78% 12.7 mph WNW20.4 kmh WNW 21.8 mph35.1 kmh 29.35 in993.9 mb 0.00 in0.0 mm 0.00 in0.0 mm 0.00 in0.0 mm
09:10 AM 25.2°F-3.8°C 19.4°F-7.0°C 78% 13.8 mph WNW22.2 kmh WNW 21.8 mph35.1 kmh 29.35 in993.9 mb 0.00 in0.0 mm 0.00 in0.0 mm 0.00 in0.0 mm
09:09 AM 25.0°F-3.9°C 19.2°F-7.1°C 78% 13.7 mph WNW22.0 kmh WNW 21.8 mph35.1 kmh 29.35 in993.9 mb 0.00 in0.0 mm 0.00 in0.0 mm 0.00 in0.0 mm
09:08 AM 25.0°F-3.9°C 19.2°F-7.1°C 78% 10.9 mph WNW17.5 kmh WNW 21.8 mph35.1 kmh 29.35 in993.9 mb 0.00 in0.0 mm 0.00 in0.0 mm 0.00 in0.0 mm
09:07 AM 25.0°F-3.9°C 19.2°F-7.1°C 78% 10.6 mph WNW17.1 kmh WNW 17.8 mph28.6 kmh 29.35 in993.9 mb 0.00 in0.0 mm 0.00 in0.0 mm 0.00 in0.0 mm
09:06 AM 25.0°F-3.9°C 19.2°F-7.1°C 78% 12.3 mph WNW19.8 kmh WNW 17.8 mph28.6 kmh 29.35 in993.9 mb 0.00 in0.0 mm 0.00 in0.0 mm 0.00 in0.0 mm
09:05 AM 25.0°F-3.9°C 19.2°F-7.1°C 78% 13.0 mph WNW20.9 kmh WNW 17.8 mph28.6 kmh 29.35 in993.9 mb 0.00 in0.0 mm 0.00 in0.0 mm 0.00 in0.0 mm
09:04 AM 24.8°F-4.0°C 19.3°F-7.1°C 79% 12.4 mph WNW20.0 kmh WNW 19.1 mph30.7 kmh 29.35 in993.9 mb 0.00 in0.0 mm 0.00 in0.0 mm 0.00 in0.0 mm
09:03 AM 24.8°F-4.0°C 19.0°F-7.2°C 78% 11.6 mph W18.7 kmh W 19.1 mph30.7 kmh 29.35 in993.9 mb 0.00 in0.0 mm 0.00 in0.0 mm 0.00 in0.0 mm
09:02 AM 24.8°F-4.0°C 19.0°F-7.2°C 78% 11.6 mph W18.7 kmh W 19.1 mph30.7 kmh 29.35 in993.9 mb 0.00 in0.0 mm 0.00 in0.0 mm 0.00 in0.0 mm
09:01 AM 24.8°F-4.0°C 19.0°F-7.2°C 78% 11.1 mph W17.9 kmh W 19.1 mph30.7 kmh 29.35 in993.9 mb 0.00 in0.0 mm 0.00 in0.0 mm 0.00 in0.0 mm
09:00 AM 24.6°F-4.1°C 18.8°F-7.3°C 78% 10.4 mph W16.7 kmh W 19.1 mph30.7 kmh 29.35 in993.9 mb 0.00 in0.0 mm 0.00 in0.0 mm 0.00 in0.0 mm
08:59 AM 24.6°F-4.1°C 18.8°F-7.3°C 78% 9.9 mph W15.9 kmh W 19.1 mph30.7 kmh 29.35 in993.9 mb 0.00 in0.0 mm 0.00 in0.0 mm 0.00 in0.0 mm
08:58 AM 24.4°F-4.2°C 18.6°F-7.4°C 78% 10.4 mph W16.7 kmh W 19.1 mph30.7 kmh 29.35 in993.9 mb 0.00 in0.0 mm 0.00 in0.0 mm 0.00 in0.0 mm
08:57 AM 24.4°F-4.2°C 18.6°F-7.4°C 78% 11.5 mph W18.5 kmh W 19.1 mph30.7 kmh 29.35 in993.9 mb 0.00 in0.0 mm 0.00 in0.0 mm 0.00 in0.0 mm
08:56 AM 24.4°F-4.2°C 18.6°F-7.4°C 78% 11.3 mph W18.2 kmh W 19.1 mph30.7 kmh 29.35 in993.9 mb 0.00 in0.0 mm 0.00 in0.0 mm 0.00 in0.0 mm
08:55 AM 24.3°F-4.3°C 18.5°F-7.5°C 78% 9.4 mph W15.1 kmh W 19.1 mph30.7 kmh 29.35 in993.9 mb 0.00 in0.0 mm 0.00 in0.0 mm 0.00 in0.0 mm
08:54 AM 24.3°F-4.3°C 18.5°F-7.5°C 78% 9.7 mph W15.6 kmh W 15.9 mph25.6 kmh 29.35 in993.9 mb 0.00 in0.0 mm 0.00 in0.0 mm 0.00 in0.0 mm
08:53 AM 24.3°F-4.3°C 18.5°F-7.5°C 78% 10.6 mph W17.1 kmh W 15.9 mph25.6 kmh 29.32 in992.9 mb 0.00 in0.0 mm 0.00 in0.0 mm 0.00 in0.0 mm
08:52 AM 24.3°F-4.3°C 18.5°F-7.5°C 78% 9.7 mph W15.6 kmh W 15.9 mph25.6 kmh 29.32 in992.9 mb 0.00 in0.0 mm 0.00 in0.0 mm 0.00 in0.0 mm
08:49 AM 24.1°F-4.4°C 18.3°F-7.6°C 78% 9.3 mph W15.0 kmh W 15.9 mph25.6 kmh 29.32 in992.9 mb 0.00 in0.0 mm 0.00 in0.0 mm 0.00 in0.0 mm
08:48 AM 24.1°F-4.4°C 18.3°F-7.6°C 78% 9.0 mph W14.5 kmh W 14.6 mph23.5 kmh 29.32 in992.9 mb 0.00 in0.0 mm 0.00 in0.0 mm 0.00 in0.0 mm
08:47 AM 24.1°F-4.4°C 18.3°F-7.6°C 78% 8.9 mph W14.3 kmh W 12.6 mph20.3 kmh 29.32 in992.9 mb 0.00 in0.0 mm 0.00 in0.0 mm 0.00 in0.0 mm
08:46 AM 24.1°F-4.4°C 18.3°F-7.6°C 78% 8.4 mph W13.5 kmh W 12.6 mph20.3 kmh 29.32 in992.9 mb 0.00 in0.0 mm 0.00 in0.0 mm 0.00 in0.0 mm
08:45 AM 24.1°F-4.4°C 18.3°F-7.6°C 78% 8.3 mph W13.4 kmh W 15.2 mph24.5 kmh 29.32 in992.9 mb 0.00 in0.0 mm 0.00 in0.0 mm 0.00 in0.0 mm
08:44 AM 23.9°F-4.5°C 18.1°F-7.7°C 78% 8.0 mph W12.9 kmh W 15.2 mph24.5 kmh 29.32 in992.9 mb 0.00 in0.0 mm 0.00 in0.0 mm 0.00 in0.0 mm
08:43 AM 23.9°F-4.5°C 18.1°F-7.7°C 78% 8.4 mph W13.5 kmh W 15.2 mph24.5 kmh 29.32 in992.9 mb 0.00 in0.0 mm 0.00 in0.0 mm 0.00 in0.0 mm
08:42 AM 23.9°F-4.5°C 17.8°F-7.9°C 77% 8.6 mph W13.8 kmh W 15.2 mph24.5 kmh 29.32 in992.9 mb 0.00 in0.0 mm 0.00 in0.0 mm 0.00 in0.0 mm
08:41 AM 23.7°F-4.6°C 17.6°F-8.0°C 77% 7.8 mph W12.6 kmh W 15.2 mph24.5 kmh 29.32 in992.9 mb 0.00 in0.0 mm 0.00 in0.0 mm 0.00 in0.0 mm
08:40 AM 23.7°F-4.6°C 17.6°F-8.0°C 77% 7.4 mph W11.9 kmh W 15.2 mph24.5 kmh 29.32 in992.9 mb 0.00 in0.0 mm 0.00 in0.0 mm 0.00 in0.0 mm
08:39 AM 23.7°F-4.6°C 17.6°F-8.0°C 77% 7.9 mph W12.7 kmh W 15.2 mph24.5 kmh 29.32 in992.9 mb 0.00 in0.0 mm 0.00 in0.0 mm 0.00 in0.0 mm
08:38 AM 23.5°F-4.7°C 17.4°F-8.1°C 77% 8.8 mph W14.2 kmh W 15.2 mph24.5 kmh 29.32 in992.9 mb 0.00 in0.0 mm 0.00 in0.0 mm 0.00 in0.0 mm
08:37 AM 23.5°F-4.7°C 17.4°F-8.1°C 77% 9.2 mph W14.8 kmh W 15.2 mph24.5 kmh 29.32 in992.9 mb 0.00 in0.0 mm 0.00 in0.0 mm 0.00 in0.0 mm
08:36 AM 23.5°F-4.7°C 17.4°F-8.1°C 77% 7.9 mph W12.7 kmh W 15.2 mph24.5 kmh 29.32 in992.9 mb 0.00 in0.0 mm 0.00 in0.0 mm 0.00 in0.0 mm
08:35 AM 23.5°F-4.7°C 17.4°F-8.1°C 77% 7.2 mph WSW11.6 kmh WSW 15.2 mph24.5 kmh 29.32 in992.9 mb 0.00 in0.0 mm 0.00 in0.0 mm 0.00 in0.0 mm
08:34 AM 23.4°F-4.8°C 17.3°F-8.2°C 77% 8.1 mph WSW13.0 kmh WSW 15.2 mph24.5 kmh 29.32 in992.9 mb 0.00 in0.0 mm 0.00 in0.0 mm 0.00 in0.0 mm
08:33 AM 23.4°F-4.8°C 17.3°F-8.2°C 77% 8.8 mph W14.2 kmh W 15.2 mph24.5 kmh 29.32 in992.9 mb 0.00 in0.0 mm 0.00 in0.0 mm 0.00 in0.0 mm
08:32 AM 23.4°F-4.8°C 17.3°F-8.2°C 77% 9.5 mph W15.3 kmh W 15.2 mph24.5 kmh 29.32 in992.9 mb 0.00 in0.0 mm 0.00 in0.0 mm 0.00 in0.0 mm
08:31 AM 23.2°F-4.9°C 17.1°F-8.3°C 77% 7.4 mph W11.9 kmh W 14.6 mph23.5 kmh 29.32 in992.9 mb 0.00 in0.0 mm 0.00 in0.0 mm 0.00 in0.0 mm
08:30 AM 23.2°F-4.9°C 17.1°F-8.3°C 77% 6.7 mph W10.8 kmh W 14.6 mph23.5 kmh 29.32 in992.9 mb 0.00 in0.0 mm 0.00 in0.0 mm 0.00 in0.0 mm
08:29 AM 23.2°F-4.9°C 17.1°F-8.3°C 77% 6.1 mph W9.8 kmh W 14.6 mph23.5 kmh 29.32 in992.9 mb 0.00 in0.0 mm 0.00 in0.0 mm 0.00 in0.0 mm
08:28 AM 23.0°F-5.0°C 16.9°F-8.4°C 77% 6.8 mph W10.9 kmh W 14.6 mph23.5 kmh 29.32 in992.9 mb 0.00 in0.0 mm 0.00 in0.0 mm 0.00 in0.0 mm
08:27 AM 23.0°F-5.0°C 16.9°F-8.4°C 77% 7.7 mph W12.4 kmh W 14.6 mph23.5 kmh 29.32 in992.9 mb 0.00 in0.0 mm 0.00 in0.0 mm 0.00 in0.0 mm
08:26 AM 23.0°F-5.0°C 16.9°F-8.4°C 77% 7.2 mph W11.6 kmh W 14.6 mph23.5 kmh 29.32 in992.9 mb 0.00 in0.0 mm 0.00 in0.0 mm 0.00 in0.0 mm
08:25 AM 23.0°F-5.0°C 16.9°F-8.4°C 77% 7.1 mph W11.4 kmh W 14.6 mph23.5 kmh 29.32 in992.9 mb 0.00 in0.0 mm 0.00 in0.0 mm 0.00 in0.0 mm
08:24 AM 22.8°F-5.1°C 16.7°F-8.5°C 77% 7.5 mph W12.1 kmh W 12.6 mph20.3 kmh 29.32 in992.9 mb 0.00 in0.0 mm 0.00 in0.0 mm 0.00 in0.0 mm
08:23 AM 22.8°F-5.1°C 16.7°F-8.5°C 77% 8.3 mph W13.4 kmh W 12.6 mph20.3 kmh 29.32 in992.9 mb 0.00 in0.0 mm 0.00 in0.0 mm 0.00 in0.0 mm
08:22 AM 22.8°F-5.1°C 16.7°F-8.5°C 77% 8.9 mph W14.3 kmh W 12.6 mph20.3 kmh 29.32 in992.9 mb 0.00 in0.0 mm 0.00 in0.0 mm 0.00 in0.0 mm
08:21 AM 22.8°F-5.1°C 16.7°F-8.5°C 77% 7.7 mph W12.4 kmh W 12.6 mph20.3 kmh 29.32 in992.9 mb 0.00 in0.0 mm 0.00 in0.0 mm 0.00 in0.0 mm
08:20 AM 22.8°F-5.1°C 16.7°F-8.5°C 77% 7.7 mph W12.4 kmh W 12.0 mph19.3 kmh 29.32 in992.9 mb 0.00 in0.0 mm 0.00 in0.0 mm 0.00 in0.0 mm
08:19 AM 22.8°F-5.1°C 16.7°F-8.5°C 77% 7.8 mph W12.6 kmh W 12.0 mph19.3 kmh 29.32 in992.9 mb 0.00 in0.0 mm 0.00 in0.0 mm 0.00 in0.0 mm
08:18 AM 22.8°F-5.1°C 16.7°F-8.5°C 77% 6.7 mph W10.8 kmh W 12.0 mph19.3 kmh 29.32 in992.9 mb 0.00 in0.0 mm 0.00 in0.0 mm 0.00 in0.0 mm
08:17 AM 22.8°F-5.1°C 16.7°F-8.5°C 77% 6.7 mph W10.8 kmh W 11.0 mph17.7 kmh 29.32 in992.9 mb 0.00 in0.0 mm 0.00 in0.0 mm 0.00 in0.0 mm
08:16 AM 22.8°F-5.1°C 16.3°F-8.7°C 76% 6.7 mph W10.8 kmh W 11.0 mph17.7 kmh 29.32 in992.9 mb 0.00 in0.0 mm 0.00 in0.0 mm 0.00 in0.0 mm
08:15 AM 22.6°F-5.2°C 16.1°F-8.8°C 76% 6.8 mph W10.9 kmh W 10.4 mph16.7 kmh 29.32 in992.9 mb 0.00 in0.0 mm 0.00 in0.0 mm 0.00 in0.0 mm
08:14 AM 22.6°F-5.2°C 16.1°F-8.8°C 76% 7.0 mph W11.3 kmh W 10.4 mph16.7 kmh 29.32 in992.9 mb 0.00 in0.0 mm 0.00 in0.0 mm 0.00 in0.0 mm
08:13 AM 22.6°F-5.2°C 16.1°F-8.8°C 76% 7.0 mph WSW11.3 kmh WSW 10.4 mph16.7 kmh 29.32 in992.9 mb 0.00 in0.0 mm 0.00 in0.0 mm 0.00 in0.0 mm
08:12 AM 22.6°F-5.2°C 16.1°F-8.8°C 76% 7.2 mph WSW11.6 kmh WSW 12.0 mph19.3 kmh 29.32 in992.9 mb 0.00 in0.0 mm 0.00 in0.0 mm 0.00 in0.0 mm
08:11 AM 22.6°F-5.2°C 16.1°F-8.8°C 76% 6.8 mph WSW10.9 kmh WSW 12.0 mph19.3 kmh 29.32 in992.9 mb 0.00 in0.0 mm 0.00 in0.0 mm 0.00 in0.0 mm
08:10 AM 22.6°F-5.2°C 16.1°F-8.8°C 76% 6.8 mph WSW10.9 kmh WSW 12.0 mph19.3 kmh 29.32 in992.9 mb 0.00 in0.0 mm 0.00 in0.0 mm 0.00 in0.0 mm
08:09 AM 22.6°F-5.2°C 16.1°F-8.8°C 76% 7.3 mph W11.7 kmh W 12.0 mph19.3 kmh 29.32 in992.9 mb 0.00 in0.0 mm 0.00 in0.0 mm 0.00 in0.0 mm
08:08 AM 22.6°F-5.2°C 16.1°F-8.8°C 76% 6.9 mph W11.1 kmh W 12.6 mph20.3 kmh 29.32 in992.9 mb 0.00 in0.0 mm 0.00 in0.0 mm 0.00 in0.0 mm
08:07 AM 22.6°F-5.2°C 16.1°F-8.8°C 76% 7.0 mph W11.3 kmh W 12.6 mph20.3 kmh 29.32 in992.9 mb 0.00 in0.0 mm 0.00 in0.0 mm 0.00 in0.0 mm
08:06 AM 22.6°F-5.2°C 16.1°F-8.8°C 76% 7.8 mph W12.6 kmh W 12.6 mph20.3 kmh 29.32 in992.9 mb 0.00 in0.0 mm 0.00 in0.0 mm 0.00 in0.0 mm
08:05 AM 22.6°F-5.2°C 16.1°F-8.8°C 76% 8.0 mph W12.9 kmh W 12.6 mph20.3 kmh 29.32 in992.9 mb 0.00 in0.0 mm 0.00 in0.0 mm 0.00 in0.0 mm
08:04 AM 22.6°F-5.2°C 16.1°F-8.8°C 76% 7.7 mph W12.4 kmh W 12.6 mph20.3 kmh 29.32 in992.9 mb 0.00 in0.0 mm 0.00 in0.0 mm 0.00 in0.0 mm
08:03 AM 22.6°F-5.2°C 16.1°F-8.8°C 76% 6.6 mph W10.6 kmh W 12.6 mph20.3 kmh 29.32 in992.9 mb 0.00 in0.0 mm 0.00 in0.0 mm 0.00 in0.0 mm
08:02 AM 22.6°F-5.2°C 16.1°F-8.8°C 76% 6.3 mph W10.1 kmh W 12.6 mph20.3 kmh 29.32 in992.9 mb 0.00 in0.0 mm 0.00 in0.0 mm 0.00 in0.0 mm
08:01 AM 22.6°F-5.2°C 16.1°F-8.8°C 76% 7.4 mph W11.9 kmh W 12.6 mph20.3 kmh 29.32 in992.9 mb 0.00 in0.0 mm 0.00 in0.0 mm 0.00 in0.0 mm
08:00 AM 22.6°F-5.2°C 16.1°F-8.8°C 76% 7.7 mph W12.4 kmh W 12.6 mph20.3 kmh 29.32 in992.9 mb 0.00 in0.0 mm 0.00 in0.0 mm 0.00 in0.0 mm
07:59 AM 22.6°F-5.2°C 16.1°F-8.8°C 76% 6.7 mph W10.8 kmh W 12.0 mph19.3 kmh 29.32 in992.9 mb 0.00 in0.0 mm 0.00 in0.0 mm 0.00 in0.0 mm
07:58 AM 22.8°F-5.1°C 16.3°F-8.7°C 76% 6.3 mph W10.1 kmh W 12.0 mph19.3 kmh 29.32 in992.9 mb 0.00 in0.0 mm 0.00 in0.0 mm 0.00 in0.0 mm
07:57 AM 22.8°F-5.1°C 16.3°F-8.7°C 76% 5.9 mph W9.5 kmh W 12.0 mph19.3 kmh 29.32 in992.9 mb 0.00 in0.0 mm 0.00 in0.0 mm 0.00 in0.0 mm
07:56 AM 22.8°F-5.1°C 16.3°F-8.7°C 76% 5.2 mph W8.4 kmh W 12.0 mph19.3 kmh 29.32 in992.9 mb 0.00 in0.0 mm 0.00 in0.0 mm 0.00 in0.0 mm
07:55 AM 22.8°F-5.1°C 16.3°F-8.7°C 76% 5.9 mph W9.5 kmh W 12.0 mph19.3 kmh 29.32 in992.9 mb 0.00 in0.0 mm 0.00 in0.0 mm 0.00 in0.0 mm
07:54 AM 22.8°F-5.1°C 16.3°F-8.7°C 76% 7.3 mph W11.7 kmh W 12.0 mph19.3 kmh 29.32 in992.9 mb 0.00 in0.0 mm 0.00 in0.0 mm 0.00 in0.0 mm
07:53 AM 22.8°F-5.1°C 16.3°F-8.7°C 76% 6.7 mph W10.8 kmh W 14.6 mph23.5 kmh 29.32 in992.9 mb 0.00 in0.0 mm 0.00 in0.0 mm 0.00 in0.0 mm
07:52 AM 22.8°F-5.1°C 16.3°F-8.7°C 76% 6.5 mph W10.5 kmh W 14.6 mph23.5 kmh 29.32 in992.9 mb 0.00 in0.0 mm 0.00 in0.0 mm 0.00 in0.0 mm
07:51 AM 22.8°F-5.1°C 16.3°F-8.7°C 76% 7.6 mph W12.2 kmh W 14.6 mph23.5 kmh 29.32 in992.9 mb 0.00 in0.0 mm 0.00 in0.0 mm 0.00 in0.0 mm
07:50 AM 22.8°F-5.1°C 16.3°F-8.7°C 76% 7.2 mph W11.6 kmh W 14.6 mph23.5 kmh 29.32 in992.9 mb 0.00 in0.0 mm 0.00 in0.0 mm 0.00 in0.0 mm
07:49 AM 22.8°F-5.1°C 16.3°F-8.7°C 76% 7.5 mph W12.1 kmh W 14.6 mph23.5 kmh 29.32 in992.9 mb 0.00 in0.0 mm 0.00 in0.0 mm 0.00 in0.0 mm
07:47 AM 22.8°F-5.1°C 16.3°F-8.7°C 76% 7.7 mph W12.4 kmh W 14.6 mph23.5 kmh 29.32 in992.9 mb 0.00 in0.0 mm 0.00 in0.0 mm 0.00 in0.0 mm
07:46 AM 22.8°F-5.1°C 16.3°F-8.7°C 76% 7.7 mph W12.4 kmh W 14.6 mph23.5 kmh 29.32 in992.9 mb 0.00 in0.0 mm 0.00 in0.0 mm 0.00 in0.0 mm
07:45 AM 22.8°F-5.1°C 16.3°F-8.7°C 76% 7.2 mph W11.6 kmh W 14.6 mph23.5 kmh 29.32 in992.9 mb 0.00 in0.0 mm 0.00 in0.0 mm 0.00 in0.0 mm
07:44 AM 22.8°F-5.1°C 16.3°F-8.7°C 76% 7.4 mph W11.9 kmh W 14.6 mph23.5 kmh 29.32 in992.9 mb 0.00 in0.0 mm 0.00 in0.0 mm 0.00 in0.0 mm
07:43 AM 22.8°F-5.1°C 16.3°F-8.7°C 76% 8.0 mph W12.9 kmh W 11.7 mph18.8 kmh 29.32 in992.9 mb 0.00 in0.0 mm 0.00 in0.0 mm 0.00 in0.0 mm
07:42 AM 22.8°F-5.1°C 16.3°F-8.7°C 76% 7.4 mph W11.9 kmh W 12.0 mph19.3 kmh 29.32 in992.9 mb 0.00 in0.0 mm 0.00 in0.0 mm 0.00 in0.0 mm
07:41 AM 22.8°F-5.1°C 16.3°F-8.7°C 76% 7.3 mph W11.7 kmh W 12.0 mph19.3 kmh 29.32 in992.9 mb 0.00 in0.0 mm 0.00 in0.0 mm 0.00 in0.0 mm
07:40 AM 22.8°F-5.1°C 16.3°F-8.7°C 76% 7.3 mph W11.7 kmh W 12.0 mph19.3 kmh 29.32 in992.9 mb 0.00 in0.0 mm 0.00 in0.0 mm 0.00 in0.0 mm
07:39 AM 22.8°F-5.1°C 16.3°F-8.7°C 76% 7.2 mph W11.6 kmh W 12.0 mph19.3 kmh 29.32 in992.9 mb 0.00 in0.0 mm 0.00 in0.0 mm 0.00 in0.0 mm
07:38 AM 22.8°F-5.1°C 16.3°F-8.7°C 76% 7.5 mph W12.1 kmh W 12.0 mph19.3 kmh 29.32 in992.9 mb 0.00 in0.0 mm 0.00 in0.0 mm 0.00 in0.0 mm
07:37 AM 23.0°F-5.0°C 16.4°F-8.7°C 76% 7.4 mph W11.9 kmh W 12.0 mph19.3 kmh 29.32 in992.9 mb 0.00 in0.0 mm 0.00 in0.0 mm 0.00 in0.0 mm
07:36 AM 23.0°F-5.0°C 16.4°F-8.7°C 76% 7.4 mph W11.9 kmh W 12.0 mph19.3 kmh 29.32 in992.9 mb 0.00 in0.0 mm 0.00 in0.0 mm 0.00 in0.0 mm
07:35 AM 23.0°F-5.0°C 16.4°F-8.7°C 76% 7.9 mph W12.7 kmh W 12.0 mph19.3 kmh 29.32 in992.9 mb 0.00 in0.0 mm 0.00 in0.0 mm 0.00 in0.0 mm
07:34 AM 23.0°F-5.0°C 16.4°F-8.7°C 76% 8.0 mph W12.9 kmh W 12.0 mph19.3 kmh 29.32 in992.9 mb 0.00 in0.0 mm 0.00 in0.0 mm 0.00 in0.0 mm
07:33 AM 23.0°F-5.0°C 16.4°F-8.7°C 76% 8.0 mph W12.9 kmh W 12.0 mph19.3 kmh 29.32 in992.9 mb 0.00 in0.0 mm 0.00 in0.0 mm 0.00 in0.0 mm
07:32 AM 23.0°F-5.0°C 16.4°F-8.7°C 76% 6.9 mph W11.1 kmh W 12.0 mph19.3 kmh 29.32 in992.9 mb 0.00 in0.0 mm 0.00 in0.0 mm 0.00 in0.0 mm
07:31 AM 23.0°F-5.0°C 16.4°F-8.7°C 76% 6.5 mph W10.5 kmh W 12.0 mph19.3 kmh 29.32 in992.9 mb 0.00 in0.0 mm 0.00 in0.0 mm 0.00 in0.0 mm
07:30 AM 23.2°F-4.9°C 16.6°F-8.6°C 76% 8.3 mph WSW13.4 kmh WSW 12.0 mph19.3 kmh 29.32 in992.9 mb 0.00 in0.0 mm 0.00 in0.0 mm 0.00 in0.0 mm
07:29 AM 23.2°F-4.9°C 16.6°F-8.6°C 76% 8.8 mph W14.2 kmh W 12.0 mph19.3 kmh 29.32 in992.9 mb 0.00 in0.0 mm 0.00 in0.0 mm 0.00 in0.0 mm
07:28 AM 23.2°F-4.9°C 16.6°F-8.6°C 76% 7.8 mph W12.6 kmh W 12.0 mph19.3 kmh 29.32 in992.9 mb 0.00 in0.0 mm 0.00 in0.0 mm 0.00 in0.0 mm
07:27 AM 23.2°F-4.9°C 16.6°F-8.6°C 76% 7.9 mph W12.7 kmh W 12.0 mph19.3 kmh 29.32 in992.9 mb 0.00 in0.0 mm 0.00 in0.0 mm 0.00 in0.0 mm
07:26 AM 23.2°F-4.9°C 16.6°F-8.6°C 76% 8.7 mph W14.0 kmh W 12.0 mph19.3 kmh 29.32 in992.9 mb 0.00 in0.0 mm 0.00 in0.0 mm 0.00 in0.0 mm
07:25 AM 23.2°F-4.9°C 16.6°F-8.6°C 76% 8.5 mph WSW13.7 kmh WSW 12.0 mph19.3 kmh 29.32 in992.9 mb 0.00 in0.0 mm 0.00 in0.0 mm 0.00 in0.0 mm
07:24 AM 23.2°F-4.9°C 16.6°F-8.6°C 76% 8.1 mph W13.0 kmh W 12.0 mph19.3 kmh 29.32 in992.9 mb 0.00 in0.0 mm 0.00 in0.0 mm 0.00 in0.0 mm
07:23 AM 23.2°F-4.9°C 16.6°F-8.6°C 76% 8.5 mph W13.7 kmh W 12.0 mph19.3 kmh 29.32 in992.9 mb 0.00 in0.0 mm 0.00 in0.0 mm 0.00 in0.0 mm
07:22 AM 23.2°F-4.9°C 16.6°F-8.6°C 76% 8.8 mph W14.2 kmh W 12.0 mph19.3 kmh 29.32 in992.9 mb 0.00 in0.0 mm 0.00 in0.0 mm 0.00 in0.0 mm
07:21 AM 23.2°F-4.9°C 16.6°F-8.6°C 76% 9.2 mph W14.8 kmh W 12.0 mph19.3 kmh 29.32 in992.9 mb 0.00 in0.0 mm 0.00 in0.0 mm 0.00 in0.0 mm
07:20 AM 23.2°F-4.9°C 16.6°F-8.6°C 75% 9.0 mph W14.5 kmh W 12.0 mph19.3 kmh 29.32 in992.9 mb 0.00 in0.0 mm 0.00 in0.0 mm 0.00 in0.0 mm
07:19 AM 23.2°F-4.9°C 16.6°F-8.6°C 75% 9.0 mph W14.5 kmh W 12.0 mph19.3 kmh 29.32 in992.9 mb 0.00 in0.0 mm 0.00 in0.0 mm 0.00 in0.0 mm
07:18 AM 23.2°F-4.9°C 16.6°F-8.6°C 75% 8.9 mph WSW14.3 kmh WSW 12.6 mph20.3 kmh 29.32 in992.9 mb 0.00 in0.0 mm 0.00 in0.0 mm 0.00 in0.0 mm
07:17 AM 23.2°F-4.9°C 16.6°F-8.6°C 75% 8.5 mph W13.7 kmh W 12.6 mph20.3 kmh 29.32 in992.9 mb 0.00 in0.0 mm 0.00 in0.0 mm 0.00 in0.0 mm
07:16 AM 23.2°F-4.9°C 16.6°F-8.6°C 75% 8.1 mph W13.0 kmh W 12.6 mph20.3 kmh 29.32 in992.9 mb 0.00 in0.0 mm 0.00 in0.0 mm 0.00 in0.0 mm
07:15 AM 23.2°F-4.9°C 16.6°F-8.6°C 75% 7.5 mph WSW12.1 kmh WSW 12.6 mph20.3 kmh 29.32 in992.9 mb 0.00 in0.0 mm 0.00 in0.0 mm 0.00 in0.0 mm
07:14 AM 23.2°F-4.9°C 16.6°F-8.6°C 75% 7.3 mph WSW11.7 kmh WSW 12.6 mph20.3 kmh 29.32 in992.9 mb 0.00 in0.0 mm 0.00 in0.0 mm 0.00 in0.0 mm
07:13 AM 23.2°F-4.9°C 16.6°F-8.6°C 75% 6.5 mph WSW10.5 kmh WSW 12.6 mph20.3 kmh 29.32 in992.9 mb 0.00 in0.0 mm 0.00 in0.0 mm 0.00 in0.0 mm
07:12 AM 23.0°F-5.0°C 16.4°F-8.7°C 75% 7.0 mph WSW11.3 kmh WSW 12.6 mph20.3 kmh 29.32 in992.9 mb 0.00 in0.0 mm 0.00 in0.0 mm 0.00 in0.0 mm
07:11 AM 23.0°F-5.0°C 16.4°F-8.7°C 75% 8.7 mph WSW14.0 kmh WSW 12.6 mph20.3 kmh 29.32 in992.9 mb 0.00 in0.0 mm 0.00 in0.0 mm 0.00 in0.0 mm
07:10 AM 23.0°F-5.0°C 16.4°F-8.7°C 75% 7.2 mph W11.6 kmh W 12.6 mph20.3 kmh 29.32 in992.9 mb 0.00 in0.0 mm 0.00 in0.0 mm 0.00 in0.0 mm
07:09 AM 23.0°F-5.0°C 16.4°F-8.7°C 75% 6.5 mph WSW10.5 kmh WSW 12.6 mph20.3 kmh 29.29 in991.9 mb 0.00 in0.0 mm 0.00 in0.0 mm 0.00 in0.0 mm
07:08 AM 23.0°F-5.0°C 16.4°F-8.7°C 75% 7.0 mph WSW11.3 kmh WSW 12.0 mph19.3 kmh 29.29 in991.9 mb 0.00 in0.0 mm 0.00 in0.0 mm 0.00 in0.0 mm
07:07 AM 23.0°F-5.0°C 16.4°F-8.7°C 75% 7.6 mph W12.2 kmh W 12.0 mph19.3 kmh 29.29 in991.9 mb 0.00 in0.0 mm 0.00 in0.0 mm 0.00 in0.0 mm
07:06 AM 23.0°F-5.0°C 16.4°F-8.7°C 75% 7.9 mph W12.7 kmh W 12.0 mph19.3 kmh 29.29 in991.9 mb 0.00 in0.0 mm 0.00 in0.0 mm 0.00 in0.0 mm
07:05 AM 23.0°F-5.0°C 16.4°F-8.7°C 75% 7.0 mph W11.3 kmh W 12.0 mph19.3 kmh 29.29 in991.9 mb 0.00 in0.0 mm 0.00 in0.0 mm 0.00 in0.0 mm
07:04 AM 23.0°F-5.0°C 16.4°F-8.7°C 75% 6.2 mph W10.0 kmh W 11.0 mph17.7 kmh 29.29 in991.9 mb 0.00 in0.0 mm 0.00 in0.0 mm 0.00 in0.0 mm
07:03 AM 23.0°F-5.0°C 16.4°F-8.7°C 75% 6.6 mph W10.6 kmh W 11.0 mph17.7 kmh 29.29 in991.9 mb 0.00 in0.0 mm 0.00 in0.0 mm 0.00 in0.0 mm
07:02 AM 23.2°F-4.9°C 16.6°F-8.6°C 75% 7.3 mph W11.7 kmh W 11.0 mph17.7 kmh 29.29 in991.9 mb 0.00 in0.0 mm 0.00 in0.0 mm 0.00 in0.0 mm
07:01 AM 23.2°F-4.9°C 16.6°F-8.6°C 75% 7.4 mph W11.9 kmh W 11.0 mph17.7 kmh 29.29 in991.9 mb 0.00 in0.0 mm 0.00 in0.0 mm 0.00 in0.0 mm
07:00 AM 23.2°F-4.9°C 16.6°F-8.6°C 75% 7.3 mph W11.7 kmh W 11.0 mph17.7 kmh 29.29 in991.9 mb 0.00 in0.0 mm 0.00 in0.0 mm 0.00 in0.0 mm
06:59 AM 23.2°F-4.9°C 16.6°F-8.6°C 75% 6.6 mph W10.6 kmh W 11.0 mph17.7 kmh 29.29 in991.9 mb 0.00 in0.0 mm 0.00 in0.0 mm 0.00 in0.0 mm
06:58 AM 23.2°F-4.9°C 16.6°F-8.6°C 75% 7.2 mph W11.6 kmh W 11.0 mph17.7 kmh 29.29 in991.9 mb 0.00 in0.0 mm 0.00 in0.0 mm 0.00 in0.0 mm
06:57 AM 23.2°F-4.9°C 16.6°F-8.6°C 75% 7.7 mph W12.4 kmh W 11.0 mph17.7 kmh 29.29 in991.9 mb 0.00 in0.0 mm 0.00 in0.0 mm 0.00 in0.0 mm
06:56 AM 23.2°F-4.9°C 16.6°F-8.6°C 75% 7.6 mph W12.2 kmh W 11.0 mph17.7 kmh 29.29 in991.9 mb 0.00 in0.0 mm 0.00 in0.0 mm 0.00 in0.0 mm
06:55 AM 23.2°F-4.9°C 16.6°F-8.6°C 75% 7.3 mph W11.7 kmh W 11.0 mph17.7 kmh 29.29 in991.9 mb 0.00 in0.0 mm 0.00 in0.0 mm 0.00 in0.0 mm
06:54 AM 23.4°F-4.8°C 16.8°F-8.4°C 75% 6.7 mph W10.8 kmh W 11.0 mph17.7 kmh 29.29 in991.9 mb 0.00 in0.0 mm 0.00 in0.0 mm 0.00 in0.0 mm
06:53 AM 23.4°F-4.8°C 16.8°F-8.4°C 75% 6.6 mph W10.6 kmh W 11.0 mph17.7 kmh 29.29 in991.9 mb 0.00 in0.0 mm 0.00 in0.0 mm 0.00 in0.0 mm
06:52 AM 23.4°F-4.8°C 16.8°F-8.4°C 75% 5.9 mph W9.5 kmh W 11.0 mph17.7 kmh 29.29 in991.9 mb 0.00 in0.0 mm 0.00 in0.0 mm 0.00 in0.0 mm
06:51 AM 23.4°F-4.8°C 16.8°F-8.4°C 75% 5.8 mph W9.3 kmh W 11.0 mph17.7 kmh 29.29 in991.9 mb 0.00 in0.0 mm 0.00 in0.0 mm 0.00 in0.0 mm
06:50 AM 23.4°F-4.8°C 16.8°F-8.4°C 75% 6.5 mph W10.5 kmh W 11.0 mph17.7 kmh 29.29 in991.9 mb 0.00 in0.0 mm 0.00 in0.0 mm 0.00 in0.0 mm
06:49 AM 23.4°F-4.8°C 16.8°F-8.4°C 75% 6.6 mph W10.6 kmh W 11.0 mph17.7 kmh 29.29 in991.9 mb 0.00 in0.0 mm 0.00 in0.0 mm 0.00 in0.0 mm
06:48 AM 23.4°F-4.8°C 16.8°F-8.4°C 75% 6.7 mph W10.8 kmh W 11.0 mph17.7 kmh 29.29 in991.9 mb 0.00 in0.0 mm 0.00 in0.0 mm 0.00 in0.0 mm
06:47 AM 23.4°F-4.8°C 16.8°F-8.4°C 75% 6.7 mph W10.8 kmh W 11.0 mph17.7 kmh 29.29 in991.9 mb 0.00 in0.0 mm 0.00 in0.0 mm 0.00 in0.0 mm
06:46 AM 23.5°F-4.7°C 16.9°F-8.4°C 75% 6.1 mph W9.8 kmh W 11.0 mph17.7 kmh 29.29 in991.9 mb 0.00 in0.0 mm 0.00 in0.0 mm 0.00 in0.0 mm
06:45 AM 23.5°F-4.7°C 16.9°F-8.4°C 75% 5.9 mph W9.5 kmh W 11.0 mph17.7 kmh 29.29 in991.9 mb 0.00 in0.0 mm 0.00 in0.0 mm 0.00 in0.0 mm
06:44 AM 23.5°F-4.7°C 16.9°F-8.4°C 75% 6.4 mph W10.3 kmh W 11.0 mph17.7 kmh 29.29 in991.9 mb 0.00 in0.0 mm 0.00 in0.0 mm 0.00 in0.0 mm
06:43 AM 23.5°F-4.7°C 16.9°F-8.4°C 75% 7.6 mph W12.2 kmh W 11.0 mph17.7 kmh 29.29 in991.9 mb 0.00 in0.0 mm 0.00 in0.0 mm 0.00 in0.0 mm
06:42 AM 23.5°F-4.7°C 16.9°F-8.4°C 75% 7.9 mph W12.7 kmh W 11.0 mph17.7 kmh 29.29 in991.9 mb 0.00 in0.0 mm 0.00 in0.0 mm 0.00 in0.0 mm
06:41 AM 23.5°F-4.7°C 16.8°F-8.4°C 75% 7.3 mph W11.7 kmh W 11.0 mph17.7 kmh 29.29 in991.9 mb 0.00 in0.0 mm 0.00 in0.0 mm 0.00 in0.0 mm
06:40 AM 23.5°F-4.7°C 16.8°F-8.4°C 75% 7.0 mph W11.3 kmh W 11.0 mph17.7 kmh 29.29 in991.9 mb 0.00 in0.0 mm 0.00 in0.0 mm 0.00 in0.0 mm
06:39 AM 23.5°F-4.7°C 16.8°F-8.4°C 75% 7.1 mph W11.4 kmh W 11.0 mph17.7 kmh 29.29 in991.9 mb 0.00 in0.0 mm 0.00 in0.0 mm 0.00 in0.0 mm
06:38 AM 23.7°F-4.6°C 17.0°F-8.3°C 75% 7.0 mph W11.3 kmh W 11.0 mph17.7 kmh 29.29 in991.9 mb 0.00 in0.0 mm 0.00 in0.0 mm 0.00 in0.0 mm
06:37 AM 23.7°F-4.6°C 17.0°F-8.3°C 75% 6.4 mph W10.3 kmh W 11.0 mph17.7 kmh 29.29 in991.9 mb 0.00 in0.0 mm 0.00 in0.0 mm 0.00 in0.0 mm
06:36 AM 23.7°F-4.6°C 17.0°F-8.3°C 75% 6.4 mph W10.3 kmh W 11.0 mph17.7 kmh 29.29 in991.9 mb 0.00 in0.0 mm 0.00 in0.0 mm 0.00 in0.0 mm
06:35 AM 23.7°F-4.6°C 17.0°F-8.3°C 75% 6.4 mph W10.3 kmh W 11.0 mph17.7 kmh 29.29 in991.9 mb 0.00 in0.0 mm 0.00 in0.0 mm 0.00 in0.0 mm
06:34 AM 23.9°F-4.5°C 17.2°F-8.2°C 75% 6.6 mph W10.6 kmh W 12.6 mph20.3 kmh 29.29 in991.9 mb 0.00 in0.0 mm 0.00 in0.0 mm 0.00 in0.0 mm
06:33 AM 23.9°F-4.5°C 17.2°F-8.2°C 75% 7.2 mph W11.6 kmh W 12.6 mph20.3 kmh 29.29 in991.9 mb 0.00 in0.0 mm 0.00 in0.0 mm 0.00 in0.0 mm
06:32 AM 23.9°F-4.5°C 17.6°F-8.0°C 76% 7.5 mph W12.1 kmh W 12.6 mph20.3 kmh 29.29 in991.9 mb 0.00 in0.0 mm 0.00 in0.0 mm 0.00 in0.0 mm
06:31 AM 23.9°F-4.5°C 17.6°F-8.0°C 76% 7.6 mph W12.2 kmh W 12.6 mph20.3 kmh 29.29 in991.9 mb 0.00 in0.0 mm 0.00 in0.0 mm 0.00 in0.0 mm
06:30 AM 23.9°F-4.5°C 17.2°F-8.2°C 75% 7.2 mph W11.6 kmh W 12.6 mph20.3 kmh 29.29 in991.9 mb 0.00 in0.0 mm 0.00 in0.0 mm 0.00 in0.0 mm
06:29 AM 23.9°F-4.5°C 17.2°F-8.2°C 75% 6.1 mph W9.8 kmh W 12.6 mph20.3 kmh 29.29 in991.9 mb 0.00 in0.0 mm 0.00 in0.0 mm 0.00 in0.0 mm
06:28 AM 23.9°F-4.5°C 17.2°F-8.2°C 75% 5.8 mph W9.3 kmh W 12.6 mph20.3 kmh 29.29 in991.9 mb 0.00 in0.0 mm 0.00 in0.0 mm 0.00 in0.0 mm
06:27 AM 23.9°F-4.5°C 17.2°F-8.2°C 75% 7.1 mph W11.4 kmh W 12.6 mph20.3 kmh 29.29 in991.9 mb 0.00 in0.0 mm 0.00 in0.0 mm 0.00 in0.0 mm
06:26 AM 23.9°F-4.5°C 17.2°F-8.2°C 75% 8.3 mph W13.4 kmh W 12.6 mph20.3 kmh 29.29 in991.9 mb 0.00 in0.0 mm 0.00 in0.0 mm 0.00 in0.0 mm
06:25 AM 23.9°F-4.5°C 17.2°F-8.2°C 75% 7.4 mph W11.9 kmh W 12.6 mph20.3 kmh 29.29 in991.9 mb 0.00 in0.0 mm 0.00 in0.0 mm 0.00 in0.0 mm
06:24 AM 23.9°F-4.5°C 17.2°F-8.2°C 75% 6.9 mph W11.1 kmh W 12.0 mph19.3 kmh 29.29 in991.9 mb 0.00 in0.0 mm 0.00 in0.0 mm 0.00 in0.0 mm
06:23 AM 23.9°F-4.5°C 17.2°F-8.2°C 75% 6.8 mph W10.9 kmh W 12.0 mph19.3 kmh 29.29 in991.9 mb 0.00 in0.0 mm 0.00 in0.0 mm 0.00 in0.0 mm
06:22 AM 23.9°F-4.5°C 17.2°F-8.2°C 75% 6.9 mph W11.1 kmh W 12.0 mph19.3 kmh 29.29 in991.9 mb 0.00 in0.0 mm 0.00 in0.0 mm 0.00 in0.0 mm
06:21 AM 23.9°F-4.5°C 17.2°F-8.2°C 75% 7.3 mph W11.7 kmh W 12.0 mph19.3 kmh 29.29 in991.9 mb 0.00 in0.0 mm 0.00 in0.0 mm 0.00 in0.0 mm
06:20 AM 23.9°F-4.5°C 17.2°F-8.2°C 75% 8.0 mph W12.9 kmh W 12.0 mph19.3 kmh 29.29 in991.9 mb 0.00 in0.0 mm 0.00 in0.0 mm 0.00 in0.0 mm
06:19 AM 23.9°F-4.5°C 17.2°F-8.2°C 75% 8.1 mph W13.0 kmh W 12.0 mph19.3 kmh 29.29 in991.9 mb 0.00 in0.0 mm 0.00 in0.0 mm 0.00 in0.0 mm
06:18 AM 23.9°F-4.5°C 17.2°F-8.2°C 75% 7.3 mph W11.7 kmh W 12.0 mph19.3 kmh 29.29 in991.9 mb 0.00 in0.0 mm 0.00 in0.0 mm 0.00 in0.0 mm
06:17 AM 24.1°F-4.4°C 17.4°F-8.1°C 75% 6.1 mph W9.8 kmh W 11.0 mph17.7 kmh 29.29 in991.9 mb 0.00 in0.0 mm 0.00 in0.0 mm 0.00 in0.0 mm
06:16 AM 24.1°F-4.4°C 17.4°F-8.1°C 75% 6.0 mph W9.7 kmh W 11.7 mph18.8 kmh 29.29 in991.9 mb 0.00 in0.0 mm 0.00 in0.0 mm 0.00 in0.0 mm
06:15 AM 24.1°F-4.4°C 17.8°F-7.9°C 77% 6.6 mph W10.6 kmh W 11.7 mph18.8 kmh 29.29 in991.9 mb 0.00 in0.0 mm 0.00 in0.0 mm 0.00 in0.0 mm
06:14 AM 24.1°F-4.4°C 17.8°F-7.9°C 77% 7.0 mph W11.3 kmh W 12.0 mph19.3 kmh 29.29 in991.9 mb 0.00 in0.0 mm 0.00 in0.0 mm 0.00 in0.0 mm
06:13 AM 24.1°F-4.4°C 17.8°F-7.9°C 77% 6.8 mph W10.9 kmh W 12.0 mph19.3 kmh 29.29 in991.9 mb 0.00 in0.0 mm 0.00 in0.0 mm 0.00 in0.0 mm
06:12 AM 24.3°F-4.3°C 18.0°F-7.8°C 77% 7.0 mph W11.3 kmh W 12.0 mph19.3 kmh 29.29 in991.9 mb 0.00 in0.0 mm 0.00 in0.0 mm 0.00 in0.0 mm
06:11 AM 24.3°F-4.3°C 18.0°F-7.8°C 77% 7.0 mph W11.3 kmh W 12.0 mph19.3 kmh 29.29 in991.9 mb 0.00 in0.0 mm 0.00 in0.0 mm 0.00 in0.0 mm
06:10 AM 24.3°F-4.3°C 18.0°F-7.8°C 77% 6.7 mph W10.8 kmh W 12.0 mph19.3 kmh 29.29 in991.9 mb 0.00 in0.0 mm 0.00 in0.0 mm 0.00 in0.0 mm
06:09 AM 24.3°F-4.3°C 18.0°F-7.8°C 77% 6.7 mph W10.8 kmh W 12.0 mph19.3 kmh 29.29 in991.9 mb 0.00 in0.0 mm 0.00 in0.0 mm 0.00 in0.0 mm
06:08 AM 24.3°F-4.3°C 18.0°F-7.8°C 77% 7.6 mph W12.2 kmh W 12.0 mph19.3 kmh 29.29 in991.9 mb 0.00 in0.0 mm 0.00 in0.0 mm 0.00 in0.0 mm
06:07 AM 24.3°F-4.3°C 18.0°F-7.8°C 77% 8.7 mph W14.0 kmh W 12.0 mph19.3 kmh 29.29 in991.9 mb 0.00 in0.0 mm 0.00 in0.0 mm 0.00 in0.0 mm
06:06 AM 24.4°F-4.2°C 18.1°F-7.7°C 77% 7.7 mph W12.4 kmh W 12.0 mph19.3 kmh 29.29 in991.9 mb 0.00 in0.0 mm 0.00 in0.0 mm 0.00 in0.0 mm
06:05 AM 24.4°F-4.2°C 18.1°F-7.7°C 77% 6.5 mph W10.5 kmh W 12.6 mph20.3 kmh 29.29 in991.9 mb 0.00 in0.0 mm 0.00 in0.0 mm 0.00 in0.0 mm
06:04 AM 24.4°F-4.2°C 18.1°F-7.7°C 77% 6.7 mph W10.8 kmh W 12.6 mph20.3 kmh 29.29 in991.9 mb 0.00 in0.0 mm 0.00 in0.0 mm 0.00 in0.0 mm
06:03 AM 24.4°F-4.2°C 18.1°F-7.7°C 77% 6.5 mph W10.5 kmh W 12.6 mph20.3 kmh 29.29 in991.9 mb 0.00 in0.0 mm 0.00 in0.0 mm 0.00 in0.0 mm
06:02 AM 24.4°F-4.2°C 18.1°F-7.7°C 77% 6.2 mph W10.0 kmh W 12.6 mph20.3 kmh 29.29 in991.9 mb 0.00 in0.0 mm 0.00 in0.0 mm 0.00 in0.0 mm
06:01 AM 24.4°F-4.2°C 18.1°F-7.7°C 77% 6.8 mph W10.9 kmh W 14.6 mph23.5 kmh 29.29 in991.9 mb 0.00 in0.0 mm 0.00 in0.0 mm 0.00 in0.0 mm
06:00 AM 24.4°F-4.2°C 18.1°F-7.7°C 77% 8.0 mph W12.9 kmh W 14.6 mph23.5 kmh 29.29 in991.9 mb 0.00 in0.0 mm 0.00 in0.0 mm 0.00 in0.0 mm
05:59 AM 24.4°F-4.2°C 18.1°F-7.7°C 77% 8.5 mph W13.7 kmh W 14.6 mph23.5 kmh 29.29 in991.9 mb 0.00 in0.0 mm 0.00 in0.0 mm 0.00 in0.0 mm
05:58 AM 24.4°F-4.2°C 18.1°F-7.7°C 77% 8.1 mph W13.0 kmh W 14.6 mph23.5 kmh 29.29 in991.9 mb 0.00 in0.0 mm 0.00 in0.0 mm 0.00 in0.0 mm
05:57 AM 24.4°F-4.2°C 18.1°F-7.7°C 77% 7.4 mph W11.9 kmh W 14.6 mph23.5 kmh 29.29 in991.9 mb 0.00 in0.0 mm 0.00 in0.0 mm 0.00 in0.0 mm
05:56 AM 24.4°F-4.2°C 18.1°F-7.7°C 77% 8.4 mph W13.5 kmh W 14.6 mph23.5 kmh 29.29 in991.9 mb 0.00 in0.0 mm 0.00 in0.0 mm 0.00 in0.0 mm
05:52 AM 24.6°F-4.1°C 18.3°F-7.6°C 77% 8.5 mph W13.7 kmh W 14.6 mph23.5 kmh 29.29 in991.9 mb 0.00 in0.0 mm 0.00 in0.0 mm 0.00 in0.0 mm
05:51 AM 24.4°F-4.2°C 18.1°F-7.7°C 77% 9.6 mph W15.4 kmh W 14.6 mph23.5 kmh 29.29 in991.9 mb 0.00 in0.0 mm 0.00 in0.0 mm 0.00 in0.0 mm
05:50 AM 24.4°F-4.2°C 18.1°F-7.7°C 77% 10.5 mph W16.9 kmh W 14.6 mph23.5 kmh 29.29 in991.9 mb 0.00 in0.0 mm 0.00 in0.0 mm 0.00 in0.0 mm
05:49 AM 24.4°F-4.2°C 18.1°F-7.7°C 77% 10.8 mph W17.4 kmh W 14.6 mph23.5 kmh 29.29 in991.9 mb 0.00 in0.0 mm 0.00 in0.0 mm 0.00 in0.0 mm
05:48 AM 24.4°F-4.2°C 18.1°F-7.7°C 77% 10.5 mph W16.9 kmh W 14.6 mph23.5 kmh 29.29 in991.9 mb 0.00 in0.0 mm 0.00 in0.0 mm 0.00 in0.0 mm
05:47 AM 24.4°F-4.2°C 18.1°F-7.7°C 77% 10.6 mph W17.1 kmh W 12.6 mph20.3 kmh 29.29 in991.9 mb 0.00 in0.0 mm 0.00 in0.0 mm 0.00 in0.0 mm
05:46 AM 24.4°F-4.2°C 18.1°F-7.7°C 77% 9.9 mph W15.9 kmh W 12.6 mph20.3 kmh 29.29 in991.9 mb 0.00 in0.0 mm 0.00 in0.0 mm 0.00 in0.0 mm
05:45 AM 24.4°F-4.2°C 18.1°F-7.7°C 77% 9.3 mph W15.0 kmh W 12.6 mph20.3 kmh 29.29 in991.9 mb 0.00 in0.0 mm 0.00 in0.0 mm 0.00 in0.0 mm
05:44 AM 24.4°F-4.2°C 18.1°F-7.7°C 77% 9.5 mph W15.3 kmh W 12.6 mph20.3 kmh 29.29 in991.9 mb 0.00 in0.0 mm 0.00 in0.0 mm 0.00 in0.0 mm
05:43 AM 24.4°F-4.2°C 18.1°F-7.7°C 77% 8.1 mph W13.0 kmh W 12.6 mph20.3 kmh 29.29 in991.9 mb 0.00 in0.0 mm 0.00 in0.0 mm 0.00 in0.0 mm
05:42 AM 24.6°F-4.1°C 18.3°F-7.6°C 77% 7.1 mph W11.4 kmh W 12.6 mph20.3 kmh 29.29 in991.9 mb 0.00 in0.0 mm 0.00 in0.0 mm 0.00 in0.0 mm
05:41 AM 24.6°F-4.1°C 18.3°F-7.6°C 77% 7.7 mph W12.4 kmh W 12.6 mph20.3 kmh 29.29 in991.9 mb 0.00 in0.0 mm 0.00 in0.0 mm 0.00 in0.0 mm
05:40 AM 24.6°F-4.1°C 18.3°F-7.6°C 77% 8.0 mph W12.9 kmh W 12.6 mph20.3 kmh 29.29 in991.9 mb 0.00 in0.0 mm 0.00 in0.0 mm 0.00 in0.0 mm
05:39 AM 24.6°F-4.1°C 18.3°F-7.6°C 77% 8.8 mph W14.2 kmh W 12.6 mph20.3 kmh 29.29 in991.9 mb 0.00 in0.0 mm 0.00 in0.0 mm 0.00 in0.0 mm
05:38 AM 24.6°F-4.1°C 18.3°F-7.6°C 77% 8.7 mph WNW14.0 kmh WNW 12.6 mph20.3 kmh 29.29 in991.9 mb 0.00 in0.0 mm 0.00 in0.0 mm 0.00 in0.0 mm
05:37 AM 24.8°F-4.0°C 18.5°F-7.5°C 77% 7.4 mph W11.9 kmh W 12.6 mph20.3 kmh 29.29 in991.9 mb 0.00 in0.0 mm 0.00 in0.0 mm 0.00 in0.0 mm
05:36 AM 24.8°F-4.0°C 18.5°F-7.5°C 77% 7.4 mph W11.9 kmh W 12.6 mph20.3 kmh 29.29 in991.9 mb 0.00 in0.0 mm 0.00 in0.0 mm 0.00 in0.0 mm
05:35 AM 24.8°F-4.0°C 18.5°F-7.5°C 77% 7.8 mph W12.6 kmh W 12.6 mph20.3 kmh 29.29 in991.9 mb 0.00 in0.0 mm 0.00 in0.0 mm 0.00 in0.0 mm
05:34 AM 24.8°F-4.0°C 18.5°F-7.5°C 77% 8.5 mph W13.7 kmh W 12.6 mph20.3 kmh 29.29 in991.9 mb 0.00 in0.0 mm 0.00 in0.0 mm 0.00 in0.0 mm
05:33 AM 24.8°F-4.0°C 18.5°F-7.5°C 77% 7.6 mph W12.2 kmh W 12.6 mph20.3 kmh 29.29 in991.9 mb 0.00 in0.0 mm 0.00 in0.0 mm 0.00 in0.0 mm
05:32 AM 24.8°F-4.0°C 18.5°F-7.5°C 77% 7.4 mph W11.9 kmh W 12.6 mph20.3 kmh 29.29 in991.9 mb 0.00 in0.0 mm 0.00 in0.0 mm 0.00 in0.0 mm
05:31 AM 25.0°F-3.9°C 18.7°F-7.4°C 77% 8.7 mph W14.0 kmh W 12.6 mph20.3 kmh 29.29 in991.9 mb 0.00 in0.0 mm 0.00 in0.0 mm 0.00 in0.0 mm
05:30 AM 25.0°F-3.9°C 18.7°F-7.4°C 77% 8.5 mph W13.7 kmh W 12.6 mph20.3 kmh 29.29 in991.9 mb 0.00 in0.0 mm 0.00 in0.0 mm 0.00 in0.0 mm
05:29 AM 25.0°F-3.9°C 18.7°F-7.4°C 77% 7.0 mph W11.3 kmh W 14.6 mph23.5 kmh 29.29 in991.9 mb 0.00 in0.0 mm 0.00 in0.0 mm 0.00 in0.0 mm
05:28 AM 25.0°F-3.9°C 18.7°F-7.4°C 77% 6.6 mph W10.6 kmh W 14.6 mph23.5 kmh 29.29 in991.9 mb 0.00 in0.0 mm 0.00 in0.0 mm 0.00 in0.0 mm
05:27 AM 25.2°F-3.8°C 18.9°F-7.3°C 77% 8.8 mph W14.2 kmh W 14.6 mph23.5 kmh 29.29 in991.9 mb 0.00 in0.0 mm 0.00 in0.0 mm 0.00 in0.0 mm
05:26 AM 25.2°F-3.8°C 18.9°F-7.3°C 77% 9.8 mph W15.8 kmh W 14.6 mph23.5 kmh 29.29 in991.9 mb 0.00 in0.0 mm 0.00 in0.0 mm 0.00 in0.0 mm
05:25 AM 25.2°F-3.8°C 18.9°F-7.3°C 77% 8.6 mph W13.8 kmh W 14.6 mph23.5 kmh 29.29 in991.9 mb 0.00 in0.0 mm 0.00 in0.0 mm 0.00 in0.0 mm
05:24 AM 25.2°F-3.8°C 18.9°F-7.3°C 77% 7.5 mph W12.1 kmh W 14.6 mph23.5 kmh 29.29 in991.9 mb 0.00 in0.0 mm 0.00 in0.0 mm 0.00 in0.0 mm
05:23 AM 25.3°F-3.7°C 19.0°F-7.2°C 77% 7.2 mph W11.6 kmh W 14.6 mph23.5 kmh 29.29 in991.9 mb 0.00 in0.0 mm 0.00 in0.0 mm 0.00 in0.0 mm
05:22 AM 25.3°F-3.7°C 19.0°F-7.2°C 77% 8.2 mph W13.2 kmh W 14.6 mph23.5 kmh 29.29 in991.9 mb 0.00 in0.0 mm 0.00 in0.0 mm 0.00 in0.0 mm
05:21 AM 25.3°F-3.7°C 19.0°F-7.2°C 77% 10.4 mph W16.7 kmh W 14.6 mph23.5 kmh 29.29 in991.9 mb 0.00 in0.0 mm 0.00 in0.0 mm 0.00 in0.0 mm
05:20 AM 25.3°F-3.7°C 19.0°F-7.2°C 77% 11.5 mph W18.5 kmh W 14.6 mph23.5 kmh 29.29 in991.9 mb 0.00 in0.0 mm 0.00 in0.0 mm 0.00 in0.0 mm
05:19 AM 25.3°F-3.7°C 19.0°F-7.2°C 77% 9.7 mph WNW15.6 kmh WNW 14.6 mph23.5 kmh 29.29 in991.9 mb 0.00 in0.0 mm 0.00 in0.0 mm 0.00 in0.0 mm
05:18 AM 25.3°F-3.7°C 19.0°F-7.2°C 77% 8.0 mph WNW12.9 kmh WNW 14.6 mph23.5 kmh 29.29 in991.9 mb 0.00 in0.0 mm 0.00 in0.0 mm 0.00 in0.0 mm
05:17 AM 25.3°F-3.7°C 19.0°F-7.2°C 77% 7.5 mph WNW12.1 kmh WNW 14.6 mph23.5 kmh 29.29 in991.9 mb 0.00 in0.0 mm 0.00 in0.0 mm 0.00 in0.0 mm
05:16 AM 25.3°F-3.7°C 19.0°F-7.2°C 77% 7.7 mph W12.4 kmh W 17.8 mph28.6 kmh 29.29 in991.9 mb 0.00 in0.0 mm 0.00 in0.0 mm 0.00 in0.0 mm
05:15 AM 25.3°F-3.7°C 19.1°F-7.2°C 77% 9.6 mph W15.4 kmh W 17.8 mph28.6 kmh 29.29 in991.9 mb 0.00 in0.0 mm 0.00 in0.0 mm 0.00 in0.0 mm
05:14 AM 25.3°F-3.7°C 19.1°F-7.2°C 77% 10.6 mph W17.1 kmh W 17.8 mph28.6 kmh 29.29 in991.9 mb 0.00 in0.0 mm 0.00 in0.0 mm 0.00 in0.0 mm
05:13 AM 25.3°F-3.7°C 19.1°F-7.2°C 77% 11.2 mph W18.0 kmh W 17.8 mph28.6 kmh 29.29 in991.9 mb 0.00 in0.0 mm 0.00 in0.0 mm 0.00 in0.0 mm
05:12 AM 25.3°F-3.7°C 19.1°F-7.2°C 77% 9.9 mph WNW15.9 kmh WNW 17.8 mph28.6 kmh 29.29 in991.9 mb 0.00 in0.0 mm 0.00 in0.0 mm 0.00 in0.0 mm
05:11 AM 25.3°F-3.7°C 19.1°F-7.2°C 77% 8.4 mph WNW13.5 kmh WNW 17.8 mph28.6 kmh 29.29 in991.9 mb 0.00 in0.0 mm 0.00 in0.0 mm 0.00 in0.0 mm
05:10 AM 25.5°F-3.6°C 19.3°F-7.1°C 77% 9.8 mph W15.8 kmh W 17.8 mph28.6 kmh 29.29 in991.9 mb 0.00 in0.0 mm 0.00 in0.0 mm 0.00 in0.0 mm
05:09 AM 25.5°F-3.6°C 19.3°F-7.1°C 77% 11.3 mph W18.2 kmh W 17.8 mph28.6 kmh 29.29 in991.9 mb 0.00 in0.0 mm 0.00 in0.0 mm 0.00 in0.0 mm
05:08 AM 25.5°F-3.6°C 19.3°F-7.1°C 77% 11.3 mph W18.2 kmh W 17.8 mph28.6 kmh 29.29 in991.9 mb 0.00 in0.0 mm 0.00 in0.0 mm 0.00 in0.0 mm
05:07 AM 25.5°F-3.6°C 19.3°F-7.1°C 77% 10.6 mph W17.1 kmh W 17.8 mph28.6 kmh 29.29 in991.9 mb 0.00 in0.0 mm 0.00 in0.0 mm 0.00 in0.0 mm
05:06 AM 25.5°F-3.6°C 19.3°F-7.1°C 77% 10.2 mph W16.4 kmh W 17.8 mph28.6 kmh 29.29 in991.9 mb 0.00 in0.0 mm 0.00 in0.0 mm 0.00 in0.0 mm
05:05 AM 25.5°F-3.6°C 19.3°F-7.1°C 77% 8.4 mph W13.5 kmh W 14.4 mph23.2 kmh 29.29 in991.9 mb 0.00 in0.0 mm 0.00 in0.0 mm 0.00 in0.0 mm
05:04 AM 25.7°F-3.5°C 19.5°F-6.9°C 77% 7.8 mph W12.6 kmh W 15.9 mph25.6 kmh 29.29 in991.9 mb 0.00 in0.0 mm 0.00 in0.0 mm 0.00 in0.0 mm
05:03 AM 25.7°F-3.5°C 19.5°F-6.9°C 77% 8.2 mph W13.2 kmh W 17.3 mph27.8 kmh 29.29 in991.9 mb 0.00 in0.0 mm 0.00 in0.0 mm 0.00 in0.0 mm
05:02 AM 25.7°F-3.5°C 19.5°F-6.9°C 77% 8.4 mph W13.5 kmh W 17.3 mph27.8 kmh 29.29 in991.9 mb 0.00 in0.0 mm 0.00 in0.0 mm 0.00 in0.0 mm
05:01 AM 25.7°F-3.5°C 19.5°F-6.9°C 77% 8.6 mph W13.8 kmh W 17.3 mph27.8 kmh 29.29 in991.9 mb 0.00 in0.0 mm 0.00 in0.0 mm 0.00 in0.0 mm
04:57 AM 25.7°F-3.5°C 19.5°F-6.9°C 77% 9.5 mph W15.3 kmh W 17.3 mph27.8 kmh 29.29 in991.9 mb 0.00 in0.0 mm 0.00 in0.0 mm 0.00 in0.0 mm
04:56 AM 25.7°F-3.5°C 19.5°F-6.9°C 77% 12.2 mph WNW19.6 kmh WNW 17.3 mph27.8 kmh 29.29 in991.9 mb 0.00 in0.0 mm 0.00 in0.0 mm 0.00 in0.0 mm
04:55 AM 25.7°F-3.5°C 19.5°F-6.9°C 77% 10.2 mph WNW16.4 kmh WNW 17.3 mph27.8 kmh 29.29 in991.9 mb 0.00 in0.0 mm 0.00 in0.0 mm 0.00 in0.0 mm
04:54 AM 25.5°F-3.6°C 19.3°F-7.1°C 77% 8.2 mph WNW13.2 kmh WNW 17.3 mph27.8 kmh 29.26 in990.9 mb 0.00 in0.0 mm 0.00 in0.0 mm 0.00 in0.0 mm
04:53 AM 25.5°F-3.6°C 19.3°F-7.1°C 77% 9.1 mph WNW14.6 kmh WNW 14.6 mph23.5 kmh 29.26 in990.9 mb 0.00 in0.0 mm 0.00 in0.0 mm 0.00 in0.0 mm
04:52 AM 25.5°F-3.6°C 19.3°F-7.1°C 77% 8.7 mph WNW14.0 kmh WNW 14.6 mph23.5 kmh 29.26 in990.9 mb 0.00 in0.0 mm 0.00 in0.0 mm 0.00 in0.0 mm
04:51 AM 25.3°F-3.7°C 19.1°F-7.2°C 77% 7.9 mph W12.7 kmh W 12.6 mph20.3 kmh 29.26 in990.9 mb 0.00 in0.0 mm 0.00 in0.0 mm 0.00 in0.0 mm
04:50 AM 25.3°F-3.7°C 19.1°F-7.2°C 77% 7.5 mph W12.1 kmh W 12.6 mph20.3 kmh 29.26 in990.9 mb 0.00 in0.0 mm 0.00 in0.0 mm 0.00 in0.0 mm
04:49 AM 25.3°F-3.7°C 19.1°F-7.2°C 77% 8.1 mph W13.0 kmh W 12.6 mph20.3 kmh 29.26 in990.9 mb 0.00 in0.0 mm 0.00 in0.0 mm 0.00 in0.0 mm
04:48 AM 25.3°F-3.7°C 19.1°F-7.2°C 77% 8.1 mph W13.0 kmh W 12.6 mph20.3 kmh 29.26 in990.9 mb 0.00 in0.0 mm 0.00 in0.0 mm 0.00 in0.0 mm
04:47 AM 25.3°F-3.7°C 18.7°F-7.4°C 76% 6.9 mph W11.1 kmh W 12.6 mph20.3 kmh 29.26 in990.9 mb 0.00 in0.0 mm 0.00 in0.0 mm 0.00 in0.0 mm
04:46 AM 25.3°F-3.7°C 18.7°F-7.4°C 76% 7.1 mph W11.4 kmh W 12.0 mph19.3 kmh 29.26 in990.9 mb 0.00 in0.0 mm 0.00 in0.0 mm 0.00 in0.0 mm
04:45 AM 25.3°F-3.7°C 18.7°F-7.4°C 76% 7.2 mph W11.6 kmh W 12.0 mph19.3 kmh 29.26 in990.9 mb 0.00 in0.0 mm 0.00 in0.0 mm 0.00 in0.0 mm
04:44 AM 25.3°F-3.7°C 18.7°F-7.4°C 76% 7.5 mph W12.1 kmh W 12.6 mph20.3 kmh 29.26 in990.9 mb 0.00 in0.0 mm 0.00 in0.0 mm 0.00 in0.0 mm
04:43 AM 25.3°F-3.7°C 18.7°F-7.4°C 76% 8.6 mph W13.8 kmh W 12.6 mph20.3 kmh 29.26 in990.9 mb 0.00 in0.0 mm 0.00 in0.0 mm 0.00 in0.0 mm
04:42 AM 25.3°F-3.7°C 18.7°F-7.4°C 76% 9.0 mph W14.5 kmh W 12.6 mph20.3 kmh 29.26 in990.9 mb 0.00 in0.0 mm 0.00 in0.0 mm 0.00 in0.0 mm
04:41 AM 25.3°F-3.7°C 18.7°F-7.4°C 76% 8.1 mph WNW13.0 kmh WNW 12.6 mph20.3 kmh 29.26 in990.9 mb 0.00 in0.0 mm 0.00 in0.0 mm 0.00 in0.0 mm
04:40 AM 25.3°F-3.7°C 18.8°F-7.3°C 76% 7.1 mph WNW11.4 kmh WNW 12.6 mph20.3 kmh 29.26 in990.9 mb 0.00 in0.0 mm 0.00 in0.0 mm 0.00 in0.0 mm
04:39 AM 25.3°F-3.7°C 18.8°F-7.3°C 76% 7.3 mph WNW11.7 kmh WNW 12.6 mph20.3 kmh 29.26 in990.9 mb 0.00 in0.0 mm 0.00 in0.0 mm 0.00 in0.0 mm
04:38 AM 25.3°F-3.7°C 18.8°F-7.3°C 76% 7.3 mph WNW11.7 kmh WNW 12.6 mph20.3 kmh 29.26 in990.9 mb 0.00 in0.0 mm 0.00 in0.0 mm 0.00 in0.0 mm
04:37 AM 25.5°F-3.6°C 19.3°F-7.1°C 77% 8.0 mph W12.9 kmh W 14.6 mph23.5 kmh 29.26 in990.9 mb 0.00 in0.0 mm 0.00 in0.0 mm 0.00 in0.0 mm
04:36 AM 25.5°F-3.6°C 19.3°F-7.1°C 77% 9.5 mph W15.3 kmh W 14.6 mph23.5 kmh 29.26 in990.9 mb 0.00 in0.0 mm 0.00 in0.0 mm 0.00 in0.0 mm
04:35 AM 25.5°F-3.6°C 19.3°F-7.1°C 77% 9.1 mph W14.6 kmh W 14.6 mph23.5 kmh 29.26 in990.9 mb 0.00 in0.0 mm 0.00 in0.0 mm 0.00 in0.0 mm
04:34 AM 25.5°F-3.6°C 19.3°F-7.1°C 77% 8.3 mph W13.4 kmh W 14.6 mph23.5 kmh 29.26 in990.9 mb 0.00 in0.0 mm 0.00 in0.0 mm 0.00 in0.0 mm
04:33 AM 25.5°F-3.6°C 19.3°F-7.1°C 77% 8.1 mph W13.0 kmh W 14.6 mph23.5 kmh 29.26 in990.9 mb 0.00 in0.0 mm 0.00 in0.0 mm 0.00 in0.0 mm
04:32 AM 25.7°F-3.5°C 19.5°F-6.9°C 77% 8.3 mph WNW13.4 kmh WNW 14.6 mph23.5 kmh 29.26 in990.9 mb 0.00 in0.0 mm 0.00 in0.0 mm 0.00 in0.0 mm
04:31 AM 25.7°F-3.5°C 19.5°F-6.9°C 77% 8.3 mph WNW13.4 kmh WNW 14.6 mph23.5 kmh 29.26 in990.9 mb 0.00 in0.0 mm 0.00 in0.0 mm 0.00 in0.0 mm
04:30 AM 25.7°F-3.5°C 19.5°F-6.9°C 77% 8.1 mph WNW13.0 kmh WNW 14.6 mph23.5 kmh 29.26 in990.9 mb 0.00 in0.0 mm 0.00 in0.0 mm 0.00 in0.0 mm
04:29 AM 25.7°F-3.5°C 19.5°F-6.9°C 77% 8.7 mph WNW14.0 kmh WNW 14.6 mph23.5 kmh 29.26 in990.9 mb 0.00 in0.0 mm 0.00 in0.0 mm 0.00 in0.0 mm
04:28 AM 25.7°F-3.5°C 19.5°F-6.9°C 77% 9.3 mph WNW15.0 kmh WNW 14.6 mph23.5 kmh 29.26 in990.9 mb 0.00 in0.0 mm 0.00 in0.0 mm 0.00 in0.0 mm
04:27 AM 25.9°F-3.4°C 19.7°F-6.8°C 77% 9.5 mph WNW15.3 kmh WNW 14.6 mph23.5 kmh 29.26 in990.9 mb 0.00 in0.0 mm 0.00 in0.0 mm 0.00 in0.0 mm
04:26 AM 25.9°F-3.4°C 19.7°F-6.8°C 77% 9.3 mph W15.0 kmh W 14.6 mph23.5 kmh 29.26 in990.9 mb 0.00 in0.0 mm 0.00 in0.0 mm 0.00 in0.0 mm
04:25 AM 25.9°F-3.4°C 19.7°F-6.8°C 77% 8.9 mph W14.3 kmh W 14.6 mph23.5 kmh 29.26 in990.9 mb 0.00 in0.0 mm 0.00 in0.0 mm 0.00 in0.0 mm
04:24 AM 25.9°F-3.4°C 19.7°F-6.8°C 77% 8.2 mph W13.2 kmh W 14.6 mph23.5 kmh 29.26 in990.9 mb 0.00 in0.0 mm 0.00 in0.0 mm 0.00 in0.0 mm
04:23 AM 26.1°F-3.3°C 19.9°F-6.7°C 77% 7.2 mph W11.6 kmh W 14.6 mph23.5 kmh 29.26 in990.9 mb 0.00 in0.0 mm 0.00 in0.0 mm 0.00 in0.0 mm
04:22 AM 26.1°F-3.3°C 19.9°F-6.7°C 77% 6.8 mph W10.9 kmh W 14.6 mph23.5 kmh 29.26 in990.9 mb 0.00 in0.0 mm 0.00 in0.0 mm 0.00 in0.0 mm
04:21 AM 26.1°F-3.3°C 19.9°F-6.7°C 77% 7.2 mph W11.6 kmh W 14.6 mph23.5 kmh 29.26 in990.9 mb 0.00 in0.0 mm 0.00 in0.0 mm 0.00 in0.0 mm
04:20 AM 26.1°F-3.3°C 19.9°F-6.7°C 77% 8.3 mph W13.4 kmh W 14.6 mph23.5 kmh 29.26 in990.9 mb 0.00 in0.0 mm 0.00 in0.0 mm 0.00 in0.0 mm
04:19 AM 26.1°F-3.3°C 19.9°F-6.7°C 77% 9.6 mph W15.4 kmh W 14.6 mph23.5 kmh 29.26 in990.9 mb 0.00 in0.0 mm 0.00 in0.0 mm 0.00 in0.0 mm
04:18 AM 26.1°F-3.3°C 19.9°F-6.7°C 77% 9.7 mph WNW15.6 kmh WNW 15.2 mph24.5 kmh 29.26 in990.9 mb 0.00 in0.0 mm 0.00 in0.0 mm 0.00 in0.0 mm
04:17 AM 26.2°F-3.2°C 20.0°F-6.7°C 77% 9.1 mph WNW14.6 kmh WNW 15.2 mph24.5 kmh 29.26 in990.9 mb 0.00 in0.0 mm 0.00 in0.0 mm 0.00 in0.0 mm
04:16 AM 26.2°F-3.2°C 20.0°F-6.7°C 77% 8.7 mph WNW14.0 kmh WNW 15.2 mph24.5 kmh 29.26 in990.9 mb 0.00 in0.0 mm 0.00 in0.0 mm 0.00 in0.0 mm
04:15 AM 26.2°F-3.2°C 20.0°F-6.7°C 77% 9.9 mph W15.9 kmh W 15.2 mph24.5 kmh 29.26 in990.9 mb 0.00 in0.0 mm 0.00 in0.0 mm 0.00 in0.0 mm
04:14 AM 26.2°F-3.2°C 20.4°F-6.4°C 78% 10.4 mph W16.7 kmh W 15.2 mph24.5 kmh 29.26 in990.9 mb 0.00 in0.0 mm 0.00 in0.0 mm 0.00 in0.0 mm
04:13 AM 26.2°F-3.2°C 20.4°F-6.4°C 78% 9.5 mph W15.3 kmh W 15.2 mph24.5 kmh 29.26 in990.9 mb 0.00 in0.0 mm 0.00 in0.0 mm 0.00 in0.0 mm
04:12 AM 26.2°F-3.2°C 20.4°F-6.4°C 78% 10.0 mph WNW16.1 kmh WNW 15.2 mph24.5 kmh 29.26 in990.9 mb 0.00 in0.0 mm 0.00 in0.0 mm 0.00 in0.0 mm
04:11 AM 26.2°F-3.2°C 20.0°F-6.7°C 77% 11.0 mph WNW17.7 kmh WNW 15.2 mph24.5 kmh 29.26 in990.9 mb 0.00 in0.0 mm 0.00 in0.0 mm 0.00 in0.0 mm
04:10 AM 26.2°F-3.2°C 20.0°F-6.7°C 77% 10.9 mph WNW17.5 kmh WNW 15.2 mph24.5 kmh 29.26 in990.9 mb 0.00 in0.0 mm 0.00 in0.0 mm 0.00 in0.0 mm
04:09 AM 26.2°F-3.2°C 20.0°F-6.7°C 77% 10.1 mph WNW16.3 kmh WNW 15.2 mph24.5 kmh 29.26 in990.9 mb 0.00 in0.0 mm 0.00 in0.0 mm 0.00 in0.0 mm
04:08 AM 26.2°F-3.2°C 20.0°F-6.7°C 77% 9.1 mph WNW14.6 kmh WNW 13.3 mph21.4 kmh 29.26 in990.9 mb 0.00 in0.0 mm 0.00 in0.0 mm 0.00 in0.0 mm
04:07 AM 26.2°F-3.2°C 20.0°F-6.7°C 77% 8.5 mph WNW13.7 kmh WNW 15.9 mph25.6 kmh 29.26 in990.9 mb 0.00 in0.0 mm 0.00 in0.0 mm 0.00 in0.0 mm
04:06 AM 26.1°F-3.3°C 19.9°F-6.7°C 77% 8.0 mph W12.9 kmh W 15.9 mph25.6 kmh 29.26 in990.9 mb 0.00 in0.0 mm 0.00 in0.0 mm 0.00 in0.0 mm
04:05 AM 26.1°F-3.3°C 19.9°F-6.7°C 77% 8.6 mph WNW13.8 kmh WNW 15.9 mph25.6 kmh 29.26 in990.9 mb 0.00 in0.0 mm 0.00 in0.0 mm 0.00 in0.0 mm
04:04 AM 26.1°F-3.3°C 19.9°F-6.7°C 77% 8.4 mph WNW13.5 kmh WNW 15.9 mph25.6 kmh 29.26 in990.9 mb 0.00 in0.0 mm 0.00 in0.0 mm 0.00 in0.0 mm
04:03 AM 26.1°F-3.3°C 19.9°F-6.7°C 77% 8.2 mph WNW13.2 kmh WNW 15.9 mph25.6 kmh 29.26 in990.9 mb 0.00 in0.0 mm 0.00 in0.0 mm 0.00 in0.0 mm
04:02 AM 26.1°F-3.3°C 19.9°F-6.7°C 77% 8.6 mph WNW13.8 kmh WNW 15.9 mph25.6 kmh 29.26 in990.9 mb 0.00 in0.0 mm 0.00 in0.0 mm 0.00 in0.0 mm
04:01 AM 26.1°F-3.3°C 19.9°F-6.7°C 77% 8.3 mph WNW13.4 kmh WNW 15.9 mph25.6 kmh 29.26 in990.9 mb 0.00 in0.0 mm 0.00 in0.0 mm 0.00 in0.0 mm
04:00 AM 26.1°F-3.3°C 19.9°F-6.7°C 77% 10.0 mph WNW16.1 kmh WNW 15.9 mph25.6 kmh 29.26 in990.9 mb 0.00 in0.0 mm 0.00 in0.0 mm 0.00 in0.0 mm
03:59 AM 26.1°F-3.3°C 19.9°F-6.7°C 77% 11.6 mph WNW18.7 kmh WNW 15.9 mph25.6 kmh 29.26 in990.9 mb 0.00 in0.0 mm 0.00 in0.0 mm 0.00 in0.0 mm
03:58 AM 26.1°F-3.3°C 19.9°F-6.7°C 77% 11.4 mph WNW18.3 kmh WNW 15.9 mph25.6 kmh 29.26 in990.9 mb 0.00 in0.0 mm 0.00 in0.0 mm 0.00 in0.0 mm
03:57 AM 26.1°F-3.3°C 19.9°F-6.7°C 77% 10.2 mph WNW16.4 kmh WNW 15.9 mph25.6 kmh 29.26 in990.9 mb 0.00 in0.0 mm 0.00 in0.0 mm 0.00 in0.0 mm
03:56 AM 26.1°F-3.3°C 19.6°F-6.9°C 76% 8.9 mph WNW14.3 kmh WNW 14.6 mph23.5 kmh 29.26 in990.9 mb 0.00 in0.0 mm 0.00 in0.0 mm 0.00 in0.0 mm
03:55 AM 26.1°F-3.3°C 19.6°F-6.9°C 76% 8.6 mph W13.8 kmh W 14.6 mph23.5 kmh 29.26 in990.9 mb 0.00 in0.0 mm 0.00 in0.0 mm 0.00 in0.0 mm
03:54 AM 26.1°F-3.3°C 19.6°F-6.9°C 76% 8.2 mph WNW13.2 kmh WNW 14.6 mph23.5 kmh 29.26 in990.9 mb 0.00 in0.0 mm 0.00 in0.0 mm 0.00 in0.0 mm
03:53 AM 26.1°F-3.3°C 19.6°F-6.9°C 76% 7.9 mph WNW12.7 kmh WNW 14.6 mph23.5 kmh 29.26 in990.9 mb 0.00 in0.0 mm 0.00 in0.0 mm 0.00 in0.0 mm
03:52 AM 26.1°F-3.3°C 19.6°F-6.9°C 76% 8.7 mph WNW14.0 kmh WNW 14.6 mph23.5 kmh 29.26 in990.9 mb 0.00 in0.0 mm 0.00 in0.0 mm 0.00 in0.0 mm
03:51 AM 26.1°F-3.3°C 19.6°F-6.9°C 76% 9.5 mph WNW15.3 kmh WNW 14.6 mph23.5 kmh 29.26 in990.9 mb 0.00 in0.0 mm 0.00 in0.0 mm 0.00 in0.0 mm
03:50 AM 26.1°F-3.3°C 19.6°F-6.9°C 76% 8.4 mph WNW13.5 kmh WNW 14.6 mph23.5 kmh 29.26 in990.9 mb 0.00 in0.0 mm 0.00 in0.0 mm 0.00 in0.0 mm
03:49 AM 26.1°F-3.3°C 19.6°F-6.9°C 76% 9.4 mph W15.1 kmh W 14.6 mph23.5 kmh 29.26 in990.9 mb 0.00 in0.0 mm 0.00 in0.0 mm 0.00 in0.0 mm
03:48 AM 26.1°F-3.3°C 19.6°F-6.9°C 76% 10.2 mph W16.4 kmh W 14.6 mph23.5 kmh 29.26 in990.9 mb 0.00 in0.0 mm 0.00 in0.0 mm 0.00 in0.0 mm
03:47 AM 26.1°F-3.3°C 19.6°F-6.9°C 76% 8.8 mph W14.2 kmh W 14.6 mph23.5 kmh 29.26 in990.9 mb 0.00 in0.0 mm 0.00 in0.0 mm 0.00 in0.0 mm
03:45 AM 25.9°F-3.4°C 19.4°F-7.0°C 76% 10.4 mph W16.7 kmh W 14.6 mph23.5 kmh 29.26 in990.9 mb 0.00 in0.0 mm 0.00 in0.0 mm 0.00 in0.0 mm
03:44 AM 25.9°F-3.4°C 19.4°F-7.0°C 76% 8.9 mph WNW14.3 kmh WNW 14.6 mph23.5 kmh 29.26 in990.9 mb 0.00 in0.0 mm 0.00 in0.0 mm 0.00 in0.0 mm
03:43 AM 25.9°F-3.4°C 19.4°F-7.0°C 76% 7.5 mph WNW12.1 kmh WNW 13.9 mph22.4 kmh 29.26 in990.9 mb 0.00 in0.0 mm 0.00 in0.0 mm 0.00 in0.0 mm
03:42 AM 25.9°F-3.4°C 19.4°F-7.0°C 76% 7.0 mph W11.3 kmh W 13.9 mph22.4 kmh 29.26 in990.9 mb 0.00 in0.0 mm 0.00 in0.0 mm 0.00 in0.0 mm
03:41 AM 25.9°F-3.4°C 19.4°F-7.0°C 76% 6.5 mph WNW10.5 kmh WNW 13.9 mph22.4 kmh 29.26 in990.9 mb 0.00 in0.0 mm 0.00 in0.0 mm 0.00 in0.0 mm
03:40 AM 25.9°F-3.4°C 19.4°F-7.0°C 76% 7.3 mph WNW11.7 kmh WNW 13.9 mph22.4 kmh 29.26 in990.9 mb 0.00 in0.0 mm 0.00 in0.0 mm 0.00 in0.0 mm
03:39 AM 25.9°F-3.4°C 19.4°F-7.0°C 76% 7.8 mph WNW12.6 kmh WNW 13.9 mph22.4 kmh 29.26 in990.9 mb 0.00 in0.0 mm 0.00 in0.0 mm 0.00 in0.0 mm
03:38 AM 25.9°F-3.4°C 19.1°F-7.2°C 75% 8.9 mph WNW14.3 kmh WNW 13.9 mph22.4 kmh 29.26 in990.9 mb 0.00 in0.0 mm 0.00 in0.0 mm 0.00 in0.0 mm
03:37 AM 25.9°F-3.4°C 19.1°F-7.2°C 75% 9.4 mph WNW15.1 kmh WNW 13.9 mph22.4 kmh 29.26 in990.9 mb 0.00 in0.0 mm 0.00 in0.0 mm 0.00 in0.0 mm
03:36 AM 25.9°F-3.4°C 19.1°F-7.2°C 75% 9.2 mph WNW14.8 kmh WNW 13.9 mph22.4 kmh 29.26 in990.9 mb 0.00 in0.0 mm 0.00 in0.0 mm 0.00 in0.0 mm
03:35 AM 25.7°F-3.5°C 18.9°F-7.3°C 75% 9.0 mph WNW14.5 kmh WNW 13.9 mph22.4 kmh 29.26 in990.9 mb 0.00 in0.0 mm 0.00 in0.0 mm 0.00 in0.0 mm
03:34 AM 25.7°F-3.5°C 18.9°F-7.3°C 75% 9.6 mph W15.4 kmh W 13.9 mph22.4 kmh 29.26 in990.9 mb 0.00 in0.0 mm 0.00 in0.0 mm 0.00 in0.0 mm
03:33 AM 25.7°F-3.5°C 18.9°F-7.3°C 75% 9.8 mph W15.8 kmh W 13.9 mph22.4 kmh 29.26 in990.9 mb 0.00 in0.0 mm 0.00 in0.0 mm 0.00 in0.0 mm
03:32 AM 25.7°F-3.5°C 18.9°F-7.3°C 75% 9.3 mph W15.0 kmh W 12.6 mph20.3 kmh 29.26 in990.9 mb 0.00 in0.0 mm 0.00 in0.0 mm 0.00 in0.0 mm
03:31 AM 25.7°F-3.5°C 18.9°F-7.3°C 75% 8.9 mph W14.3 kmh W 12.0 mph19.3 kmh 29.26 in990.9 mb 0.00 in0.0 mm 0.00 in0.0 mm 0.00 in0.0 mm
03:30 AM 25.7°F-3.5°C 18.9°F-7.3°C 75% 8.3 mph W13.4 kmh W 12.0 mph19.3 kmh 29.26 in990.9 mb 0.00 in0.0 mm 0.00 in0.0 mm 0.00 in0.0 mm
03:29 AM 25.7°F-3.5°C 18.9°F-7.3°C 75% 7.7 mph W12.4 kmh W 12.0 mph19.3 kmh 29.26 in990.9 mb 0.00 in0.0 mm 0.00 in0.0 mm 0.00 in0.0 mm
03:28 AM 25.7°F-3.5°C 18.9°F-7.3°C 75% 6.8 mph W10.9 kmh W 11.7 mph18.8 kmh 29.26 in990.9 mb 0.00 in0.0 mm 0.00 in0.0 mm 0.00 in0.0 mm
03:27 AM 25.7°F-3.5°C 18.9°F-7.3°C 75% 6.2 mph WSW10.0 kmh WSW 12.6 mph20.3 kmh 29.26 in990.9 mb 0.00 in0.0 mm 0.00 in0.0 mm 0.00 in0.0 mm
03:26 AM 25.5°F-3.6°C 18.7°F-7.4°C 75% 7.1 mph WSW11.4 kmh WSW 12.6 mph20.3 kmh 29.26 in990.9 mb 0.00 in0.0 mm 0.00 in0.0 mm 0.00 in0.0 mm
03:25 AM 25.5°F-3.6°C 18.7°F-7.4°C 75% 8.4 mph W13.5 kmh W 12.6 mph20.3 kmh 29.26 in990.9 mb 0.00 in0.0 mm 0.00 in0.0 mm 0.00 in0.0 mm
03:24 AM 25.5°F-3.6°C 18.7°F-7.4°C 75% 8.7 mph W14.0 kmh W 12.6 mph20.3 kmh 29.26 in990.9 mb 0.00 in0.0 mm 0.00 in0.0 mm 0.00 in0.0 mm
03:23 AM 25.5°F-3.6°C 18.7°F-7.4°C 75% 7.7 mph W12.4 kmh W 12.6 mph20.3 kmh 29.26 in990.9 mb 0.00 in0.0 mm 0.00 in0.0 mm 0.00 in0.0 mm
03:22 AM 25.5°F-3.6°C 18.7°F-7.4°C 75% 6.9 mph W11.1 kmh W 12.6 mph20.3 kmh 29.26 in990.9 mb 0.00 in0.0 mm 0.00 in0.0 mm 0.00 in0.0 mm
03:21 AM 25.5°F-3.6°C 18.7°F-7.4°C 75% 7.5 mph W12.1 kmh W 12.6 mph20.3 kmh 29.26 in990.9 mb 0.00 in0.0 mm 0.00 in0.0 mm 0.00 in0.0 mm
03:20 AM 25.5°F-3.6°C 18.7°F-7.4°C 75% 8.4 mph W13.5 kmh W 15.9 mph25.6 kmh 29.26 in990.9 mb 0.00 in0.0 mm 0.00 in0.0 mm 0.00 in0.0 mm
03:19 AM 25.5°F-3.6°C 18.3°F-7.6°C 74% 8.5 mph W13.7 kmh W 15.9 mph25.6 kmh 29.26 in990.9 mb 0.00 in0.0 mm 0.00 in0.0 mm 0.00 in0.0 mm
03:18 AM 25.3°F-3.7°C 18.1°F-7.7°C 74% 7.4 mph W11.9 kmh W 15.9 mph25.6 kmh 29.26 in990.9 mb 0.00 in0.0 mm 0.00 in0.0 mm 0.00 in0.0 mm
03:17 AM 25.3°F-3.7°C 18.1°F-7.7°C 74% 6.5 mph W10.5 kmh W 15.9 mph25.6 kmh 29.26 in990.9 mb 0.00 in0.0 mm 0.00 in0.0 mm 0.00 in0.0 mm
03:16 AM 25.3°F-3.7°C 18.1°F-7.7°C 74% 6.8 mph W10.9 kmh W 15.9 mph25.6 kmh 29.26 in990.9 mb 0.00 in0.0 mm 0.00 in0.0 mm 0.00 in0.0 mm
03:15 AM 25.3°F-3.7°C 18.1°F-7.7°C 74% 7.3 mph W11.7 kmh W 15.9 mph25.6 kmh 29.26 in990.9 mb 0.00 in0.0 mm 0.00 in0.0 mm 0.00 in0.0 mm
03:14 AM 25.3°F-3.7°C 18.1°F-7.7°C 74% 7.4 mph W11.9 kmh W 15.9 mph25.6 kmh 29.26 in990.9 mb 0.00 in0.0 mm 0.00 in0.0 mm 0.00 in0.0 mm
03:13 AM 25.3°F-3.7°C 18.1°F-7.7°C 74% 8.9 mph W14.3 kmh W 15.9 mph25.6 kmh 29.26 in990.9 mb 0.00 in0.0 mm 0.00 in0.0 mm 0.00 in0.0 mm
03:12 AM 25.3°F-3.7°C 18.1°F-7.7°C 74% 9.6 mph W15.4 kmh W 15.9 mph25.6 kmh 29.26 in990.9 mb 0.00 in0.0 mm 0.00 in0.0 mm 0.00 in0.0 mm
03:11 AM 25.3°F-3.7°C 18.2°F-7.7°C 74% 8.4 mph W13.5 kmh W 15.9 mph25.6 kmh 29.26 in990.9 mb 0.00 in0.0 mm 0.00 in0.0 mm 0.00 in0.0 mm
03:10 AM 25.3°F-3.7°C 18.2°F-7.7°C 74% 7.5 mph W12.1 kmh W 15.9 mph25.6 kmh 29.26 in990.9 mb 0.00 in0.0 mm 0.00 in0.0 mm 0.00 in0.0 mm
03:09 AM 25.2°F-3.8°C 18.1°F-7.7°C 74% 7.5 mph W12.1 kmh W 14.6 mph23.5 kmh 29.26 in990.9 mb 0.00 in0.0 mm 0.00 in0.0 mm 0.00 in0.0 mm
03:08 AM 25.2°F-3.8°C 18.1°F-7.7°C 74% 8.0 mph WSW12.9 kmh WSW 14.6 mph23.5 kmh 29.26 in990.9 mb 0.00 in0.0 mm 0.00 in0.0 mm 0.00 in0.0 mm
03:07 AM 25.2°F-3.8°C 18.1°F-7.7°C 74% 8.0 mph W12.9 kmh W 14.6 mph23.5 kmh 29.26 in990.9 mb 0.00 in0.0 mm 0.00 in0.0 mm 0.00 in0.0 mm
03:06 AM 25.2°F-3.8°C 18.1°F-7.7°C 74% 7.2 mph W11.6 kmh W 14.6 mph23.5 kmh 29.26 in990.9 mb 0.00 in0.0 mm 0.00 in0.0 mm 0.00 in0.0 mm
03:05 AM 25.2°F-3.8°C 18.1°F-7.7°C 74% 7.2 mph W11.6 kmh W 15.2 mph24.5 kmh 29.26 in990.9 mb 0.00 in0.0 mm 0.00 in0.0 mm 0.00 in0.0 mm
03:04 AM 25.2°F-3.8°C 18.1°F-7.7°C 74% 7.6 mph W12.2 kmh W 15.9 mph25.6 kmh 29.26 in990.9 mb 0.00 in0.0 mm 0.00 in0.0 mm 0.00 in0.0 mm
03:03 AM 25.0°F-3.9°C 17.9°F-7.8°C 74% 7.7 mph W12.4 kmh W 15.9 mph25.6 kmh 29.26 in990.9 mb 0.00 in0.0 mm 0.00 in0.0 mm 0.00 in0.0 mm
03:02 AM 25.0°F-3.9°C 17.9°F-7.8°C 74% 8.2 mph W13.2 kmh W 15.9 mph25.6 kmh 29.26 in990.9 mb 0.00 in0.0 mm 0.00 in0.0 mm 0.00 in0.0 mm
03:01 AM 25.0°F-3.9°C 17.9°F-7.8°C 74% 8.0 mph W12.9 kmh W 15.9 mph25.6 kmh 29.26 in990.9 mb 0.00 in0.0 mm 0.00 in0.0 mm 0.00 in0.0 mm
03:00 AM 25.0°F-3.9°C 17.9°F-7.8°C 74% 7.5 mph W12.1 kmh W 15.9 mph25.6 kmh 29.26 in990.9 mb 0.00 in0.0 mm 0.00 in0.0 mm 0.00 in0.0 mm
02:59 AM 24.8°F-4.0°C 17.7°F-7.9°C 74% 8.4 mph W13.5 kmh W 15.9 mph25.6 kmh 29.26 in990.9 mb 0.00 in0.0 mm 0.00 in0.0 mm 0.00 in0.0 mm
02:58 AM 24.8°F-4.0°C 17.7°F-7.9°C 74% 9.5 mph W15.3 kmh W 15.9 mph25.6 kmh 29.26 in990.9 mb 0.00 in0.0 mm 0.00 in0.0 mm 0.00 in0.0 mm
02:57 AM 24.8°F-4.0°C 17.7°F-7.9°C 74% 9.0 mph W14.5 kmh W 15.9 mph25.6 kmh 29.26 in990.9 mb 0.00 in0.0 mm 0.00 in0.0 mm 0.00 in0.0 mm
02:56 AM 24.8°F-4.0°C 17.7°F-7.9°C 74% 9.4 mph W15.1 kmh W 15.9 mph25.6 kmh 29.26 in990.9 mb 0.00 in0.0 mm 0.00 in0.0 mm 0.00 in0.0 mm
02:55 AM 24.8°F-4.0°C 17.7°F-7.9°C 74% 10.6 mph W17.1 kmh W 15.9 mph25.6 kmh 29.26 in990.9 mb 0.00 in0.0 mm 0.00 in0.0 mm 0.00 in0.0 mm
02:54 AM 24.6°F-4.1°C 17.5°F-8.1°C 74% 9.4 mph W15.1 kmh W 15.2 mph24.5 kmh 29.26 in990.9 mb 0.00 in0.0 mm 0.00 in0.0 mm 0.00 in0.0 mm
02:53 AM 24.6°F-4.1°C 17.5°F-8.1°C 74% 9.9 mph W15.9 kmh W 15.2 mph24.5 kmh 29.26 in990.9 mb 0.00 in0.0 mm 0.00 in0.0 mm 0.00 in0.0 mm
02:52 AM 24.6°F-4.1°C 17.5°F-8.1°C 74% 10.7 mph W17.2 kmh W 15.2 mph24.5 kmh 29.26 in990.9 mb 0.00 in0.0 mm 0.00 in0.0 mm 0.00 in0.0 mm
02:51 AM 24.6°F-4.1°C 17.5°F-8.1°C 74% 10.3 mph W16.6 kmh W 15.2 mph24.5 kmh 29.26 in990.9 mb 0.00 in0.0 mm 0.00 in0.0 mm 0.00 in0.0 mm
02:50 AM 24.6°F-4.1°C 17.5°F-8.1°C 74% 9.3 mph W15.0 kmh W 14.6 mph23.5 kmh 29.26 in990.9 mb 0.00 in0.0 mm 0.00 in0.0 mm 0.00 in0.0 mm
02:49 AM 24.6°F-4.1°C 17.5°F-8.1°C 74% 6.7 mph W10.8 kmh W 14.6 mph23.5 kmh 29.26 in990.9 mb 0.00 in0.0 mm 0.00 in0.0 mm 0.00 in0.0 mm
02:48 AM 24.6°F-4.1°C 17.5°F-8.1°C 74% 7.0 mph W11.3 kmh W 14.6 mph23.5 kmh 29.26 in990.9 mb 0.00 in0.0 mm 0.00 in0.0 mm 0.00 in0.0 mm
02:47 AM 24.6°F-4.1°C 17.5°F-8.1°C 74% 8.1 mph W13.0 kmh W 14.6 mph23.5 kmh 29.26 in990.9 mb 0.00 in0.0 mm 0.00 in0.0 mm 0.00 in0.0 mm
02:46 AM 24.6°F-4.1°C 17.5°F-8.1°C 74% 8.2 mph W13.2 kmh W 14.6 mph23.5 kmh 29.26 in990.9 mb 0.00 in0.0 mm 0.00 in0.0 mm 0.00 in0.0 mm
02:45 AM 24.6°F-4.1°C 17.5°F-8.1°C 74% 8.0 mph W12.9 kmh W 14.6 mph23.5 kmh 29.26 in990.9 mb 0.00 in0.0 mm 0.00 in0.0 mm 0.00 in0.0 mm
02:44 AM 24.6°F-4.1°C 17.5°F-8.1°C 74% 8.3 mph W13.4 kmh W 12.6 mph20.3 kmh 29.26 in990.9 mb 0.00 in0.0 mm 0.00 in0.0 mm 0.00 in0.0 mm
02:43 AM 24.6°F-4.1°C 17.5°F-8.1°C 74% 7.8 mph W12.6 kmh W 12.0 mph19.3 kmh 29.26 in990.9 mb 0.00 in0.0 mm 0.00 in0.0 mm 0.00 in0.0 mm
02:42 AM 24.6°F-4.1°C 17.5°F-8.1°C 74% 7.4 mph W11.9 kmh W 12.0 mph19.3 kmh 29.26 in990.9 mb 0.00 in0.0 mm 0.00 in0.0 mm 0.00 in0.0 mm
02:41 AM 24.4°F-4.2°C 16.9°F-8.4°C 73% 7.4 mph W11.9 kmh W 12.0 mph19.3 kmh 29.26 in990.9 mb 0.00 in0.0 mm 0.00 in0.0 mm 0.00 in0.0 mm
02:40 AM 24.4°F-4.2°C 16.9°F-8.4°C 73% 7.5 mph W12.1 kmh W 13.9 mph22.4 kmh 29.26 in990.9 mb 0.00 in0.0 mm 0.00 in0.0 mm 0.00 in0.0 mm
02:39 AM 24.4°F-4.2°C 16.9°F-8.4°C 73% 7.7 mph W12.4 kmh W 13.9 mph22.4 kmh 29.26 in990.9 mb 0.00 in0.0 mm 0.00 in0.0 mm 0.00 in0.0 mm
02:38 AM 24.4°F-4.2°C 17.0°F-8.3°C 73% 7.5 mph W12.1 kmh W 13.9 mph22.4 kmh 29.26 in990.9 mb 0.00 in0.0 mm 0.00 in0.0 mm 0.00 in0.0 mm
02:37 AM 24.4°F-4.2°C 17.0°F-8.3°C 73% 6.8 mph W10.9 kmh W 13.9 mph22.4 kmh 29.26 in990.9 mb 0.00 in0.0 mm 0.00 in0.0 mm 0.00 in0.0 mm
02:36 AM 24.4°F-4.2°C 17.0°F-8.3°C 73% 6.5 mph W10.5 kmh W 13.9 mph22.4 kmh 29.26 in990.9 mb 0.00 in0.0 mm 0.00 in0.0 mm 0.00 in0.0 mm
02:35 AM 24.4°F-4.2°C 17.0°F-8.3°C 73% 6.2 mph W10.0 kmh W 13.9 mph22.4 kmh 29.26 in990.9 mb 0.00 in0.0 mm 0.00 in0.0 mm 0.00 in0.0 mm
02:34 AM 24.3°F-4.3°C 16.9°F-8.4°C 73% 6.4 mph W10.3 kmh W 13.9 mph22.4 kmh 29.26 in990.9 mb 0.00 in0.0 mm 0.00 in0.0 mm 0.00 in0.0 mm
02:33 AM 24.3°F-4.3°C 16.9°F-8.4°C 73% 8.3 mph WSW13.4 kmh WSW 13.9 mph22.4 kmh 29.26 in990.9 mb 0.00 in0.0 mm 0.00 in0.0 mm 0.00 in0.0 mm
02:32 AM 24.3°F-4.3°C 16.9°F-8.4°C 73% 8.9 mph WSW14.3 kmh WSW 13.9 mph22.4 kmh 29.26 in990.9 mb 0.00 in0.0 mm 0.00 in0.0 mm 0.00 in0.0 mm
02:31 AM 24.3°F-4.3°C 16.9°F-8.4°C 73% 7.9 mph WSW12.7 kmh WSW 13.9 mph22.4 kmh 29.26 in990.9 mb 0.00 in0.0 mm 0.00 in0.0 mm 0.00 in0.0 mm
02:30 AM 24.3°F-4.3°C 16.9°F-8.4°C 73% 7.2 mph W11.6 kmh W 11.7 mph18.8 kmh 29.26 in990.9 mb 0.00 in0.0 mm 0.00 in0.0 mm 0.00 in0.0 mm
02:29 AM 24.3°F-4.3°C 16.9°F-8.4°C 73% 6.7 mph W10.8 kmh W 11.7 mph18.8 kmh 29.26 in990.9 mb 0.00 in0.0 mm 0.00 in0.0 mm 0.00 in0.0 mm
02:28 AM 24.3°F-4.3°C 16.9°F-8.4°C 73% 6.7 mph W10.8 kmh W 11.7 mph18.8 kmh 29.26 in990.9 mb 0.00 in0.0 mm 0.00 in0.0 mm 0.00 in0.0 mm
02:27 AM 24.3°F-4.3°C 16.9°F-8.4°C 73% 7.3 mph W11.7 kmh W 11.7 mph18.8 kmh 29.26 in990.9 mb 0.00 in0.0 mm 0.00 in0.0 mm 0.00 in0.0 mm
02:26 AM 24.3°F-4.3°C 16.9°F-8.4°C 73% 7.9 mph W12.7 kmh W 11.7 mph18.8 kmh 29.26 in990.9 mb 0.00 in0.0 mm 0.00 in0.0 mm 0.00 in0.0 mm
02:25 AM 24.3°F-4.3°C 16.9°F-8.4°C 73% 7.9 mph W12.7 kmh W 11.7 mph18.8 kmh 29.26 in990.9 mb 0.00 in0.0 mm 0.00 in0.0 mm 0.00 in0.0 mm
02:24 AM 24.3°F-4.3°C 16.9°F-8.4°C 73% 7.5 mph W12.1 kmh W 11.7 mph18.8 kmh 29.26 in990.9 mb 0.00 in0.0 mm 0.00 in0.0 mm 0.00 in0.0 mm
02:23 AM 24.1°F-4.4°C 16.7°F-8.5°C 73% 7.3 mph W11.7 kmh W 10.4 mph16.7 kmh 29.26 in990.9 mb 0.00 in0.0 mm 0.00 in0.0 mm 0.00 in0.0 mm
02:22 AM 24.1°F-4.4°C 16.7°F-8.5°C 73% 6.5 mph W10.5 kmh W 10.4 mph16.7 kmh 29.26 in990.9 mb 0.00 in0.0 mm 0.00 in0.0 mm 0.00 in0.0 mm
02:21 AM 24.1°F-4.4°C 16.7°F-8.5°C 73% 5.5 mph W8.9 kmh W 9.1 mph14.6 kmh 29.26 in990.9 mb 0.00 in0.0 mm 0.00 in0.0 mm 0.00 in0.0 mm
02:20 AM 24.1°F-4.4°C 16.7°F-8.5°C 73% 5.0 mph W8.0 kmh W 9.1 mph14.6 kmh 29.26 in990.9 mb 0.00 in0.0 mm 0.00 in0.0 mm 0.00 in0.0 mm
02:19 AM 24.1°F-4.4°C 16.7°F-8.5°C 73% 5.4 mph W8.7 kmh W 9.1 mph14.6 kmh 29.26 in990.9 mb 0.00 in0.0 mm 0.00 in0.0 mm 0.00 in0.0 mm
02:18 AM 24.1°F-4.4°C 16.7°F-8.5°C 73% 7.1 mph W11.4 kmh W 9.1 mph14.6 kmh 29.26 in990.9 mb 0.00 in0.0 mm 0.00 in0.0 mm 0.00 in0.0 mm
02:17 AM 24.1°F-4.4°C 16.7°F-8.5°C 73% 7.4 mph W11.9 kmh W 9.1 mph14.6 kmh 29.26 in990.9 mb 0.00 in0.0 mm 0.00 in0.0 mm 0.00 in0.0 mm
02:16 AM 24.1°F-4.4°C 16.7°F-8.5°C 73% 6.2 mph W10.0 kmh W 9.1 mph14.6 kmh 29.26 in990.9 mb 0.00 in0.0 mm 0.00 in0.0 mm 0.00 in0.0 mm
02:15 AM 24.1°F-4.4°C 16.7°F-8.5°C 73% 5.7 mph W9.2 kmh W 9.1 mph14.6 kmh 29.26 in990.9 mb 0.00 in0.0 mm 0.00 in0.0 mm 0.00 in0.0 mm
02:14 AM 24.1°F-4.4°C 16.7°F-8.5°C 73% 6.6 mph W10.6 kmh W 9.1 mph14.6 kmh 29.26 in990.9 mb 0.00 in0.0 mm 0.00 in0.0 mm 0.00 in0.0 mm
02:13 AM 24.3°F-4.3°C 16.9°F-8.4°C 73% 6.8 mph W10.9 kmh W 9.1 mph14.6 kmh 29.26 in990.9 mb 0.00 in0.0 mm 0.00 in0.0 mm 0.00 in0.0 mm
02:12 AM 24.3°F-4.3°C 16.9°F-8.4°C 73% 6.3 mph W10.1 kmh W 9.7 mph15.6 kmh 29.26 in990.9 mb 0.00 in0.0 mm 0.00 in0.0 mm 0.00 in0.0 mm
02:11 AM 24.3°F-4.3°C 16.9°F-8.4°C 73% 6.5 mph W10.5 kmh W 11.0 mph17.7 kmh 29.26 in990.9 mb 0.00 in0.0 mm 0.00 in0.0 mm 0.00 in0.0 mm
02:10 AM 24.3°F-4.3°C 16.9°F-8.4°C 73% 6.5 mph W10.5 kmh W 11.0 mph17.7 kmh 29.26 in990.9 mb 0.00 in0.0 mm 0.00 in0.0 mm 0.00 in0.0 mm
02:09 AM 24.3°F-4.3°C 16.9°F-8.4°C 73% 5.9 mph W9.5 kmh W 11.0 mph17.7 kmh 29.23 in989.8 mb 0.00 in0.0 mm 0.00 in0.0 mm 0.00 in0.0 mm
02:08 AM 24.3°F-4.3°C 16.9°F-8.4°C 73% 5.8 mph W9.3 kmh W 11.0 mph17.7 kmh 29.23 in989.8 mb 0.00 in0.0 mm 0.00 in0.0 mm 0.00 in0.0 mm
02:07 AM 24.4°F-4.2°C 17.0°F-8.3°C 73% 5.8 mph W9.3 kmh W 11.0 mph17.7 kmh 29.23 in989.8 mb 0.00 in0.0 mm 0.00 in0.0 mm 0.00 in0.0 mm
02:06 AM 24.4°F-4.2°C 17.0°F-8.3°C 73% 6.0 mph W9.7 kmh W 11.0 mph17.7 kmh 29.23 in989.8 mb 0.00 in0.0 mm 0.00 in0.0 mm 0.00 in0.0 mm
02:05 AM 24.4°F-4.2°C 17.0°F-8.3°C 73% 6.6 mph W10.6 kmh W 11.0 mph17.7 kmh 29.23 in989.8 mb 0.00 in0.0 mm 0.00 in0.0 mm 0.00 in0.0 mm
02:04 AM 24.4°F-4.2°C 17.0°F-8.3°C 73% 7.1 mph W11.4 kmh W 11.0 mph17.7 kmh 29.23 in989.8 mb 0.00 in0.0 mm 0.00 in0.0 mm 0.00 in0.0 mm
02:03 AM 24.4°F-4.2°C 17.0°F-8.3°C 73% 7.0 mph W11.3 kmh W 11.0 mph17.7 kmh 29.23 in989.8 mb 0.00 in0.0 mm 0.00 in0.0 mm 0.00 in0.0 mm
02:02 AM 24.4°F-4.2°C 17.0°F-8.3°C 73% 6.3 mph W10.1 kmh W 11.0 mph17.7 kmh 29.23 in989.8 mb 0.00 in0.0 mm 0.00 in0.0 mm 0.00 in0.0 mm
02:01 AM 24.4°F-4.2°C 17.0°F-8.3°C 73% 6.9 mph W11.1 kmh W 11.0 mph17.7 kmh 29.23 in989.8 mb 0.00 in0.0 mm 0.00 in0.0 mm 0.00 in0.0 mm
02:00 AM 24.4°F-4.2°C 17.0°F-8.3°C 73% 7.4 mph W11.9 kmh W 11.0 mph17.7 kmh 29.23 in989.8 mb 0.00 in0.0 mm 0.00 in0.0 mm 0.00 in0.0 mm
01:59 AM 24.4°F-4.2°C 17.0°F-8.3°C 73% 7.4 mph W11.9 kmh W 11.0 mph17.7 kmh 29.23 in989.8 mb 0.00 in0.0 mm 0.00 in0.0 mm 0.00 in0.0 mm
01:58 AM 24.4°F-4.2°C 17.0°F-8.3°C 73% 7.2 mph W11.6 kmh W 11.0 mph17.7 kmh 29.23 in989.8 mb 0.00 in0.0 mm 0.00 in0.0 mm 0.00 in0.0 mm
01:57 AM 24.4°F-4.2°C 17.0°F-8.3°C 73% 6.5 mph W10.5 kmh W 11.0 mph17.7 kmh 29.23 in989.8 mb 0.00 in0.0 mm 0.00 in0.0 mm 0.00 in0.0 mm
01:56 AM 24.4°F-4.2°C 17.0°F-8.3°C 73% 6.2 mph W10.0 kmh W 11.0 mph17.7 kmh 29.23 in989.8 mb 0.00 in0.0 mm 0.00 in0.0 mm 0.00 in0.0 mm
01:55 AM 24.6°F-4.1°C 17.2°F-8.2°C 73% 6.8 mph W10.9 kmh W 11.0 mph17.7 kmh 29.23 in989.8 mb 0.00 in0.0 mm 0.00 in0.0 mm 0.00 in0.0 mm
01:54 AM 24.6°F-4.1°C 17.2°F-8.2°C 73% 7.5 mph W12.1 kmh W 11.0 mph17.7 kmh 29.23 in989.8 mb 0.00 in0.0 mm 0.00 in0.0 mm 0.00 in0.0 mm
01:53 AM 24.6°F-4.1°C 17.2°F-8.2°C 73% 6.9 mph W11.1 kmh W 11.0 mph17.7 kmh 29.23 in989.8 mb 0.00 in0.0 mm 0.00 in0.0 mm 0.00 in0.0 mm
01:52 AM 24.6°F-4.1°C 17.2°F-8.2°C 73% 5.8 mph W9.3 kmh W 11.0 mph17.7 kmh 29.23 in989.8 mb 0.00 in0.0 mm 0.00 in0.0 mm 0.00 in0.0 mm
01:51 AM 24.6°F-4.1°C 17.2°F-8.2°C 73% 6.1 mph W9.8 kmh W 10.4 mph16.7 kmh 29.23 in989.8 mb 0.00 in0.0 mm 0.00 in0.0 mm 0.00 in0.0 mm
01:50 AM 24.6°F-4.1°C 17.2°F-8.2°C 73% 6.7 mph W10.8 kmh W 10.4 mph16.7 kmh 29.23 in989.8 mb 0.00 in0.0 mm 0.00 in0.0 mm 0.00 in0.0 mm
01:49 AM 24.6°F-4.1°C 17.2°F-8.2°C 73% 6.4 mph W10.3 kmh W 10.4 mph16.7 kmh 29.23 in989.8 mb 0.00 in0.0 mm 0.00 in0.0 mm 0.00 in0.0 mm
01:48 AM 24.6°F-4.1°C 17.2°F-8.2°C 73% 6.8 mph WSW10.9 kmh WSW 12.0 mph19.3 kmh 29.23 in989.8 mb 0.00 in0.0 mm 0.00 in0.0 mm 0.00 in0.0 mm
01:47 AM 24.6°F-4.1°C 17.2°F-8.2°C 73% 7.2 mph WSW11.6 kmh WSW 12.0 mph19.3 kmh 29.23 in989.8 mb 0.00 in0.0 mm 0.00 in0.0 mm 0.00 in0.0 mm
01:46 AM 24.6°F-4.1°C 17.2°F-8.2°C 73% 7.7 mph WSW12.4 kmh WSW 12.0 mph19.3 kmh 29.23 in989.8 mb 0.00 in0.0 mm 0.00 in0.0 mm 0.00 in0.0 mm
01:45 AM 24.6°F-4.1°C 17.2°F-8.2°C 73% 7.1 mph WSW11.4 kmh WSW 12.0 mph19.3 kmh 29.23 in989.8 mb 0.00 in0.0 mm 0.00 in0.0 mm 0.00 in0.0 mm
01:44 AM 24.6°F-4.1°C 17.2°F-8.2°C 73% 6.1 mph W9.8 kmh W 12.0 mph19.3 kmh 29.23 in989.8 mb 0.00 in0.0 mm 0.00 in0.0 mm 0.00 in0.0 mm
01:43 AM 24.6°F-4.1°C 17.2°F-8.2°C 73% 5.5 mph W8.9 kmh W 12.0 mph19.3 kmh 29.23 in989.8 mb 0.00 in0.0 mm 0.00 in0.0 mm 0.00 in0.0 mm
01:42 AM 24.6°F-4.1°C 17.2°F-8.2°C 73% 6.2 mph W10.0 kmh W 12.0 mph19.3 kmh 29.23 in989.8 mb 0.00 in0.0 mm 0.00 in0.0 mm 0.00 in0.0 mm
01:41 AM 24.6°F-4.1°C 17.2°F-8.2°C 73% 7.4 mph WSW11.9 kmh WSW 12.0 mph19.3 kmh 29.23 in989.8 mb 0.00 in0.0 mm 0.00 in0.0 mm 0.00 in0.0 mm
01:40 AM 24.6°F-4.1°C 17.2°F-8.2°C 73% 7.9 mph WSW12.7 kmh WSW 12.0 mph19.3 kmh 29.23 in989.8 mb 0.00 in0.0 mm 0.00 in0.0 mm 0.00 in0.0 mm
01:39 AM 24.6°F-4.1°C 17.2°F-8.2°C 73% 8.4 mph WSW13.5 kmh WSW 12.0 mph19.3 kmh 29.23 in989.8 mb 0.00 in0.0 mm 0.00 in0.0 mm 0.00 in0.0 mm
01:38 AM 24.6°F-4.1°C 17.2°F-8.2°C 73% 7.2 mph WSW11.6 kmh WSW 11.7 mph18.8 kmh 29.23 in989.8 mb 0.00 in0.0 mm 0.00 in0.0 mm 0.00 in0.0 mm
01:37 AM 24.6°F-4.1°C 17.2°F-8.2°C 73% 7.1 mph W11.4 kmh W 11.7 mph18.8 kmh 29.23 in989.8 mb 0.00 in0.0 mm 0.00 in0.0 mm 0.00 in0.0 mm
01:36 AM 24.6°F-4.1°C 17.2°F-8.2°C 73% 6.7 mph W10.8 kmh W 11.7 mph18.8 kmh 29.23 in989.8 mb 0.00 in0.0 mm 0.00 in0.0 mm 0.00 in0.0 mm
01:35 AM 24.6°F-4.1°C 17.2°F-8.2°C 73% 7.4 mph W11.9 kmh W 11.7 mph18.8 kmh 29.23 in989.8 mb 0.00 in0.0 mm 0.00 in0.0 mm 0.00 in0.0 mm
01:34 AM 24.6°F-4.1°C 17.2°F-8.2°C 73% 7.9 mph W12.7 kmh W 11.7 mph18.8 kmh 29.23 in989.8 mb 0.00 in0.0 mm 0.00 in0.0 mm 0.00 in0.0 mm
01:33 AM 24.6°F-4.1°C 17.2°F-8.2°C 73% 7.1 mph W11.4 kmh W 11.7 mph18.8 kmh 29.23 in989.8 mb 0.00 in0.0 mm 0.00 in0.0 mm 0.00 in0.0 mm
01:32 AM 24.6°F-4.1°C 17.2°F-8.2°C 73% 6.1 mph W9.8 kmh W 11.0 mph17.7 kmh 29.23 in989.8 mb 0.00 in0.0 mm 0.00 in0.0 mm 0.00 in0.0 mm
01:31 AM 24.6°F-4.1°C 17.2°F-8.2°C 73% 5.6 mph WSW9.0 kmh WSW 11.0 mph17.7 kmh 29.23 in989.8 mb 0.00 in0.0 mm 0.00 in0.0 mm 0.00 in0.0 mm
01:30 AM 24.6°F-4.1°C 17.2°F-8.2°C 73% 5.9 mph W9.5 kmh W 11.0 mph17.7 kmh 29.23 in989.8 mb 0.00 in0.0 mm 0.00 in0.0 mm 0.00 in0.0 mm
01:29 AM 24.6°F-4.1°C 17.2°F-8.2°C 73% 7.3 mph W11.7 kmh W 12.0 mph19.3 kmh 29.23 in989.8 mb 0.00 in0.0 mm 0.00 in0.0 mm 0.00 in0.0 mm
01:28 AM 24.6°F-4.1°C 17.2°F-8.2°C 73% 6.9 mph W11.1 kmh W 12.0 mph19.3 kmh 29.23 in989.8 mb 0.00 in0.0 mm 0.00 in0.0 mm 0.00 in0.0 mm
01:27 AM 24.6°F-4.1°C 17.2°F-8.2°C 73% 5.5 mph W8.9 kmh W 12.0 mph19.3 kmh 29.23 in989.8 mb 0.00 in0.0 mm 0.00 in0.0 mm 0.00 in0.0 mm
01:26 AM 24.6°F-4.1°C 17.2°F-8.2°C 73% 5.9 mph W9.5 kmh W 12.0 mph19.3 kmh 29.23 in989.8 mb 0.00 in0.0 mm 0.00 in0.0 mm 0.00 in0.0 mm
01:25 AM 24.6°F-4.1°C 17.2°F-8.2°C 73% 6.4 mph W10.3 kmh W 12.6 mph20.3 kmh 29.23 in989.8 mb 0.00 in0.0 mm 0.00 in0.0 mm 0.00 in0.0 mm
01:24 AM 24.6°F-4.1°C 17.2°F-8.2°C 73% 6.2 mph W10.0 kmh W 12.6 mph20.3 kmh 29.23 in989.8 mb 0.00 in0.0 mm 0.00 in0.0 mm 0.00 in0.0 mm
01:23 AM 24.6°F-4.1°C 17.2°F-8.2°C 73% 6.9 mph W11.1 kmh W 12.6 mph20.3 kmh 29.23 in989.8 mb 0.00 in0.0 mm 0.00 in0.0 mm 0.00 in0.0 mm
01:22 AM 24.4°F-4.2°C 17.0°F-8.3°C 73% 8.8 mph W14.2 kmh W 12.6 mph20.3 kmh 29.23 in989.8 mb 0.00 in0.0 mm 0.00 in0.0 mm 0.00 in0.0 mm
01:21 AM 24.4°F-4.2°C 17.0°F-8.3°C 73% 8.2 mph W13.2 kmh W 12.6 mph20.3 kmh 29.23 in989.8 mb 0.00 in0.0 mm 0.00 in0.0 mm 0.00 in0.0 mm
01:20 AM 24.4°F-4.2°C 16.6°F-8.6°C 72% 7.4 mph W11.9 kmh W 12.6 mph20.3 kmh 29.23 in989.8 mb 0.00 in0.0 mm 0.00 in0.0 mm 0.00 in0.0 mm
01:18 AM 24.4°F-4.2°C 16.6°F-8.6°C 72% 7.6 mph WSW12.2 kmh WSW 12.6 mph20.3 kmh 29.23 in989.8 mb 0.00 in0.0 mm 0.00 in0.0 mm 0.00 in0.0 mm
01:17 AM 24.4°F-4.2°C 16.6°F-8.6°C 72% 7.2 mph WSW11.6 kmh WSW 12.6 mph20.3 kmh 29.23 in989.8 mb 0.00 in0.0 mm 0.00 in0.0 mm 0.00 in0.0 mm
01:16 AM 24.4°F-4.2°C 16.6°F-8.6°C 72% 6.4 mph W10.3 kmh W 12.6 mph20.3 kmh 29.23 in989.8 mb 0.00 in0.0 mm 0.00 in0.0 mm 0.00 in0.0 mm
01:15 AM 24.4°F-4.2°C 16.6°F-8.6°C 72% 6.0 mph W9.7 kmh W 12.6 mph20.3 kmh 29.23 in989.8 mb 0.00 in0.0 mm 0.00 in0.0 mm 0.00 in0.0 mm
01:14 AM 24.4°F-4.2°C 16.6°F-8.6°C 72% 6.7 mph W10.8 kmh W 15.9 mph25.6 kmh 29.23 in989.8 mb 0.00 in0.0 mm 0.00 in0.0 mm 0.00 in0.0 mm
01:13 AM 24.4°F-4.2°C 16.6°F-8.6°C 72% 8.0 mph W12.9 kmh W 15.9 mph25.6 kmh 29.23 in989.8 mb 0.00 in0.0 mm 0.00 in0.0 mm 0.00 in0.0 mm
01:12 AM 24.4°F-4.2°C 16.6°F-8.6°C 72% 7.8 mph W12.6 kmh W 15.9 mph25.6 kmh 29.23 in989.8 mb 0.00 in0.0 mm 0.00 in0.0 mm 0.00 in0.0 mm
01:11 AM 24.4°F-4.2°C 16.6°F-8.6°C 72% 7.7 mph WSW12.4 kmh WSW 15.9 mph25.6 kmh 29.23 in989.8 mb 0.00 in0.0 mm 0.00 in0.0 mm 0.00 in0.0 mm
01:10 AM 24.4°F-4.2°C 16.7°F-8.5°C 72% 7.9 mph WSW12.7 kmh WSW 15.9 mph25.6 kmh 29.23 in989.8 mb 0.00 in0.0 mm 0.00 in0.0 mm 0.00 in0.0 mm
01:09 AM 24.4°F-4.2°C 16.7°F-8.5°C 72% 8.8 mph W14.2 kmh W 15.9 mph25.6 kmh 29.23 in989.8 mb 0.00 in0.0 mm 0.00 in0.0 mm 0.00 in0.0 mm
01:08 AM 24.4°F-4.2°C 16.7°F-8.5°C 72% 8.4 mph W13.5 kmh W 15.9 mph25.6 kmh 29.23 in989.8 mb 0.00 in0.0 mm 0.00 in0.0 mm 0.00 in0.0 mm
01:07 AM 24.4°F-4.2°C 16.7°F-8.5°C 72% 8.4 mph W13.5 kmh W 15.9 mph25.6 kmh 29.23 in989.8 mb 0.00 in0.0 mm 0.00 in0.0 mm 0.00 in0.0 mm
01:06 AM 24.4°F-4.2°C 16.7°F-8.5°C 72% 8.7 mph W14.0 kmh W 15.9 mph25.6 kmh 29.23 in989.8 mb 0.00 in0.0 mm 0.00 in0.0 mm 0.00 in0.0 mm
01:05 AM 24.4°F-4.2°C 16.7°F-8.5°C 72% 8.5 mph W13.7 kmh W 15.9 mph25.6 kmh 29.23 in989.8 mb 0.00 in0.0 mm 0.00 in0.0 mm 0.00 in0.0 mm
01:04 AM 24.4°F-4.2°C 16.7°F-8.5°C 72% 10.4 mph W16.7 kmh W 14.6 mph23.5 kmh 29.23 in989.8 mb 0.00 in0.0 mm 0.00 in0.0 mm 0.00 in0.0 mm
01:03 AM 24.4°F-4.2°C 16.7°F-8.5°C 72% 9.2 mph W14.8 kmh W 14.6 mph23.5 kmh 29.23 in989.8 mb 0.00 in0.0 mm 0.00 in0.0 mm 0.00 in0.0 mm
01:02 AM 24.4°F-4.2°C 16.7°F-8.5°C 72% 7.9 mph W12.7 kmh W 14.6 mph23.5 kmh 29.23 in989.8 mb 0.00 in0.0 mm 0.00 in0.0 mm 0.00 in0.0 mm
01:01 AM 24.4°F-4.2°C 16.7°F-8.5°C 72% 7.6 mph W12.2 kmh W 13.3 mph21.4 kmh 29.23 in989.8 mb 0.00 in0.0 mm 0.00 in0.0 mm 0.00 in0.0 mm
01:00 AM 24.4°F-4.2°C 16.7°F-8.5°C 72% 7.9 mph W12.7 kmh W 13.3 mph21.4 kmh 29.23 in989.8 mb 0.00 in0.0 mm 0.00 in0.0 mm 0.00 in0.0 mm
12:59 AM 24.4°F-4.2°C 16.7°F-8.5°C 72% 8.8 mph W14.2 kmh W 12.0 mph19.3 kmh 29.23 in989.8 mb 0.00 in0.0 mm 0.00 in0.0 mm 0.00 in0.0 mm
12:58 AM 24.4°F-4.2°C 16.7°F-8.5°C 72% 8.2 mph W13.2 kmh W 12.0 mph19.3 kmh 29.23 in989.8 mb 0.00 in0.0 mm 0.00 in0.0 mm 0.00 in0.0 mm
12:57 AM 24.4°F-4.2°C 16.7°F-8.5°C 72% 7.7 mph W12.4 kmh W 12.0 mph19.3 kmh 29.23 in989.8 mb 0.00 in0.0 mm 0.00 in0.0 mm 0.00 in0.0 mm
12:56 AM 24.4°F-4.2°C 16.7°F-8.5°C 72% 7.8 mph W12.6 kmh W 12.0 mph19.3 kmh 29.23 in989.8 mb 0.00 in0.0 mm 0.00 in0.0 mm 0.00 in0.0 mm
12:55 AM 24.6°F-4.1°C 16.9°F-8.4°C 72% 8.7 mph W14.0 kmh W 12.0 mph19.3 kmh 29.23 in989.8 mb 0.00 in0.0 mm 0.00 in0.0 mm 0.00 in0.0 mm
12:54 AM 24.6°F-4.1°C 16.9°F-8.4°C 72% 8.8 mph W14.2 kmh W 12.0 mph19.3 kmh 29.23 in989.8 mb 0.00 in0.0 mm 0.00 in0.0 mm 0.00 in0.0 mm
12:53 AM 24.6°F-4.1°C 16.9°F-8.4°C 72% 8.3 mph W13.4 kmh W 12.0 mph19.3 kmh 29.23 in989.8 mb 0.00 in0.0 mm 0.00 in0.0 mm 0.00 in0.0 mm
12:52 AM 24.6°F-4.1°C 16.9°F-8.4°C 72% 7.5 mph W12.1 kmh W 12.6 mph20.3 kmh 29.23 in989.8 mb 0.00 in0.0 mm 0.00 in0.0 mm 0.00 in0.0 mm
12:51 AM 24.6°F-4.1°C 16.9°F-8.4°C 72% 8.5 mph W13.7 kmh W 12.6 mph20.3 kmh 29.23 in989.8 mb 0.00 in0.0 mm 0.00 in0.0 mm 0.00 in0.0 mm
12:50 AM 24.6°F-4.1°C 16.9°F-8.4°C 72% 8.5 mph W13.7 kmh W 12.6 mph20.3 kmh 29.23 in989.8 mb 0.00 in0.0 mm 0.00 in0.0 mm 0.00 in0.0 mm
12:49 AM 24.6°F-4.1°C 16.9°F-8.4°C 72% 7.3 mph W11.7 kmh W 12.6 mph20.3 kmh 29.23 in989.8 mb 0.00 in0.0 mm 0.00 in0.0 mm 0.00 in0.0 mm
12:48 AM 24.6°F-4.1°C 16.9°F-8.4°C 72% 7.8 mph W12.6 kmh W 12.6 mph20.3 kmh 29.23 in989.8 mb 0.00 in0.0 mm 0.00 in0.0 mm 0.00 in0.0 mm
12:47 AM 24.6°F-4.1°C 16.9°F-8.4°C 72% 7.7 mph W12.4 kmh W 12.6 mph20.3 kmh 29.23 in989.8 mb 0.00 in0.0 mm 0.00 in0.0 mm 0.00 in0.0 mm
12:46 AM 24.8°F-4.0°C 17.0°F-8.3°C 72% 7.1 mph W11.4 kmh W 12.6 mph20.3 kmh 29.23 in989.8 mb 0.00 in0.0 mm 0.00 in0.0 mm 0.00 in0.0 mm
12:45 AM 24.8°F-4.0°C 17.0°F-8.3°C 72% 8.0 mph W12.9 kmh W 12.6 mph20.3 kmh 29.23 in989.8 mb 0.00 in0.0 mm 0.00 in0.0 mm 0.00 in0.0 mm
12:44 AM 24.8°F-4.0°C 17.0°F-8.3°C 72% 8.5 mph W13.7 kmh W 12.6 mph20.3 kmh 29.23 in989.8 mb 0.00 in0.0 mm 0.00 in0.0 mm 0.00 in0.0 mm
12:43 AM 24.8°F-4.0°C 17.0°F-8.3°C 72% 7.7 mph W12.4 kmh W 12.6 mph20.3 kmh 29.23 in989.8 mb 0.00 in0.0 mm 0.00 in0.0 mm 0.00 in0.0 mm
12:42 AM 24.8°F-4.0°C 17.0°F-8.3°C 72% 7.1 mph W11.4 kmh W 12.0 mph19.3 kmh 29.23 in989.8 mb 0.00 in0.0 mm 0.00 in0.0 mm 0.00 in0.0 mm
12:41 AM 24.8°F-4.0°C 17.0°F-8.3°C 72% 7.6 mph W12.2 kmh W 12.0 mph19.3 kmh 29.23 in989.8 mb 0.00 in0.0 mm 0.00 in0.0 mm 0.00 in0.0 mm
12:40 AM 24.8°F-4.0°C 17.1°F-8.3°C 72% 8.9 mph W14.3 kmh W 12.0 mph19.3 kmh 29.23 in989.8 mb 0.00 in0.0 mm 0.00 in0.0 mm 0.00 in0.0 mm
12:39 AM 25.0°F-3.9°C 17.2°F-8.2°C 72% 9.3 mph W15.0 kmh W 12.0 mph19.3 kmh 29.23 in989.8 mb 0.00 in0.0 mm 0.00 in0.0 mm 0.00 in0.0 mm
12:38 AM 25.0°F-3.9°C 17.2°F-8.2°C 72% 8.6 mph W13.8 kmh W 12.0 mph19.3 kmh 29.23 in989.8 mb 0.00 in0.0 mm 0.00 in0.0 mm 0.00 in0.0 mm
12:37 AM 25.0°F-3.9°C 17.2°F-8.2°C 72% 8.3 mph W13.4 kmh W 12.0 mph19.3 kmh 29.23 in989.8 mb 0.00 in0.0 mm 0.00 in0.0 mm 0.00 in0.0 mm
12:36 AM 25.0°F-3.9°C 17.2°F-8.2°C 72% 8.0 mph W12.9 kmh W 12.0 mph19.3 kmh 29.23 in989.8 mb 0.00 in0.0 mm 0.00 in0.0 mm 0.00 in0.0 mm
12:35 AM 25.0°F-3.9°C 17.2°F-8.2°C 72% 7.6 mph W12.2 kmh W 12.0 mph19.3 kmh 29.23 in989.8 mb 0.00 in0.0 mm 0.00 in0.0 mm 0.00 in0.0 mm
12:34 AM 25.0°F-3.9°C 17.2°F-8.2°C 72% 7.6 mph W12.2 kmh W 12.0 mph19.3 kmh 29.23 in989.8 mb 0.00 in0.0 mm 0.00 in0.0 mm 0.00 in0.0 mm
12:33 AM 25.2°F-3.8°C 17.4°F-8.1°C 72% 9.1 mph W14.6 kmh W 12.0 mph19.3 kmh 29.23 in989.8 mb 0.00 in0.0 mm 0.00 in0.0 mm 0.00 in0.0 mm
12:32 AM 25.2°F-3.8°C 17.4°F-8.1°C 72% 9.4 mph W15.1 kmh W 12.0 mph19.3 kmh 29.23 in989.8 mb 0.00 in0.0 mm 0.00 in0.0 mm 0.00 in0.0 mm
12:31 AM 25.2°F-3.8°C 17.4°F-8.1°C 72% 8.6 mph W13.8 kmh W 14.6 mph23.5 kmh 29.23 in989.8 mb 0.00 in0.0 mm 0.00 in0.0 mm 0.00 in0.0 mm
12:30 AM 25.2°F-3.8°C 17.4°F-8.1°C 72% 8.6 mph W13.8 kmh W 14.6 mph23.5 kmh 29.23 in989.8 mb 0.00 in0.0 mm 0.00 in0.0 mm 0.00 in0.0 mm
12:29 AM 25.2°F-3.8°C 17.4°F-8.1°C 72% 8.5 mph W13.7 kmh W 14.6 mph23.5 kmh 29.23 in989.8 mb 0.00 in0.0 mm 0.00 in0.0 mm 0.00 in0.0 mm
12:28 AM 25.2°F-3.8°C 17.4°F-8.1°C 72% 8.0 mph W12.9 kmh W 14.6 mph23.5 kmh 29.23 in989.8 mb 0.00 in0.0 mm 0.00 in0.0 mm 0.00 in0.0 mm
12:27 AM 25.2°F-3.8°C 17.4°F-8.1°C 72% 7.7 mph W12.4 kmh W 14.6 mph23.5 kmh 29.23 in989.8 mb 0.00 in0.0 mm 0.00 in0.0 mm 0.00 in0.0 mm
12:26 AM 25.3°F-3.7°C 17.5°F-8.1°C 72% 7.6 mph W12.2 kmh W 15.2 mph24.5 kmh 29.23 in989.8 mb 0.00 in0.0 mm 0.00 in0.0 mm 0.00 in0.0 mm
12:25 AM 25.3°F-3.7°C 17.5°F-8.1°C 72% 6.7 mph W10.8 kmh W 15.2 mph24.5 kmh 29.23 in989.8 mb 0.00 in0.0 mm 0.00 in0.0 mm 0.00 in0.0 mm
12:24 AM 25.3°F-3.7°C 17.5°F-8.1°C 72% 7.8 mph W12.6 kmh W 15.2 mph24.5 kmh 29.23 in989.8 mb 0.00 in0.0 mm 0.00 in0.0 mm 0.00 in0.0 mm
12:23 AM 25.3°F-3.7°C 17.5°F-8.1°C 72% 9.7 mph W15.6 kmh W 15.2 mph24.5 kmh 29.23 in989.8 mb 0.00 in0.0 mm 0.00 in0.0 mm 0.00 in0.0 mm
12:22 AM 25.3°F-3.7°C 17.5°F-8.1°C 72% 10.6 mph W17.1 kmh W 15.2 mph24.5 kmh 29.23 in989.8 mb 0.00 in0.0 mm 0.00 in0.0 mm 0.00 in0.0 mm
12:21 AM 25.3°F-3.7°C 17.5°F-8.1°C 72% 8.9 mph W14.3 kmh W 15.2 mph24.5 kmh 29.23 in989.8 mb 0.00 in0.0 mm 0.00 in0.0 mm 0.00 in0.0 mm
12:20 AM 25.3°F-3.7°C 17.5°F-8.1°C 72% 8.3 mph W13.4 kmh W 15.2 mph24.5 kmh 29.23 in989.8 mb 0.00 in0.0 mm 0.00 in0.0 mm 0.00 in0.0 mm
12:19 AM 25.3°F-3.7°C 17.5°F-8.1°C 72% 9.4 mph W15.1 kmh W 15.2 mph24.5 kmh 29.23 in989.8 mb 0.00 in0.0 mm 0.00 in0.0 mm 0.00 in0.0 mm
12:18 AM 25.5°F-3.6°C 17.7°F-7.9°C 72% 9.2 mph W14.8 kmh W 15.2 mph24.5 kmh 29.23 in989.8 mb 0.00 in0.0 mm 0.00 in0.0 mm 0.00 in0.0 mm
12:17 AM 25.5°F-3.6°C 17.7°F-7.9°C 72% 8.4 mph W13.5 kmh W 15.2 mph24.5 kmh 29.23 in989.8 mb 0.00 in0.0 mm 0.00 in0.0 mm 0.00 in0.0 mm
12:16 AM 25.5°F-3.6°C 17.7°F-7.9°C 72% 8.1 mph W13.0 kmh W 12.6 mph20.3 kmh 29.23 in989.8 mb 0.00 in0.0 mm 0.00 in0.0 mm 0.00 in0.0 mm
12:15 AM 25.7°F-3.5°C 17.9°F-7.8°C 72% 7.4 mph W11.9 kmh W 12.0 mph19.3 kmh 29.23 in989.8 mb 0.00 in0.0 mm 0.00 in0.0 mm 0.00 in0.0 mm
12:14 AM 25.7°F-3.5°C 17.9°F-7.8°C 72% 6.5 mph W10.5 kmh W 12.0 mph19.3 kmh 29.23 in989.8 mb 0.00 in0.0 mm 0.00 in0.0 mm 0.00 in0.0 mm
12:13 AM 25.7°F-3.5°C 17.9°F-7.8°C 72% 6.4 mph W10.3 kmh W 12.6 mph20.3 kmh 29.23 in989.8 mb 0.00 in0.0 mm 0.00 in0.0 mm 0.00 in0.0 mm
12:12 AM 25.9°F-3.4°C 18.1°F-7.7°C 72% 6.4 mph W10.3 kmh W 12.6 mph20.3 kmh 29.23 in989.8 mb 0.00 in0.0 mm 0.00 in0.0 mm 0.00 in0.0 mm
12:11 AM 25.9°F-3.4°C 18.1°F-7.7°C 72% 6.2 mph WSW10.0 kmh WSW 12.6 mph20.3 kmh 29.23 in989.8 mb 0.00 in0.0 mm 0.00 in0.0 mm 0.00 in0.0 mm
12:10 AM 25.9°F-3.4°C 18.1°F-7.7°C 72% 6.4 mph W10.3 kmh W 12.6 mph20.3 kmh 29.23 in989.8 mb 0.00 in0.0 mm 0.00 in0.0 mm 0.00 in0.0 mm
12:09 AM 25.9°F-3.4°C 18.1°F-7.7°C 72% 7.3 mph W11.7 kmh W 12.6 mph20.3 kmh 29.23 in989.8 mb 0.00 in0.0 mm 0.00 in0.0 mm 0.00 in0.0 mm
12:08 AM 26.1°F-3.3°C 18.3°F-7.6°C 72% 8.2 mph W13.2 kmh W 13.3 mph21.4 kmh 29.23 in989.8 mb 0.00 in0.0 mm 0.00 in0.0 mm 0.00 in0.0 mm
12:07 AM 26.1°F-3.3°C 18.3°F-7.6°C 72% 8.4 mph W13.5 kmh W 13.3 mph21.4 kmh 29.23 in989.8 mb 0.00 in0.0 mm 0.00 in0.0 mm 0.00 in0.0 mm
12:06 AM 26.1°F-3.3°C 18.3°F-7.6°C 72% 8.8 mph W14.2 kmh W 13.3 mph21.4 kmh 29.23 in989.8 mb 0.00 in0.0 mm 0.00 in0.0 mm 0.00 in0.0 mm
12:05 AM 26.1°F-3.3°C 18.3°F-7.6°C 72% 8.1 mph W13.0 kmh W 13.3 mph21.4 kmh 29.23 in989.8 mb 0.00 in0.0 mm 0.00 in0.0 mm 0.00 in0.0 mm
12:04 AM 26.2°F-3.2°C 18.4°F-7.6°C 72% 7.8 mph W12.6 kmh W 13.3 mph21.4 kmh 29.23 in989.8 mb 0.00 in0.0 mm 0.00 in0.0 mm 0.00 in0.0 mm
12:03 AM 26.2°F-3.2°C 18.4°F-7.6°C 72% 9.5 mph W15.3 kmh W 13.3 mph21.4 kmh 29.23 in989.8 mb 0.00 in0.0 mm 0.00 in0.0 mm 0.00 in0.0 mm
12:02 AM 26.2°F-3.2°C 18.4°F-7.6°C 72% 10.6 mph W17.1 kmh W 13.3 mph21.4 kmh 29.23 in989.8 mb 0.00 in0.0 mm 0.00 in0.0 mm 0.00 in0.0 mm
12:01 AM 26.2°F-3.2°C 18.4°F-7.6°C 72% 10.7 mph WNW17.2 kmh WNW 13.3 mph21.4 kmh 29.23 in989.8 mb 0.00 in0.0 mm 0.00 in0.0 mm 0.00 in0.0 mm
12:00 AM 26.2°F-3.2°C 18.4°F-7.6°C 72% 10.8 mph WNW17.4 kmh WNW 13.3 mph21.4 kmh 29.23 in989.8 mb 0.00 in0.0 mm 0.00 in0.0 mm 0.00 in0.0 mm